<?xml version="1.0" encoding="UTF-8" standalone="no" ?>
<gpx xmlns="http://www.topografix.com/GPX/1/1" xmlns:xsi="http://www.w3.org/2001/XMLSchema-instance" xsi:schemaLocation="http://www.topografix.com/GPX/1/1 http://www.topografix.com/GPX/1/1/gpx.xsd" version="1.1" creator="VisuGPX - https://www.visugpx.com">
  <metadata>
    <name>Une balade sans carte, au hasard des chemins</name>
    <desc><![CDATA[beaucoup de pas à cause de la chaleur]]></desc>
  </metadata>
  <trk>
    <name><![CDATA[Untitled]]></name>
    <trkseg>
      <trkpt lat="48.70761" lon="1.75783">
        <ele>173.19999694824</ele>
        <time>2011-08-01T11:51:05.000Z</time>
      </trkpt>
      <trkpt lat="48.7076" lon="1.75782">
        <ele>173.39999389648</ele>
        <time>2011-08-01T11:51:06.000Z</time>
      </trkpt>
      <trkpt lat="48.70754" lon="1.7577">
        <ele>173.60000610352</ele>
        <time>2011-08-01T11:51:16.000Z</time>
      </trkpt>
      <trkpt lat="48.70739" lon="1.75762">
        <ele>173.80000305176</ele>
        <time>2011-08-01T11:51:21.000Z</time>
      </trkpt>
      <trkpt lat="48.70729" lon="1.75752">
        <ele>173.80000305176</ele>
        <time>2011-08-01T11:51:28.000Z</time>
      </trkpt>
      <trkpt lat="48.70725" lon="1.75742">
        <ele>173.80000305176</ele>
        <time>2011-08-01T11:51:37.000Z</time>
      </trkpt>
      <trkpt lat="48.70721" lon="1.75732">
        <ele>173.80000305176</ele>
        <time>2011-08-01T11:51:46.000Z</time>
      </trkpt>
      <trkpt lat="48.70711" lon="1.75723">
        <ele>173.80000305176</ele>
        <time>2011-08-01T11:51:53.000Z</time>
      </trkpt>
      <trkpt lat="48.70706" lon="1.75717">
        <ele>174</ele>
        <time>2011-08-01T11:51:59.000Z</time>
      </trkpt>
      <trkpt lat="48.70707" lon="1.75716">
        <ele>174</ele>
        <time>2011-08-01T11:52:00.000Z</time>
      </trkpt>
      <trkpt lat="48.70704" lon="1.7571">
        <ele>174</ele>
        <time>2011-08-01T11:52:04.000Z</time>
      </trkpt>
      <trkpt lat="48.70702" lon="1.75703">
        <ele>174</ele>
        <time>2011-08-01T11:52:11.000Z</time>
      </trkpt>
      <trkpt lat="48.70699" lon="1.75697">
        <ele>174</ele>
        <time>2011-08-01T11:52:16.000Z</time>
      </trkpt>
      <trkpt lat="48.70695" lon="1.75693">
        <ele>174.19999694824</ele>
        <time>2011-08-01T11:52:21.000Z</time>
      </trkpt>
      <trkpt lat="48.70696" lon="1.75691">
        <ele>174.19999694824</ele>
        <time>2011-08-01T11:52:24.000Z</time>
      </trkpt>
      <trkpt lat="48.70694" lon="1.7569">
        <ele>174.19999694824</ele>
        <time>2011-08-01T11:52:29.000Z</time>
      </trkpt>
      <trkpt lat="48.70684" lon="1.75698">
        <ele>174.19999694824</ele>
        <time>2011-08-01T11:52:42.000Z</time>
      </trkpt>
      <trkpt lat="48.70686" lon="1.75704">
        <ele>174.19999694824</ele>
        <time>2011-08-01T11:52:44.000Z</time>
      </trkpt>
      <trkpt lat="48.70691" lon="1.75717">
        <ele>174</ele>
        <time>2011-08-01T11:52:50.000Z</time>
      </trkpt>
      <trkpt lat="48.70692" lon="1.75722">
        <ele>174</ele>
        <time>2011-08-01T11:52:52.000Z</time>
      </trkpt>
      <trkpt lat="48.70679" lon="1.75726">
        <ele>174.19999694824</ele>
        <time>2011-08-01T11:52:58.000Z</time>
      </trkpt>
      <trkpt lat="48.70675" lon="1.75729">
        <ele>174.19999694824</ele>
        <time>2011-08-01T11:53:02.000Z</time>
      </trkpt>
      <trkpt lat="48.70673" lon="1.75732">
        <ele>174</ele>
        <time>2011-08-01T11:53:09.000Z</time>
      </trkpt>
      <trkpt lat="48.70668" lon="1.75736">
        <ele>174</ele>
        <time>2011-08-01T11:53:13.000Z</time>
      </trkpt>
      <trkpt lat="48.70655" lon="1.75742">
        <ele>174.80000305176</ele>
        <time>2011-08-01T11:53:20.000Z</time>
      </trkpt>
      <trkpt lat="48.70653" lon="1.75743">
        <ele>174.80000305176</ele>
        <time>2011-08-01T11:53:21.000Z</time>
      </trkpt>
      <trkpt lat="48.70647" lon="1.75756">
        <ele>175</ele>
        <time>2011-08-01T11:53:29.000Z</time>
      </trkpt>
      <trkpt lat="48.70641" lon="1.75764">
        <ele>175</ele>
        <time>2011-08-01T11:53:35.000Z</time>
      </trkpt>
      <trkpt lat="48.70638" lon="1.75772">
        <ele>175</ele>
        <time>2011-08-01T11:53:41.000Z</time>
      </trkpt>
      <trkpt lat="48.70639" lon="1.75778">
        <ele>174.80000305176</ele>
        <time>2011-08-01T11:53:44.000Z</time>
      </trkpt>
      <trkpt lat="48.70636" lon="1.75782">
        <ele>174.80000305176</ele>
        <time>2011-08-01T11:53:47.000Z</time>
      </trkpt>
      <trkpt lat="48.70623" lon="1.75794">
        <ele>175.19999694824</ele>
        <time>2011-08-01T11:53:54.000Z</time>
      </trkpt>
      <trkpt lat="48.7061" lon="1.758">
        <ele>175.60000610352</ele>
        <time>2011-08-01T11:53:59.000Z</time>
      </trkpt>
      <trkpt lat="48.70603" lon="1.75806">
        <ele>175.80000305176</ele>
        <time>2011-08-01T11:54:03.000Z</time>
      </trkpt>
      <trkpt lat="48.70598" lon="1.7581">
        <ele>176</ele>
        <time>2011-08-01T11:54:06.000Z</time>
      </trkpt>
      <trkpt lat="48.70583" lon="1.75813">
        <ele>176.60000610352</ele>
        <time>2011-08-01T11:54:11.000Z</time>
      </trkpt>
      <trkpt lat="48.70571" lon="1.75817">
        <ele>177.60000610352</ele>
        <time>2011-08-01T11:54:16.000Z</time>
      </trkpt>
      <trkpt lat="48.70566" lon="1.75822">
        <ele>177.80000305176</ele>
        <time>2011-08-01T11:54:20.000Z</time>
      </trkpt>
      <trkpt lat="48.70562" lon="1.7583">
        <ele>178</ele>
        <time>2011-08-01T11:54:25.000Z</time>
      </trkpt>
      <trkpt lat="48.70551" lon="1.7583">
        <ele>179</ele>
        <time>2011-08-01T11:54:30.000Z</time>
      </trkpt>
      <trkpt lat="48.70543" lon="1.75834">
        <ele>179.80000305176</ele>
        <time>2011-08-01T11:54:35.000Z</time>
      </trkpt>
      <trkpt lat="48.70551" lon="1.7585">
        <ele>178.80000305176</ele>
        <time>2011-08-01T11:54:40.000Z</time>
      </trkpt>
      <trkpt lat="48.70546" lon="1.75859">
        <ele>179.19999694824</ele>
        <time>2011-08-01T11:54:46.000Z</time>
      </trkpt>
      <trkpt lat="48.70542" lon="1.75863">
        <ele>179.60000610352</ele>
        <time>2011-08-01T11:54:50.000Z</time>
      </trkpt>
      <trkpt lat="48.70534" lon="1.7587">
        <ele>180</ele>
        <time>2011-08-01T11:54:56.000Z</time>
      </trkpt>
      <trkpt lat="48.70526" lon="1.75875">
        <ele>180.60000610352</ele>
        <time>2011-08-01T11:55:01.000Z</time>
      </trkpt>
      <trkpt lat="48.70518" lon="1.7588">
        <ele>181.39999389648</ele>
        <time>2011-08-01T11:55:05.000Z</time>
      </trkpt>
      <trkpt lat="48.70532" lon="1.75902">
        <ele>179.80000305176</ele>
        <time>2011-08-01T11:55:11.000Z</time>
      </trkpt>
      <trkpt lat="48.70535" lon="1.75908">
        <ele>179.60000610352</ele>
        <time>2011-08-01T11:55:13.000Z</time>
      </trkpt>
      <trkpt lat="48.70525" lon="1.75918">
        <ele>180</ele>
        <time>2011-08-01T11:55:20.000Z</time>
      </trkpt>
      <trkpt lat="48.70515" lon="1.75921">
        <ele>180.60000610352</ele>
        <time>2011-08-01T11:55:25.000Z</time>
      </trkpt>
      <trkpt lat="48.7051" lon="1.75928">
        <ele>180.60000610352</ele>
        <time>2011-08-01T11:55:31.000Z</time>
      </trkpt>
      <trkpt lat="48.70499" lon="1.7593">
        <ele>181.19999694824</ele>
        <time>2011-08-01T11:55:36.000Z</time>
      </trkpt>
      <trkpt lat="48.7049" lon="1.75936">
        <ele>181.19999694824</ele>
        <time>2011-08-01T11:55:43.000Z</time>
      </trkpt>
      <trkpt lat="48.70479" lon="1.75941">
        <ele>181.19999694824</ele>
        <time>2011-08-01T11:55:49.000Z</time>
      </trkpt>
      <trkpt lat="48.7047" lon="1.75947">
        <ele>181</ele>
        <time>2011-08-01T11:55:54.000Z</time>
      </trkpt>
      <trkpt lat="48.70457" lon="1.75954">
        <ele>181</ele>
        <time>2011-08-01T11:56:00.000Z</time>
      </trkpt>
      <trkpt lat="48.7045" lon="1.75966">
        <ele>180.80000305176</ele>
        <time>2011-08-01T11:56:07.000Z</time>
      </trkpt>
      <trkpt lat="48.70447" lon="1.75973">
        <ele>180.80000305176</ele>
        <time>2011-08-01T11:56:11.000Z</time>
      </trkpt>
      <trkpt lat="48.70448" lon="1.75985">
        <ele>180.19999694824</ele>
        <time>2011-08-01T11:56:16.000Z</time>
      </trkpt>
      <trkpt lat="48.7044" lon="1.75993">
        <ele>180.19999694824</ele>
        <time>2011-08-01T11:56:22.000Z</time>
      </trkpt>
      <trkpt lat="48.70447" lon="1.76008">
        <ele>179.39999389648</ele>
        <time>2011-08-01T11:56:26.000Z</time>
      </trkpt>
      <trkpt lat="48.70451" lon="1.76024">
        <ele>178.39999389648</ele>
        <time>2011-08-01T11:56:32.000Z</time>
      </trkpt>
      <trkpt lat="48.70454" lon="1.76039">
        <ele>177.39999389648</ele>
        <time>2011-08-01T11:56:38.000Z</time>
      </trkpt>
      <trkpt lat="48.70455" lon="1.76043">
        <ele>177.19999694824</ele>
        <time>2011-08-01T11:56:40.000Z</time>
      </trkpt>
      <trkpt lat="48.70456" lon="1.76048">
        <ele>177</ele>
        <time>2011-08-01T11:56:43.000Z</time>
      </trkpt>
      <trkpt lat="48.70455" lon="1.76054">
        <ele>176.60000610352</ele>
        <time>2011-08-01T11:56:46.000Z</time>
      </trkpt>
      <trkpt lat="48.70471" lon="1.76075">
        <ele>174.80000305176</ele>
        <time>2011-08-01T11:56:50.000Z</time>
      </trkpt>
      <trkpt lat="48.70475" lon="1.76085">
        <ele>174</ele>
        <time>2011-08-01T11:56:53.000Z</time>
      </trkpt>
      <trkpt lat="48.70467" lon="1.76084">
        <ele>174.39999389648</ele>
        <time>2011-08-01T11:56:56.000Z</time>
      </trkpt>
      <trkpt lat="48.70469" lon="1.76087">
        <ele>174.39999389648</ele>
        <time>2011-08-01T11:56:57.000Z</time>
      </trkpt>
      <trkpt lat="48.70473" lon="1.76098">
        <ele>174</ele>
        <time>2011-08-01T11:57:01.000Z</time>
      </trkpt>
      <trkpt lat="48.70474" lon="1.76112">
        <ele>173.80000305176</ele>
        <time>2011-08-01T11:57:07.000Z</time>
      </trkpt>
      <trkpt lat="48.70472" lon="1.76126">
        <ele>173.80000305176</ele>
        <time>2011-08-01T11:57:14.000Z</time>
      </trkpt>
      <trkpt lat="48.70474" lon="1.76137">
        <ele>173.60000610352</ele>
        <time>2011-08-01T11:57:19.000Z</time>
      </trkpt>
      <trkpt lat="48.70474" lon="1.76139">
        <ele>173.60000610352</ele>
        <time>2011-08-01T11:57:20.000Z</time>
      </trkpt>
      <trkpt lat="48.70466" lon="1.76147">
        <ele>173.80000305176</ele>
        <time>2011-08-01T11:57:26.000Z</time>
      </trkpt>
      <trkpt lat="48.70462" lon="1.76155">
        <ele>173.80000305176</ele>
        <time>2011-08-01T11:57:31.000Z</time>
      </trkpt>
      <trkpt lat="48.70455" lon="1.76153">
        <ele>174.19999694824</ele>
        <time>2011-08-01T11:57:36.000Z</time>
      </trkpt>
      <trkpt lat="48.70454" lon="1.76153">
        <ele>174.19999694824</ele>
        <time>2011-08-01T11:57:42.000Z</time>
      </trkpt>
      <trkpt lat="48.70452" lon="1.76152">
        <ele>174.39999389648</ele>
        <time>2011-08-01T11:57:45.000Z</time>
      </trkpt>
      <trkpt lat="48.70451" lon="1.76151">
        <ele>174.39999389648</ele>
        <time>2011-08-01T11:57:48.000Z</time>
      </trkpt>
      <trkpt lat="48.70452" lon="1.76152">
        <ele>174.39999389648</ele>
        <time>2011-08-01T11:57:51.000Z</time>
      </trkpt>
      <trkpt lat="48.70457" lon="1.76154">
        <ele>174.19999694824</ele>
        <time>2011-08-01T11:57:59.000Z</time>
      </trkpt>
      <trkpt lat="48.70448" lon="1.76154">
        <ele>174.60000610352</ele>
        <time>2011-08-01T11:58:18.000Z</time>
      </trkpt>
      <trkpt lat="48.70433" lon="1.76151">
        <ele>175.39999389648</ele>
        <time>2011-08-01T11:58:31.000Z</time>
      </trkpt>
      <trkpt lat="48.70434" lon="1.76157">
        <ele>175.19999694824</ele>
        <time>2011-08-01T11:58:36.000Z</time>
      </trkpt>
      <trkpt lat="48.70433" lon="1.76158">
        <ele>175.19999694824</ele>
        <time>2011-08-01T11:58:37.000Z</time>
      </trkpt>
      <trkpt lat="48.70436" lon="1.7617">
        <ele>174.80000305176</ele>
        <time>2011-08-01T11:58:43.000Z</time>
      </trkpt>
      <trkpt lat="48.70436" lon="1.76171">
        <ele>174.80000305176</ele>
        <time>2011-08-01T11:58:44.000Z</time>
      </trkpt>
      <trkpt lat="48.7044" lon="1.76179">
        <ele>174.60000610352</ele>
        <time>2011-08-01T11:58:49.000Z</time>
      </trkpt>
      <trkpt lat="48.70442" lon="1.76185">
        <ele>174.19999694824</ele>
        <time>2011-08-01T11:58:53.000Z</time>
      </trkpt>
      <trkpt lat="48.70439" lon="1.76192">
        <ele>174.19999694824</ele>
        <time>2011-08-01T11:58:58.000Z</time>
      </trkpt>
      <trkpt lat="48.70438" lon="1.76193">
        <ele>174.19999694824</ele>
        <time>2011-08-01T11:58:59.000Z</time>
      </trkpt>
      <trkpt lat="48.7044" lon="1.762">
        <ele>174</ele>
        <time>2011-08-01T11:59:03.000Z</time>
      </trkpt>
      <trkpt lat="48.70448" lon="1.76207">
        <ele>173.39999389648</ele>
        <time>2011-08-01T11:59:07.000Z</time>
      </trkpt>
      <trkpt lat="48.7045" lon="1.76215">
        <ele>173.19999694824</ele>
        <time>2011-08-01T11:59:11.000Z</time>
      </trkpt>
      <trkpt lat="48.70451" lon="1.76218">
        <ele>173</ele>
        <time>2011-08-01T11:59:12.000Z</time>
      </trkpt>
      <trkpt lat="48.70457" lon="1.7623">
        <ele>172.39999389648</ele>
        <time>2011-08-01T11:59:16.000Z</time>
      </trkpt>
      <trkpt lat="48.7046" lon="1.76245">
        <ele>172</ele>
        <time>2011-08-01T11:59:22.000Z</time>
      </trkpt>
      <trkpt lat="48.70458" lon="1.76248">
        <ele>172</ele>
        <time>2011-08-01T11:59:24.000Z</time>
      </trkpt>
      <trkpt lat="48.70454" lon="1.76261">
        <ele>172.19999694824</ele>
        <time>2011-08-01T11:59:31.000Z</time>
      </trkpt>
      <trkpt lat="48.70455" lon="1.76263">
        <ele>172.19999694824</ele>
        <time>2011-08-01T11:59:32.000Z</time>
      </trkpt>
      <trkpt lat="48.70453" lon="1.76271">
        <ele>172.19999694824</ele>
        <time>2011-08-01T11:59:37.000Z</time>
      </trkpt>
      <trkpt lat="48.70449" lon="1.76278">
        <ele>172.39999389648</ele>
        <time>2011-08-01T11:59:40.000Z</time>
      </trkpt>
      <trkpt lat="48.70441" lon="1.76287">
        <ele>172.80000305176</ele>
        <time>2011-08-01T11:59:47.000Z</time>
      </trkpt>
      <trkpt lat="48.70439" lon="1.76288">
        <ele>173</ele>
        <time>2011-08-01T11:59:48.000Z</time>
      </trkpt>
      <trkpt lat="48.70438" lon="1.763">
        <ele>173</ele>
        <time>2011-08-01T11:59:55.000Z</time>
      </trkpt>
      <trkpt lat="48.70438" lon="1.76302">
        <ele>173</ele>
        <time>2011-08-01T11:59:56.000Z</time>
      </trkpt>
      <trkpt lat="48.70436" lon="1.76314">
        <ele>173.19999694824</ele>
        <time>2011-08-01T12:00:02.000Z</time>
      </trkpt>
      <trkpt lat="48.70436" lon="1.76319">
        <ele>173.19999694824</ele>
        <time>2011-08-01T12:00:06.000Z</time>
      </trkpt>
      <trkpt lat="48.70437" lon="1.76322">
        <ele>173.19999694824</ele>
        <time>2011-08-01T12:00:08.000Z</time>
      </trkpt>
      <trkpt lat="48.70441" lon="1.76333">
        <ele>173</ele>
        <time>2011-08-01T12:00:14.000Z</time>
      </trkpt>
      <trkpt lat="48.70444" lon="1.76341">
        <ele>173.19999694824</ele>
        <time>2011-08-01T12:00:18.000Z</time>
      </trkpt>
      <trkpt lat="48.70451" lon="1.76352">
        <ele>173.60000610352</ele>
        <time>2011-08-01T12:00:22.000Z</time>
      </trkpt>
      <trkpt lat="48.70448" lon="1.76358">
        <ele>174</ele>
        <time>2011-08-01T12:00:26.000Z</time>
      </trkpt>
      <trkpt lat="48.70449" lon="1.76365">
        <ele>174.19999694824</ele>
        <time>2011-08-01T12:00:29.000Z</time>
      </trkpt>
      <trkpt lat="48.70449" lon="1.76373">
        <ele>174.60000610352</ele>
        <time>2011-08-01T12:00:34.000Z</time>
      </trkpt>
      <trkpt lat="48.70447" lon="1.76377">
        <ele>175</ele>
        <time>2011-08-01T12:00:37.000Z</time>
      </trkpt>
      <trkpt lat="48.70451" lon="1.76391">
        <ele>175.39999389648</ele>
        <time>2011-08-01T12:00:44.000Z</time>
      </trkpt>
      <trkpt lat="48.70454" lon="1.76399">
        <ele>175.80000305176</ele>
        <time>2011-08-01T12:00:49.000Z</time>
      </trkpt>
      <trkpt lat="48.70459" lon="1.7641">
        <ele>176</ele>
        <time>2011-08-01T12:00:56.000Z</time>
      </trkpt>
      <trkpt lat="48.70463" lon="1.76419">
        <ele>176.19999694824</ele>
        <time>2011-08-01T12:01:00.000Z</time>
      </trkpt>
      <trkpt lat="48.70464" lon="1.76428">
        <ele>176.39999389648</ele>
        <time>2011-08-01T12:01:04.000Z</time>
      </trkpt>
      <trkpt lat="48.70463" lon="1.7643">
        <ele>176.60000610352</ele>
        <time>2011-08-01T12:01:05.000Z</time>
      </trkpt>
      <trkpt lat="48.7046" lon="1.76447">
        <ele>177</ele>
        <time>2011-08-01T12:01:12.000Z</time>
      </trkpt>
      <trkpt lat="48.70458" lon="1.76452">
        <ele>177.19999694824</ele>
        <time>2011-08-01T12:01:15.000Z</time>
      </trkpt>
      <trkpt lat="48.70452" lon="1.76464">
        <ele>177.80000305176</ele>
        <time>2011-08-01T12:01:22.000Z</time>
      </trkpt>
      <trkpt lat="48.70453" lon="1.76466">
        <ele>177.80000305176</ele>
        <time>2011-08-01T12:01:25.000Z</time>
      </trkpt>
      <trkpt lat="48.70455" lon="1.76463">
        <ele>177.60000610352</ele>
        <time>2011-08-01T12:01:39.000Z</time>
      </trkpt>
      <trkpt lat="48.70461" lon="1.76466">
        <ele>177.39999389648</ele>
        <time>2011-08-01T12:01:43.000Z</time>
      </trkpt>
      <trkpt lat="48.70462" lon="1.76468">
        <ele>177.39999389648</ele>
        <time>2011-08-01T12:01:55.000Z</time>
      </trkpt>
      <trkpt lat="48.7046" lon="1.76466">
        <ele>177.39999389648</ele>
        <time>2011-08-01T12:01:59.000Z</time>
      </trkpt>
      <trkpt lat="48.70462" lon="1.76466">
        <ele>177.39999389648</ele>
        <time>2011-08-01T12:02:02.000Z</time>
      </trkpt>
      <trkpt lat="48.70465" lon="1.76468">
        <ele>177.39999389648</ele>
        <time>2011-08-01T12:02:03.000Z</time>
      </trkpt>
      <trkpt lat="48.70463" lon="1.76471">
        <ele>177.39999389648</ele>
        <time>2011-08-01T12:02:09.000Z</time>
      </trkpt>
      <trkpt lat="48.70458" lon="1.76472">
        <ele>177.80000305176</ele>
        <time>2011-08-01T12:02:19.000Z</time>
      </trkpt>
      <trkpt lat="48.70459" lon="1.76479">
        <ele>177.80000305176</ele>
        <time>2011-08-01T12:02:24.000Z</time>
      </trkpt>
      <trkpt lat="48.70458" lon="1.7648">
        <ele>178</ele>
        <time>2011-08-01T12:02:28.000Z</time>
      </trkpt>
      <trkpt lat="48.70459" lon="1.76481">
        <ele>177.80000305176</ele>
        <time>2011-08-01T12:02:31.000Z</time>
      </trkpt>
      <trkpt lat="48.70463" lon="1.76487">
        <ele>177.80000305176</ele>
        <time>2011-08-01T12:02:34.000Z</time>
      </trkpt>
      <trkpt lat="48.70462" lon="1.76489">
        <ele>178</ele>
        <time>2011-08-01T12:02:36.000Z</time>
      </trkpt>
      <trkpt lat="48.70459" lon="1.76492">
        <ele>178.19999694824</ele>
        <time>2011-08-01T12:02:41.000Z</time>
      </trkpt>
      <trkpt lat="48.70455" lon="1.76496">
        <ele>178.39999389648</ele>
        <time>2011-08-01T12:02:45.000Z</time>
      </trkpt>
      <trkpt lat="48.70455" lon="1.76497">
        <ele>178.60000610352</ele>
        <time>2011-08-01T12:02:46.000Z</time>
      </trkpt>
      <trkpt lat="48.70454" lon="1.76504">
        <ele>178.80000305176</ele>
        <time>2011-08-01T12:02:51.000Z</time>
      </trkpt>
      <trkpt lat="48.70455" lon="1.76515">
        <ele>178.60000610352</ele>
        <time>2011-08-01T12:02:55.000Z</time>
      </trkpt>
      <trkpt lat="48.70453" lon="1.76521">
        <ele>178.80000305176</ele>
        <time>2011-08-01T12:02:58.000Z</time>
      </trkpt>
      <trkpt lat="48.7045" lon="1.7653">
        <ele>179</ele>
        <time>2011-08-01T12:03:03.000Z</time>
      </trkpt>
      <trkpt lat="48.70448" lon="1.76539">
        <ele>179.19999694824</ele>
        <time>2011-08-01T12:03:08.000Z</time>
      </trkpt>
      <trkpt lat="48.70453" lon="1.76545">
        <ele>179</ele>
        <time>2011-08-01T12:03:12.000Z</time>
      </trkpt>
      <trkpt lat="48.70451" lon="1.76541">
        <ele>179</ele>
        <time>2011-08-01T12:03:22.000Z</time>
      </trkpt>
      <trkpt lat="48.7045" lon="1.76546">
        <ele>179.19999694824</ele>
        <time>2011-08-01T12:03:25.000Z</time>
      </trkpt>
      <trkpt lat="48.70445" lon="1.76555">
        <ele>179.39999389648</ele>
        <time>2011-08-01T12:03:31.000Z</time>
      </trkpt>
      <trkpt lat="48.70443" lon="1.76562">
        <ele>179.60000610352</ele>
        <time>2011-08-01T12:03:35.000Z</time>
      </trkpt>
      <trkpt lat="48.70436" lon="1.76568">
        <ele>180</ele>
        <time>2011-08-01T12:03:40.000Z</time>
      </trkpt>
      <trkpt lat="48.70433" lon="1.76576">
        <ele>180</ele>
        <time>2011-08-01T12:03:45.000Z</time>
      </trkpt>
      <trkpt lat="48.70432" lon="1.76578">
        <ele>180.19999694824</ele>
        <time>2011-08-01T12:03:46.000Z</time>
      </trkpt>
      <trkpt lat="48.70431" lon="1.76584">
        <ele>180.19999694824</ele>
        <time>2011-08-01T12:03:50.000Z</time>
      </trkpt>
      <trkpt lat="48.70428" lon="1.76588">
        <ele>180.39999389648</ele>
        <time>2011-08-01T12:03:55.000Z</time>
      </trkpt>
      <trkpt lat="48.70422" lon="1.7659">
        <ele>180.60000610352</ele>
        <time>2011-08-01T12:03:59.000Z</time>
      </trkpt>
      <trkpt lat="48.70414" lon="1.76588">
        <ele>180.80000305176</ele>
        <time>2011-08-01T12:04:03.000Z</time>
      </trkpt>
      <trkpt lat="48.70409" lon="1.76587">
        <ele>180.60000610352</ele>
        <time>2011-08-01T12:04:06.000Z</time>
      </trkpt>
      <trkpt lat="48.70402" lon="1.76589">
        <ele>180.39999389648</ele>
        <time>2011-08-01T12:04:12.000Z</time>
      </trkpt>
      <trkpt lat="48.70393" lon="1.76594">
        <ele>180.19999694824</ele>
        <time>2011-08-01T12:04:18.000Z</time>
      </trkpt>
      <trkpt lat="48.70388" lon="1.76596">
        <ele>180</ele>
        <time>2011-08-01T12:04:21.000Z</time>
      </trkpt>
      <trkpt lat="48.70379" lon="1.76599">
        <ele>179.80000305176</ele>
        <time>2011-08-01T12:04:27.000Z</time>
      </trkpt>
      <trkpt lat="48.70375" lon="1.76601">
        <ele>179.60000610352</ele>
        <time>2011-08-01T12:04:32.000Z</time>
      </trkpt>
      <trkpt lat="48.70375" lon="1.76603">
        <ele>179.60000610352</ele>
        <time>2011-08-01T12:04:33.000Z</time>
      </trkpt>
      <trkpt lat="48.70371" lon="1.76607">
        <ele>179.60000610352</ele>
        <time>2011-08-01T12:04:38.000Z</time>
      </trkpt>
      <trkpt lat="48.70369" lon="1.76609">
        <ele>179.39999389648</ele>
        <time>2011-08-01T12:04:42.000Z</time>
      </trkpt>
      <trkpt lat="48.70366" lon="1.76611">
        <ele>179.39999389648</ele>
        <time>2011-08-01T12:04:46.000Z</time>
      </trkpt>
      <trkpt lat="48.70366" lon="1.76611">
        <ele>179.39999389648</ele>
        <time>2011-08-01T12:04:47.000Z</time>
      </trkpt>
      <trkpt lat="48.70358" lon="1.76616">
        <ele>179.19999694824</ele>
        <time>2011-08-01T12:04:59.000Z</time>
      </trkpt>
      <trkpt lat="48.70352" lon="1.76621">
        <ele>179</ele>
        <time>2011-08-01T12:05:03.000Z</time>
      </trkpt>
      <trkpt lat="48.70344" lon="1.76622">
        <ele>178.60000610352</ele>
        <time>2011-08-01T12:05:08.000Z</time>
      </trkpt>
      <trkpt lat="48.70345" lon="1.76627">
        <ele>178.60000610352</ele>
        <time>2011-08-01T12:05:13.000Z</time>
      </trkpt>
      <trkpt lat="48.70336" lon="1.76628">
        <ele>178.39999389648</ele>
        <time>2011-08-01T12:05:19.000Z</time>
      </trkpt>
      <trkpt lat="48.7033" lon="1.76631">
        <ele>178.39999389648</ele>
        <time>2011-08-01T12:05:26.000Z</time>
      </trkpt>
      <trkpt lat="48.70328" lon="1.76624">
        <ele>178.39999389648</ele>
        <time>2011-08-01T12:05:41.000Z</time>
      </trkpt>
      <trkpt lat="48.7033" lon="1.76625">
        <ele>178.39999389648</ele>
        <time>2011-08-01T12:05:45.000Z</time>
      </trkpt>
      <trkpt lat="48.70341" lon="1.7662">
        <ele>178.60000610352</ele>
        <time>2011-08-01T12:06:32.000Z</time>
      </trkpt>
      <trkpt lat="48.70343" lon="1.76623">
        <ele>178.60000610352</ele>
        <time>2011-08-01T12:06:34.000Z</time>
      </trkpt>
      <trkpt lat="48.70348" lon="1.76633">
        <ele>178.60000610352</ele>
        <time>2011-08-01T12:06:44.000Z</time>
      </trkpt>
      <trkpt lat="48.70346" lon="1.76636">
        <ele>178.60000610352</ele>
        <time>2011-08-01T12:06:48.000Z</time>
      </trkpt>
      <trkpt lat="48.70339" lon="1.76638">
        <ele>178.39999389648</ele>
        <time>2011-08-01T12:06:53.000Z</time>
      </trkpt>
      <trkpt lat="48.70331" lon="1.76643">
        <ele>178.19999694824</ele>
        <time>2011-08-01T12:06:59.000Z</time>
      </trkpt>
      <trkpt lat="48.70321" lon="1.76648">
        <ele>178.39999389648</ele>
        <time>2011-08-01T12:07:05.000Z</time>
      </trkpt>
      <trkpt lat="48.70306" lon="1.7665">
        <ele>178.60000610352</ele>
        <time>2011-08-01T12:07:11.000Z</time>
      </trkpt>
      <trkpt lat="48.703" lon="1.76655">
        <ele>178.80000305176</ele>
        <time>2011-08-01T12:07:16.000Z</time>
      </trkpt>
      <trkpt lat="48.70296" lon="1.76662">
        <ele>178.80000305176</ele>
        <time>2011-08-01T12:07:24.000Z</time>
      </trkpt>
      <trkpt lat="48.70283" lon="1.76663">
        <ele>179.19999694824</ele>
        <time>2011-08-01T12:07:31.000Z</time>
      </trkpt>
      <trkpt lat="48.70272" lon="1.76665">
        <ele>179.39999389648</ele>
        <time>2011-08-01T12:07:36.000Z</time>
      </trkpt>
      <trkpt lat="48.70266" lon="1.76676">
        <ele>179.60000610352</ele>
        <time>2011-08-01T12:07:44.000Z</time>
      </trkpt>
      <trkpt lat="48.70262" lon="1.76679">
        <ele>179.60000610352</ele>
        <time>2011-08-01T12:07:48.000Z</time>
      </trkpt>
      <trkpt lat="48.70255" lon="1.76682">
        <ele>179.80000305176</ele>
        <time>2011-08-01T12:07:54.000Z</time>
      </trkpt>
      <trkpt lat="48.70244" lon="1.76687">
        <ele>180.19999694824</ele>
        <time>2011-08-01T12:08:02.000Z</time>
      </trkpt>
      <trkpt lat="48.70239" lon="1.76689">
        <ele>180.39999389648</ele>
        <time>2011-08-01T12:08:07.000Z</time>
      </trkpt>
      <trkpt lat="48.70231" lon="1.76694">
        <ele>180.80000305176</ele>
        <time>2011-08-01T12:08:14.000Z</time>
      </trkpt>
      <trkpt lat="48.70222" lon="1.76695">
        <ele>181.19999694824</ele>
        <time>2011-08-01T12:08:19.000Z</time>
      </trkpt>
      <trkpt lat="48.70219" lon="1.767">
        <ele>181.19999694824</ele>
        <time>2011-08-01T12:08:25.000Z</time>
      </trkpt>
      <trkpt lat="48.70215" lon="1.76705">
        <ele>181.39999389648</ele>
        <time>2011-08-01T12:08:31.000Z</time>
      </trkpt>
      <trkpt lat="48.7021" lon="1.76709">
        <ele>181.60000610352</ele>
        <time>2011-08-01T12:08:36.000Z</time>
      </trkpt>
      <trkpt lat="48.70203" lon="1.76713">
        <ele>181.80000305176</ele>
        <time>2011-08-01T12:08:41.000Z</time>
      </trkpt>
      <trkpt lat="48.70198" lon="1.76719">
        <ele>182</ele>
        <time>2011-08-01T12:08:47.000Z</time>
      </trkpt>
      <trkpt lat="48.70193" lon="1.76722">
        <ele>182.19999694824</ele>
        <time>2011-08-01T12:08:51.000Z</time>
      </trkpt>
      <trkpt lat="48.70186" lon="1.7673">
        <ele>182.39999389648</ele>
        <time>2011-08-01T12:08:57.000Z</time>
      </trkpt>
      <trkpt lat="48.70188" lon="1.76737">
        <ele>182.19999694824</ele>
        <time>2011-08-01T12:09:01.000Z</time>
      </trkpt>
      <trkpt lat="48.70185" lon="1.76743">
        <ele>182.19999694824</ele>
        <time>2011-08-01T12:09:05.000Z</time>
      </trkpt>
      <trkpt lat="48.70182" lon="1.76753">
        <ele>182.19999694824</ele>
        <time>2011-08-01T12:09:11.000Z</time>
      </trkpt>
      <trkpt lat="48.70178" lon="1.76761">
        <ele>182.19999694824</ele>
        <time>2011-08-01T12:09:17.000Z</time>
      </trkpt>
      <trkpt lat="48.70174" lon="1.76765">
        <ele>182.19999694824</ele>
        <time>2011-08-01T12:09:22.000Z</time>
      </trkpt>
      <trkpt lat="48.70165" lon="1.76769">
        <ele>182.39999389648</ele>
        <time>2011-08-01T12:09:27.000Z</time>
      </trkpt>
      <trkpt lat="48.70161" lon="1.7677">
        <ele>182.39999389648</ele>
        <time>2011-08-01T12:09:29.000Z</time>
      </trkpt>
      <trkpt lat="48.70157" lon="1.76772">
        <ele>182.60000610352</ele>
        <time>2011-08-01T12:09:33.000Z</time>
      </trkpt>
      <trkpt lat="48.70149" lon="1.76773">
        <ele>182.80000305176</ele>
        <time>2011-08-01T12:09:39.000Z</time>
      </trkpt>
      <trkpt lat="48.70145" lon="1.76776">
        <ele>183</ele>
        <time>2011-08-01T12:09:45.000Z</time>
      </trkpt>
      <trkpt lat="48.70142" lon="1.7678">
        <ele>183</ele>
        <time>2011-08-01T12:09:49.000Z</time>
      </trkpt>
      <trkpt lat="48.70135" lon="1.76779">
        <ele>183.39999389648</ele>
        <time>2011-08-01T12:09:53.000Z</time>
      </trkpt>
      <trkpt lat="48.7013" lon="1.76781">
        <ele>183.60000610352</ele>
        <time>2011-08-01T12:09:58.000Z</time>
      </trkpt>
      <trkpt lat="48.70125" lon="1.76787">
        <ele>183.80000305176</ele>
        <time>2011-08-01T12:10:03.000Z</time>
      </trkpt>
      <trkpt lat="48.70111" lon="1.76789">
        <ele>184.39999389648</ele>
        <time>2011-08-01T12:10:09.000Z</time>
      </trkpt>
      <trkpt lat="48.7011" lon="1.76789">
        <ele>184.39999389648</ele>
        <time>2011-08-01T12:10:12.000Z</time>
      </trkpt>
      <trkpt lat="48.70102" lon="1.76789">
        <ele>185</ele>
        <time>2011-08-01T12:10:17.000Z</time>
      </trkpt>
      <trkpt lat="48.70094" lon="1.76792">
        <ele>185.19999694824</ele>
        <time>2011-08-01T12:10:22.000Z</time>
      </trkpt>
      <trkpt lat="48.70093" lon="1.76792">
        <ele>185.39999389648</ele>
        <time>2011-08-01T12:10:23.000Z</time>
      </trkpt>
      <trkpt lat="48.70083" lon="1.76787">
        <ele>185.80000305176</ele>
        <time>2011-08-01T12:10:28.000Z</time>
      </trkpt>
      <trkpt lat="48.70079" lon="1.76784">
        <ele>185.80000305176</ele>
        <time>2011-08-01T12:10:32.000Z</time>
      </trkpt>
      <trkpt lat="48.70081" lon="1.76785">
        <ele>185.80000305176</ele>
        <time>2011-08-01T12:10:35.000Z</time>
      </trkpt>
      <trkpt lat="48.70079" lon="1.76785">
        <ele>185.80000305176</ele>
        <time>2011-08-01T12:10:38.000Z</time>
      </trkpt>
      <trkpt lat="48.70076" lon="1.76787">
        <ele>185.80000305176</ele>
        <time>2011-08-01T12:10:39.000Z</time>
      </trkpt>
      <trkpt lat="48.70067" lon="1.76787">
        <ele>185.80000305176</ele>
        <time>2011-08-01T12:10:46.000Z</time>
      </trkpt>
      <trkpt lat="48.70063" lon="1.76788">
        <ele>185.60000610352</ele>
        <time>2011-08-01T12:10:51.000Z</time>
      </trkpt>
      <trkpt lat="48.70055" lon="1.76791">
        <ele>185.60000610352</ele>
        <time>2011-08-01T12:10:57.000Z</time>
      </trkpt>
      <trkpt lat="48.70051" lon="1.7679">
        <ele>185.60000610352</ele>
        <time>2011-08-01T12:11:00.000Z</time>
      </trkpt>
      <trkpt lat="48.70048" lon="1.76789">
        <ele>185.39999389648</ele>
        <time>2011-08-01T12:11:03.000Z</time>
      </trkpt>
      <trkpt lat="48.70039" lon="1.76788">
        <ele>185.39999389648</ele>
        <time>2011-08-01T12:11:09.000Z</time>
      </trkpt>
      <trkpt lat="48.70033" lon="1.76786">
        <ele>185.39999389648</ele>
        <time>2011-08-01T12:11:12.000Z</time>
      </trkpt>
      <trkpt lat="48.70029" lon="1.76784">
        <ele>185.39999389648</ele>
        <time>2011-08-01T12:11:17.000Z</time>
      </trkpt>
      <trkpt lat="48.70024" lon="1.76783">
        <ele>185.39999389648</ele>
        <time>2011-08-01T12:11:22.000Z</time>
      </trkpt>
      <trkpt lat="48.70016" lon="1.76782">
        <ele>185.19999694824</ele>
        <time>2011-08-01T12:11:27.000Z</time>
      </trkpt>
      <trkpt lat="48.70008" lon="1.76782">
        <ele>185.19999694824</ele>
        <time>2011-08-01T12:11:33.000Z</time>
      </trkpt>
      <trkpt lat="48.70003" lon="1.76782">
        <ele>185.19999694824</ele>
        <time>2011-08-01T12:11:38.000Z</time>
      </trkpt>
      <trkpt lat="48.69995" lon="1.7678">
        <ele>185</ele>
        <time>2011-08-01T12:11:44.000Z</time>
      </trkpt>
      <trkpt lat="48.69988" lon="1.76778">
        <ele>185</ele>
        <time>2011-08-01T12:11:50.000Z</time>
      </trkpt>
      <trkpt lat="48.69983" lon="1.76781">
        <ele>184.60000610352</ele>
        <time>2011-08-01T12:11:57.000Z</time>
      </trkpt>
      <trkpt lat="48.69978" lon="1.76782">
        <ele>184.39999389648</ele>
        <time>2011-08-01T12:12:00.000Z</time>
      </trkpt>
      <trkpt lat="48.69965" lon="1.76786">
        <ele>184</ele>
        <time>2011-08-01T12:12:06.000Z</time>
      </trkpt>
      <trkpt lat="48.69958" lon="1.76785">
        <ele>183.80000305176</ele>
        <time>2011-08-01T12:12:11.000Z</time>
      </trkpt>
      <trkpt lat="48.69954" lon="1.76785">
        <ele>183.80000305176</ele>
        <time>2011-08-01T12:12:15.000Z</time>
      </trkpt>
      <trkpt lat="48.69944" lon="1.76785">
        <ele>183.39999389648</ele>
        <time>2011-08-01T12:12:23.000Z</time>
      </trkpt>
      <trkpt lat="48.69937" lon="1.76785">
        <ele>183.19999694824</ele>
        <time>2011-08-01T12:12:29.000Z</time>
      </trkpt>
      <trkpt lat="48.6993" lon="1.76785">
        <ele>183</ele>
        <time>2011-08-01T12:12:35.000Z</time>
      </trkpt>
      <trkpt lat="48.69921" lon="1.76786">
        <ele>182.80000305176</ele>
        <time>2011-08-01T12:12:41.000Z</time>
      </trkpt>
      <trkpt lat="48.69911" lon="1.76788">
        <ele>182.60000610352</ele>
        <time>2011-08-01T12:12:48.000Z</time>
      </trkpt>
      <trkpt lat="48.69906" lon="1.76792">
        <ele>182.60000610352</ele>
        <time>2011-08-01T12:12:54.000Z</time>
      </trkpt>
      <trkpt lat="48.69901" lon="1.76793">
        <ele>182.80000305176</ele>
        <time>2011-08-01T12:12:57.000Z</time>
      </trkpt>
      <trkpt lat="48.69893" lon="1.76799">
        <ele>182.80000305176</ele>
        <time>2011-08-01T12:13:04.000Z</time>
      </trkpt>
      <trkpt lat="48.69887" lon="1.76802">
        <ele>182.80000305176</ele>
        <time>2011-08-01T12:13:08.000Z</time>
      </trkpt>
      <trkpt lat="48.69877" lon="1.7681">
        <ele>182.60000610352</ele>
        <time>2011-08-01T12:13:16.000Z</time>
      </trkpt>
      <trkpt lat="48.69868" lon="1.76824">
        <ele>182.39999389648</ele>
        <time>2011-08-01T12:13:26.000Z</time>
      </trkpt>
      <trkpt lat="48.69859" lon="1.76831">
        <ele>182.39999389648</ele>
        <time>2011-08-01T12:13:33.000Z</time>
      </trkpt>
      <trkpt lat="48.69851" lon="1.76838">
        <ele>182.39999389648</ele>
        <time>2011-08-01T12:13:40.000Z</time>
      </trkpt>
      <trkpt lat="48.69844" lon="1.76843">
        <ele>182.39999389648</ele>
        <time>2011-08-01T12:13:46.000Z</time>
      </trkpt>
      <trkpt lat="48.6984" lon="1.76847">
        <ele>182.19999694824</ele>
        <time>2011-08-01T12:13:49.000Z</time>
      </trkpt>
      <trkpt lat="48.69837" lon="1.76849">
        <ele>182.19999694824</ele>
        <time>2011-08-01T12:13:51.000Z</time>
      </trkpt>
      <trkpt lat="48.6983" lon="1.7686">
        <ele>182</ele>
        <time>2011-08-01T12:13:59.000Z</time>
      </trkpt>
      <trkpt lat="48.69825" lon="1.76866">
        <ele>181.60000610352</ele>
        <time>2011-08-01T12:14:05.000Z</time>
      </trkpt>
      <trkpt lat="48.69818" lon="1.76874">
        <ele>181.39999389648</ele>
        <time>2011-08-01T12:14:11.000Z</time>
      </trkpt>
      <trkpt lat="48.6981" lon="1.76883">
        <ele>181</ele>
        <time>2011-08-01T12:14:18.000Z</time>
      </trkpt>
      <trkpt lat="48.698" lon="1.76892">
        <ele>180.60000610352</ele>
        <time>2011-08-01T12:14:25.000Z</time>
      </trkpt>
      <trkpt lat="48.69791" lon="1.76901">
        <ele>180.39999389648</ele>
        <time>2011-08-01T12:14:32.000Z</time>
      </trkpt>
      <trkpt lat="48.69783" lon="1.7691">
        <ele>180</ele>
        <time>2011-08-01T12:14:39.000Z</time>
      </trkpt>
      <trkpt lat="48.69773" lon="1.76921">
        <ele>179.80000305176</ele>
        <time>2011-08-01T12:14:48.000Z</time>
      </trkpt>
      <trkpt lat="48.69764" lon="1.76932">
        <ele>179.19999694824</ele>
        <time>2011-08-01T12:14:56.000Z</time>
      </trkpt>
      <trkpt lat="48.69756" lon="1.76941">
        <ele>178.80000305176</ele>
        <time>2011-08-01T12:15:03.000Z</time>
      </trkpt>
      <trkpt lat="48.69755" lon="1.76943">
        <ele>178.60000610352</ele>
        <time>2011-08-01T12:15:07.000Z</time>
      </trkpt>
      <trkpt lat="48.69751" lon="1.76951">
        <ele>178.19999694824</ele>
        <time>2011-08-01T12:15:46.000Z</time>
      </trkpt>
      <trkpt lat="48.69744" lon="1.76957">
        <ele>178</ele>
        <time>2011-08-01T12:15:50.000Z</time>
      </trkpt>
      <trkpt lat="48.69742" lon="1.7696">
        <ele>177.80000305176</ele>
        <time>2011-08-01T12:15:52.000Z</time>
      </trkpt>
      <trkpt lat="48.69732" lon="1.76972">
        <ele>177.19999694824</ele>
        <time>2011-08-01T12:16:00.000Z</time>
      </trkpt>
      <trkpt lat="48.69723" lon="1.76982">
        <ele>177</ele>
        <time>2011-08-01T12:16:07.000Z</time>
      </trkpt>
      <trkpt lat="48.69716" lon="1.76988">
        <ele>176.80000305176</ele>
        <time>2011-08-01T12:16:12.000Z</time>
      </trkpt>
      <trkpt lat="48.6971" lon="1.76993">
        <ele>176.60000610352</ele>
        <time>2011-08-01T12:16:17.000Z</time>
      </trkpt>
      <trkpt lat="48.69701" lon="1.77001">
        <ele>176.39999389648</ele>
        <time>2011-08-01T12:16:24.000Z</time>
      </trkpt>
      <trkpt lat="48.69692" lon="1.77009">
        <ele>176.19999694824</ele>
        <time>2011-08-01T12:16:31.000Z</time>
      </trkpt>
      <trkpt lat="48.69683" lon="1.77018">
        <ele>176</ele>
        <time>2011-08-01T12:16:38.000Z</time>
      </trkpt>
      <trkpt lat="48.6968" lon="1.77019">
        <ele>176</ele>
        <time>2011-08-01T12:16:40.000Z</time>
      </trkpt>
      <trkpt lat="48.69676" lon="1.77023">
        <ele>175.80000305176</ele>
        <time>2011-08-01T12:16:45.000Z</time>
      </trkpt>
      <trkpt lat="48.6967" lon="1.77028">
        <ele>175.60000610352</ele>
        <time>2011-08-01T12:16:50.000Z</time>
      </trkpt>
      <trkpt lat="48.69666" lon="1.77031">
        <ele>175.39999389648</ele>
        <time>2011-08-01T12:16:53.000Z</time>
      </trkpt>
      <trkpt lat="48.69661" lon="1.77033">
        <ele>175.19999694824</ele>
        <time>2011-08-01T12:16:57.000Z</time>
      </trkpt>
      <trkpt lat="48.6965" lon="1.77043">
        <ele>174.39999389648</ele>
        <time>2011-08-01T12:17:06.000Z</time>
      </trkpt>
      <trkpt lat="48.69637" lon="1.77053">
        <ele>173.80000305176</ele>
        <time>2011-08-01T12:17:16.000Z</time>
      </trkpt>
      <trkpt lat="48.69626" lon="1.77062">
        <ele>173.39999389648</ele>
        <time>2011-08-01T12:17:25.000Z</time>
      </trkpt>
      <trkpt lat="48.69616" lon="1.77072">
        <ele>173.19999694824</ele>
        <time>2011-08-01T12:17:33.000Z</time>
      </trkpt>
      <trkpt lat="48.69606" lon="1.77076">
        <ele>173</ele>
        <time>2011-08-01T12:17:41.000Z</time>
      </trkpt>
      <trkpt lat="48.696" lon="1.77084">
        <ele>172.80000305176</ele>
        <time>2011-08-01T12:17:47.000Z</time>
      </trkpt>
      <trkpt lat="48.69599" lon="1.77084">
        <ele>172.80000305176</ele>
        <time>2011-08-01T12:17:48.000Z</time>
      </trkpt>
      <trkpt lat="48.69594" lon="1.77089">
        <ele>172.80000305176</ele>
        <time>2011-08-01T12:17:54.000Z</time>
      </trkpt>
      <trkpt lat="48.69585" lon="1.7709">
        <ele>172.80000305176</ele>
        <time>2011-08-01T12:18:00.000Z</time>
      </trkpt>
      <trkpt lat="48.69579" lon="1.77089">
        <ele>172.80000305176</ele>
        <time>2011-08-01T12:18:04.000Z</time>
      </trkpt>
      <trkpt lat="48.69572" lon="1.77087">
        <ele>172.60000610352</ele>
        <time>2011-08-01T12:18:08.000Z</time>
      </trkpt>
      <trkpt lat="48.69564" lon="1.77087">
        <ele>172.39999389648</ele>
        <time>2011-08-01T12:18:14.000Z</time>
      </trkpt>
      <trkpt lat="48.69552" lon="1.77086">
        <ele>172.19999694824</ele>
        <time>2011-08-01T12:18:21.000Z</time>
      </trkpt>
      <trkpt lat="48.69544" lon="1.77086">
        <ele>172</ele>
        <time>2011-08-01T12:18:26.000Z</time>
      </trkpt>
      <trkpt lat="48.69531" lon="1.77085">
        <ele>171.60000610352</ele>
        <time>2011-08-01T12:18:34.000Z</time>
      </trkpt>
      <trkpt lat="48.69521" lon="1.77081">
        <ele>171.39999389648</ele>
        <time>2011-08-01T12:18:41.000Z</time>
      </trkpt>
      <trkpt lat="48.69511" lon="1.7708">
        <ele>171.19999694824</ele>
        <time>2011-08-01T12:18:48.000Z</time>
      </trkpt>
      <trkpt lat="48.69503" lon="1.77081">
        <ele>171</ele>
        <time>2011-08-01T12:18:56.000Z</time>
      </trkpt>
      <trkpt lat="48.69491" lon="1.7708">
        <ele>171</ele>
        <time>2011-08-01T12:19:04.000Z</time>
      </trkpt>
      <trkpt lat="48.69489" lon="1.7708">
        <ele>171.19999694824</ele>
        <time>2011-08-01T12:19:05.000Z</time>
      </trkpt>
      <trkpt lat="48.69483" lon="1.77079">
        <ele>171.19999694824</ele>
        <time>2011-08-01T12:19:09.000Z</time>
      </trkpt>
      <trkpt lat="48.69478" lon="1.77081">
        <ele>171.39999389648</ele>
        <time>2011-08-01T12:19:14.000Z</time>
      </trkpt>
      <trkpt lat="48.69471" lon="1.77077">
        <ele>171.39999389648</ele>
        <time>2011-08-01T12:19:19.000Z</time>
      </trkpt>
      <trkpt lat="48.69459" lon="1.77075">
        <ele>171.80000305176</ele>
        <time>2011-08-01T12:19:25.000Z</time>
      </trkpt>
      <trkpt lat="48.69447" lon="1.77075">
        <ele>172</ele>
        <time>2011-08-01T12:19:32.000Z</time>
      </trkpt>
      <trkpt lat="48.69436" lon="1.77075">
        <ele>172.19999694824</ele>
        <time>2011-08-01T12:19:38.000Z</time>
      </trkpt>
      <trkpt lat="48.69428" lon="1.77074">
        <ele>172.39999389648</ele>
        <time>2011-08-01T12:19:44.000Z</time>
      </trkpt>
      <trkpt lat="48.69417" lon="1.77076">
        <ele>172.60000610352</ele>
        <time>2011-08-01T12:19:51.000Z</time>
      </trkpt>
      <trkpt lat="48.69404" lon="1.77074">
        <ele>172.19999694824</ele>
        <time>2011-08-01T12:19:59.000Z</time>
      </trkpt>
      <trkpt lat="48.69389" lon="1.77068">
        <ele>171.60000610352</ele>
        <time>2011-08-01T12:20:09.000Z</time>
      </trkpt>
      <trkpt lat="48.69376" lon="1.77061">
        <ele>171.19999694824</ele>
        <time>2011-08-01T12:20:17.000Z</time>
      </trkpt>
      <trkpt lat="48.69367" lon="1.77056">
        <ele>170.80000305176</ele>
        <time>2011-08-01T12:20:24.000Z</time>
      </trkpt>
      <trkpt lat="48.6936" lon="1.77051">
        <ele>170.60000610352</ele>
        <time>2011-08-01T12:20:30.000Z</time>
      </trkpt>
      <trkpt lat="48.69358" lon="1.77049">
        <ele>170.60000610352</ele>
        <time>2011-08-01T12:20:32.000Z</time>
      </trkpt>
      <trkpt lat="48.69348" lon="1.77041">
        <ele>170.19999694824</ele>
        <time>2011-08-01T12:20:41.000Z</time>
      </trkpt>
      <trkpt lat="48.69348" lon="1.77041">
        <ele>170.19999694824</ele>
        <time>2011-08-01T12:20:42.000Z</time>
      </trkpt>
      <trkpt lat="48.69334" lon="1.77025">
        <ele>170</ele>
        <time>2011-08-01T12:21:05.000Z</time>
      </trkpt>
      <trkpt lat="48.69325" lon="1.77019">
        <ele>169.39999389648</ele>
        <time>2011-08-01T12:21:09.000Z</time>
      </trkpt>
      <trkpt lat="48.69315" lon="1.77012">
        <ele>168.80000305176</ele>
        <time>2011-08-01T12:21:15.000Z</time>
      </trkpt>
      <trkpt lat="48.69301" lon="1.77002">
        <ele>168</ele>
        <time>2011-08-01T12:21:23.000Z</time>
      </trkpt>
      <trkpt lat="48.69286" lon="1.76992">
        <ele>167.19999694824</ele>
        <time>2011-08-01T12:21:32.000Z</time>
      </trkpt>
      <trkpt lat="48.69283" lon="1.76989">
        <ele>167</ele>
        <time>2011-08-01T12:21:35.000Z</time>
      </trkpt>
      <trkpt lat="48.69284" lon="1.7698">
        <ele>167.19999694824</ele>
        <time>2011-08-01T12:21:40.000Z</time>
      </trkpt>
      <trkpt lat="48.69286" lon="1.76979">
        <ele>167.19999694824</ele>
        <time>2011-08-01T12:21:41.000Z</time>
      </trkpt>
      <trkpt lat="48.69296" lon="1.76971">
        <ele>168</ele>
        <time>2011-08-01T12:21:47.000Z</time>
      </trkpt>
      <trkpt lat="48.69307" lon="1.76962">
        <ele>169</ele>
        <time>2011-08-01T12:21:54.000Z</time>
      </trkpt>
      <trkpt lat="48.69312" lon="1.76956">
        <ele>169.39999389648</ele>
        <time>2011-08-01T12:21:59.000Z</time>
      </trkpt>
      <trkpt lat="48.69314" lon="1.76955">
        <ele>169.60000610352</ele>
        <time>2011-08-01T12:22:00.000Z</time>
      </trkpt>
      <trkpt lat="48.69324" lon="1.76948">
        <ele>170.39999389648</ele>
        <time>2011-08-01T12:22:07.000Z</time>
      </trkpt>
      <trkpt lat="48.69334" lon="1.7694">
        <ele>171.39999389648</ele>
        <time>2011-08-01T12:22:13.000Z</time>
      </trkpt>
      <trkpt lat="48.69344" lon="1.76933">
        <ele>171.80000305176</ele>
        <time>2011-08-01T12:22:19.000Z</time>
      </trkpt>
      <trkpt lat="48.69349" lon="1.7693">
        <ele>172</ele>
        <time>2011-08-01T12:22:22.000Z</time>
      </trkpt>
      <trkpt lat="48.69352" lon="1.76923">
        <ele>172.19999694824</ele>
        <time>2011-08-01T12:22:27.000Z</time>
      </trkpt>
      <trkpt lat="48.69353" lon="1.76922">
        <ele>172.19999694824</ele>
        <time>2011-08-01T12:22:28.000Z</time>
      </trkpt>
      <trkpt lat="48.69359" lon="1.76914">
        <ele>172.39999389648</ele>
        <time>2011-08-01T12:22:34.000Z</time>
      </trkpt>
      <trkpt lat="48.69366" lon="1.76908">
        <ele>172.60000610352</ele>
        <time>2011-08-01T12:22:40.000Z</time>
      </trkpt>
      <trkpt lat="48.69373" lon="1.76901">
        <ele>172.80000305176</ele>
        <time>2011-08-01T12:22:47.000Z</time>
      </trkpt>
      <trkpt lat="48.6938" lon="1.76898">
        <ele>173</ele>
        <time>2011-08-01T12:22:53.000Z</time>
      </trkpt>
      <trkpt lat="48.69381" lon="1.76897">
        <ele>173</ele>
        <time>2011-08-01T12:22:54.000Z</time>
      </trkpt>
      <trkpt lat="48.69391" lon="1.76893">
        <ele>173.19999694824</ele>
        <time>2011-08-01T12:23:00.000Z</time>
      </trkpt>
      <trkpt lat="48.694" lon="1.76889">
        <ele>173.60000610352</ele>
        <time>2011-08-01T12:23:06.000Z</time>
      </trkpt>
      <trkpt lat="48.69401" lon="1.76888">
        <ele>173.60000610352</ele>
        <time>2011-08-01T12:23:07.000Z</time>
      </trkpt>
      <trkpt lat="48.6941" lon="1.76881">
        <ele>174</ele>
        <time>2011-08-01T12:23:14.000Z</time>
      </trkpt>
      <trkpt lat="48.69417" lon="1.76875">
        <ele>174.39999389648</ele>
        <time>2011-08-01T12:23:19.000Z</time>
      </trkpt>
      <trkpt lat="48.69424" lon="1.76869">
        <ele>174.39999389648</ele>
        <time>2011-08-01T12:23:24.000Z</time>
      </trkpt>
      <trkpt lat="48.69426" lon="1.76868">
        <ele>174.39999389648</ele>
        <time>2011-08-01T12:23:26.000Z</time>
      </trkpt>
      <trkpt lat="48.69429" lon="1.76862">
        <ele>174.39999389648</ele>
        <time>2011-08-01T12:23:30.000Z</time>
      </trkpt>
      <trkpt lat="48.69434" lon="1.76858">
        <ele>174.39999389648</ele>
        <time>2011-08-01T12:23:35.000Z</time>
      </trkpt>
      <trkpt lat="48.69441" lon="1.76852">
        <ele>174.39999389648</ele>
        <time>2011-08-01T12:23:40.000Z</time>
      </trkpt>
      <trkpt lat="48.69451" lon="1.76844">
        <ele>174.39999389648</ele>
        <time>2011-08-01T12:23:47.000Z</time>
      </trkpt>
      <trkpt lat="48.69457" lon="1.76838">
        <ele>174.39999389648</ele>
        <time>2011-08-01T12:23:51.000Z</time>
      </trkpt>
      <trkpt lat="48.69466" lon="1.76827">
        <ele>174.39999389648</ele>
        <time>2011-08-01T12:23:58.000Z</time>
      </trkpt>
      <trkpt lat="48.69469" lon="1.76824">
        <ele>174.39999389648</ele>
        <time>2011-08-01T12:24:00.000Z</time>
      </trkpt>
      <trkpt lat="48.69474" lon="1.76817">
        <ele>174.60000610352</ele>
        <time>2011-08-01T12:24:04.000Z</time>
      </trkpt>
      <trkpt lat="48.69482" lon="1.76802">
        <ele>175</ele>
        <time>2011-08-01T12:24:12.000Z</time>
      </trkpt>
      <trkpt lat="48.69488" lon="1.76794">
        <ele>175.19999694824</ele>
        <time>2011-08-01T12:24:17.000Z</time>
      </trkpt>
      <trkpt lat="48.69493" lon="1.76787">
        <ele>175.60000610352</ele>
        <time>2011-08-01T12:24:22.000Z</time>
      </trkpt>
      <trkpt lat="48.69495" lon="1.76783">
        <ele>175.60000610352</ele>
        <time>2011-08-01T12:24:24.000Z</time>
      </trkpt>
      <trkpt lat="48.69499" lon="1.76778">
        <ele>175.80000305176</ele>
        <time>2011-08-01T12:24:31.000Z</time>
      </trkpt>
      <trkpt lat="48.695" lon="1.76774">
        <ele>176</ele>
        <time>2011-08-01T12:24:33.000Z</time>
      </trkpt>
      <trkpt lat="48.69504" lon="1.76766">
        <ele>176.39999389648</ele>
        <time>2011-08-01T12:24:38.000Z</time>
      </trkpt>
      <trkpt lat="48.6951" lon="1.76758">
        <ele>176.60000610352</ele>
        <time>2011-08-01T12:24:44.000Z</time>
      </trkpt>
      <trkpt lat="48.6952" lon="1.76744">
        <ele>177</ele>
        <time>2011-08-01T12:24:52.000Z</time>
      </trkpt>
      <trkpt lat="48.69533" lon="1.76723">
        <ele>177.60000610352</ele>
        <time>2011-08-01T12:25:03.000Z</time>
      </trkpt>
      <trkpt lat="48.69542" lon="1.76709">
        <ele>177.80000305176</ele>
        <time>2011-08-01T12:25:11.000Z</time>
      </trkpt>
      <trkpt lat="48.69545" lon="1.767">
        <ele>178</ele>
        <time>2011-08-01T12:25:16.000Z</time>
      </trkpt>
      <trkpt lat="48.69551" lon="1.76681">
        <ele>178.39999389648</ele>
        <time>2011-08-01T12:25:25.000Z</time>
      </trkpt>
      <trkpt lat="48.69553" lon="1.76672">
        <ele>178.60000610352</ele>
        <time>2011-08-01T12:25:30.000Z</time>
      </trkpt>
      <trkpt lat="48.69559" lon="1.76661">
        <ele>178.39999389648</ele>
        <time>2011-08-01T12:25:36.000Z</time>
      </trkpt>
      <trkpt lat="48.69562" lon="1.76649">
        <ele>178.39999389648</ele>
        <time>2011-08-01T12:25:42.000Z</time>
      </trkpt>
      <trkpt lat="48.69562" lon="1.76644">
        <ele>178.39999389648</ele>
        <time>2011-08-01T12:25:44.000Z</time>
      </trkpt>
      <trkpt lat="48.69566" lon="1.76634">
        <ele>178.19999694824</ele>
        <time>2011-08-01T12:25:49.000Z</time>
      </trkpt>
      <trkpt lat="48.6957" lon="1.76625">
        <ele>178.19999694824</ele>
        <time>2011-08-01T12:25:53.000Z</time>
      </trkpt>
      <trkpt lat="48.69574" lon="1.76614">
        <ele>178</ele>
        <time>2011-08-01T12:25:58.000Z</time>
      </trkpt>
      <trkpt lat="48.69578" lon="1.76605">
        <ele>178</ele>
        <time>2011-08-01T12:26:02.000Z</time>
      </trkpt>
      <trkpt lat="48.6958" lon="1.76595">
        <ele>178</ele>
        <time>2011-08-01T12:26:07.000Z</time>
      </trkpt>
      <trkpt lat="48.69582" lon="1.76586">
        <ele>178</ele>
        <time>2011-08-01T12:26:11.000Z</time>
      </trkpt>
      <trkpt lat="48.69582" lon="1.7658">
        <ele>178</ele>
        <time>2011-08-01T12:26:14.000Z</time>
      </trkpt>
      <trkpt lat="48.69583" lon="1.76572">
        <ele>178</ele>
        <time>2011-08-01T12:26:18.000Z</time>
      </trkpt>
      <trkpt lat="48.69584" lon="1.76559">
        <ele>178.19999694824</ele>
        <time>2011-08-01T12:26:24.000Z</time>
      </trkpt>
      <trkpt lat="48.69587" lon="1.76549">
        <ele>178.39999389648</ele>
        <time>2011-08-01T12:26:28.000Z</time>
      </trkpt>
      <trkpt lat="48.69592" lon="1.76533">
        <ele>178.60000610352</ele>
        <time>2011-08-01T12:26:35.000Z</time>
      </trkpt>
      <trkpt lat="48.69592" lon="1.76531">
        <ele>178.60000610352</ele>
        <time>2011-08-01T12:26:36.000Z</time>
      </trkpt>
      <trkpt lat="48.69595" lon="1.7652">
        <ele>179</ele>
        <time>2011-08-01T12:26:42.000Z</time>
      </trkpt>
      <trkpt lat="48.69597" lon="1.76515">
        <ele>179</ele>
        <time>2011-08-01T12:26:44.000Z</time>
      </trkpt>
      <trkpt lat="48.69605" lon="1.76497">
        <ele>179.60000610352</ele>
        <time>2011-08-01T12:26:51.000Z</time>
      </trkpt>
      <trkpt lat="48.69609" lon="1.76485">
        <ele>180</ele>
        <time>2011-08-01T12:26:57.000Z</time>
      </trkpt>
      <trkpt lat="48.69614" lon="1.76475">
        <ele>180.39999389648</ele>
        <time>2011-08-01T12:27:02.000Z</time>
      </trkpt>
      <trkpt lat="48.69616" lon="1.76464">
        <ele>180.60000610352</ele>
        <time>2011-08-01T12:27:07.000Z</time>
      </trkpt>
      <trkpt lat="48.69621" lon="1.76456">
        <ele>181</ele>
        <time>2011-08-01T12:27:12.000Z</time>
      </trkpt>
      <trkpt lat="48.69622" lon="1.76453">
        <ele>181</ele>
        <time>2011-08-01T12:27:14.000Z</time>
      </trkpt>
      <trkpt lat="48.6963" lon="1.76435">
        <ele>181.39999389648</ele>
        <time>2011-08-01T12:27:23.000Z</time>
      </trkpt>
      <trkpt lat="48.69634" lon="1.76427">
        <ele>181.60000610352</ele>
        <time>2011-08-01T12:27:28.000Z</time>
      </trkpt>
      <trkpt lat="48.69635" lon="1.76417">
        <ele>181.80000305176</ele>
        <time>2011-08-01T12:27:33.000Z</time>
      </trkpt>
      <trkpt lat="48.69637" lon="1.76406">
        <ele>182</ele>
        <time>2011-08-01T12:27:39.000Z</time>
      </trkpt>
      <trkpt lat="48.6963" lon="1.76394">
        <ele>182.19999694824</ele>
        <time>2011-08-01T12:27:46.000Z</time>
      </trkpt>
      <trkpt lat="48.69625" lon="1.7639">
        <ele>182.19999694824</ele>
        <time>2011-08-01T12:27:48.000Z</time>
      </trkpt>
      <trkpt lat="48.6962" lon="1.76384">
        <ele>182.19999694824</ele>
        <time>2011-08-01T12:27:52.000Z</time>
      </trkpt>
      <trkpt lat="48.69614" lon="1.76381">
        <ele>182.39999389648</ele>
        <time>2011-08-01T12:27:56.000Z</time>
      </trkpt>
      <trkpt lat="48.6961" lon="1.76372">
        <ele>182.39999389648</ele>
        <time>2011-08-01T12:28:01.000Z</time>
      </trkpt>
      <trkpt lat="48.69604" lon="1.7636">
        <ele>182.60000610352</ele>
        <time>2011-08-01T12:28:08.000Z</time>
      </trkpt>
      <trkpt lat="48.69598" lon="1.7635">
        <ele>182.60000610352</ele>
        <time>2011-08-01T12:28:15.000Z</time>
      </trkpt>
      <trkpt lat="48.69596" lon="1.76348">
        <ele>182.80000305176</ele>
        <time>2011-08-01T12:28:16.000Z</time>
      </trkpt>
      <trkpt lat="48.69593" lon="1.76337">
        <ele>182.80000305176</ele>
        <time>2011-08-01T12:28:23.000Z</time>
      </trkpt>
      <trkpt lat="48.69591" lon="1.76333">
        <ele>183</ele>
        <time>2011-08-01T12:28:25.000Z</time>
      </trkpt>
      <trkpt lat="48.69587" lon="1.76325">
        <ele>183</ele>
        <time>2011-08-01T12:28:30.000Z</time>
      </trkpt>
      <trkpt lat="48.69585" lon="1.76323">
        <ele>183</ele>
        <time>2011-08-01T12:28:32.000Z</time>
      </trkpt>
      <trkpt lat="48.69584" lon="1.76318">
        <ele>183</ele>
        <time>2011-08-01T12:28:38.000Z</time>
      </trkpt>
      <trkpt lat="48.69581" lon="1.76313">
        <ele>183.19999694824</ele>
        <time>2011-08-01T12:28:42.000Z</time>
      </trkpt>
      <trkpt lat="48.69568" lon="1.76301">
        <ele>183.19999694824</ele>
        <time>2011-08-01T12:28:51.000Z</time>
      </trkpt>
      <trkpt lat="48.69564" lon="1.76295">
        <ele>183.39999389648</ele>
        <time>2011-08-01T12:28:55.000Z</time>
      </trkpt>
      <trkpt lat="48.69559" lon="1.7629">
        <ele>183.39999389648</ele>
        <time>2011-08-01T12:29:00.000Z</time>
      </trkpt>
      <trkpt lat="48.69554" lon="1.76284">
        <ele>183.39999389648</ele>
        <time>2011-08-01T12:29:05.000Z</time>
      </trkpt>
      <trkpt lat="48.69549" lon="1.76275">
        <ele>183.60000610352</ele>
        <time>2011-08-01T12:29:10.000Z</time>
      </trkpt>
      <trkpt lat="48.69542" lon="1.76271">
        <ele>183.60000610352</ele>
        <time>2011-08-01T12:29:13.000Z</time>
      </trkpt>
      <trkpt lat="48.69538" lon="1.76264">
        <ele>183.80000305176</ele>
        <time>2011-08-01T12:29:18.000Z</time>
      </trkpt>
      <trkpt lat="48.69532" lon="1.7625">
        <ele>183.80000305176</ele>
        <time>2011-08-01T12:29:26.000Z</time>
      </trkpt>
      <trkpt lat="48.69527" lon="1.76239">
        <ele>183.80000305176</ele>
        <time>2011-08-01T12:29:33.000Z</time>
      </trkpt>
      <trkpt lat="48.69527" lon="1.76238">
        <ele>183.80000305176</ele>
        <time>2011-08-01T12:29:36.000Z</time>
      </trkpt>
      <trkpt lat="48.69519" lon="1.7623">
        <ele>183.60000610352</ele>
        <time>2011-08-01T12:29:47.000Z</time>
      </trkpt>
      <trkpt lat="48.69514" lon="1.76222">
        <ele>183.60000610352</ele>
        <time>2011-08-01T12:29:51.000Z</time>
      </trkpt>
      <trkpt lat="48.6951" lon="1.76212">
        <ele>183.39999389648</ele>
        <time>2011-08-01T12:29:57.000Z</time>
      </trkpt>
      <trkpt lat="48.69506" lon="1.76205">
        <ele>183.39999389648</ele>
        <time>2011-08-01T12:30:02.000Z</time>
      </trkpt>
      <trkpt lat="48.695" lon="1.76195">
        <ele>183.19999694824</ele>
        <time>2011-08-01T12:30:09.000Z</time>
      </trkpt>
      <trkpt lat="48.69498" lon="1.76188">
        <ele>183.19999694824</ele>
        <time>2011-08-01T12:30:13.000Z</time>
      </trkpt>
      <trkpt lat="48.69495" lon="1.76185">
        <ele>183</ele>
        <time>2011-08-01T12:30:16.000Z</time>
      </trkpt>
      <trkpt lat="48.69485" lon="1.76182">
        <ele>182.80000305176</ele>
        <time>2011-08-01T12:30:23.000Z</time>
      </trkpt>
      <trkpt lat="48.6948" lon="1.76179">
        <ele>182.80000305176</ele>
        <time>2011-08-01T12:30:27.000Z</time>
      </trkpt>
      <trkpt lat="48.69468" lon="1.76173">
        <ele>182.60000610352</ele>
        <time>2011-08-01T12:30:35.000Z</time>
      </trkpt>
      <trkpt lat="48.6946" lon="1.7617">
        <ele>182.39999389648</ele>
        <time>2011-08-01T12:30:40.000Z</time>
      </trkpt>
      <trkpt lat="48.69449" lon="1.76169">
        <ele>182.39999389648</ele>
        <time>2011-08-01T12:30:47.000Z</time>
      </trkpt>
      <trkpt lat="48.69448" lon="1.76167">
        <ele>182.19999694824</ele>
        <time>2011-08-01T12:30:50.000Z</time>
      </trkpt>
      <trkpt lat="48.69446" lon="1.76167">
        <ele>182.19999694824</ele>
        <time>2011-08-01T12:30:53.000Z</time>
      </trkpt>
      <trkpt lat="48.6944" lon="1.76164">
        <ele>182</ele>
        <time>2011-08-01T12:30:56.000Z</time>
      </trkpt>
      <trkpt lat="48.69433" lon="1.76161">
        <ele>181.80000305176</ele>
        <time>2011-08-01T12:31:01.000Z</time>
      </trkpt>
      <trkpt lat="48.69427" lon="1.76159">
        <ele>181.60000610352</ele>
        <time>2011-08-01T12:31:06.000Z</time>
      </trkpt>
      <trkpt lat="48.69414" lon="1.76154">
        <ele>181.19999694824</ele>
        <time>2011-08-01T12:31:14.000Z</time>
      </trkpt>
      <trkpt lat="48.69411" lon="1.76152">
        <ele>181</ele>
        <time>2011-08-01T12:31:17.000Z</time>
      </trkpt>
      <trkpt lat="48.69404" lon="1.76149">
        <ele>180.80000305176</ele>
        <time>2011-08-01T12:31:24.000Z</time>
      </trkpt>
      <trkpt lat="48.69395" lon="1.76148">
        <ele>180.80000305176</ele>
        <time>2011-08-01T12:31:30.000Z</time>
      </trkpt>
      <trkpt lat="48.6939" lon="1.76151">
        <ele>181</ele>
        <time>2011-08-01T12:31:34.000Z</time>
      </trkpt>
      <trkpt lat="48.69386" lon="1.76155">
        <ele>181.19999694824</ele>
        <time>2011-08-01T12:31:38.000Z</time>
      </trkpt>
      <trkpt lat="48.69385" lon="1.76155">
        <ele>181.19999694824</ele>
        <time>2011-08-01T12:31:41.000Z</time>
      </trkpt>
      <trkpt lat="48.69388" lon="1.76149">
        <ele>181</ele>
        <time>2011-08-01T12:31:46.000Z</time>
      </trkpt>
      <trkpt lat="48.69393" lon="1.76139">
        <ele>180.39999389648</ele>
        <time>2011-08-01T12:31:51.000Z</time>
      </trkpt>
      <trkpt lat="48.69397" lon="1.76131">
        <ele>179.80000305176</ele>
        <time>2011-08-01T12:31:55.000Z</time>
      </trkpt>
      <trkpt lat="48.69402" lon="1.76119">
        <ele>179.19999694824</ele>
        <time>2011-08-01T12:32:01.000Z</time>
      </trkpt>
      <trkpt lat="48.69405" lon="1.76111">
        <ele>178.60000610352</ele>
        <time>2011-08-01T12:32:05.000Z</time>
      </trkpt>
      <trkpt lat="48.6941" lon="1.76099">
        <ele>178</ele>
        <time>2011-08-01T12:32:11.000Z</time>
      </trkpt>
      <trkpt lat="48.69416" lon="1.7609">
        <ele>177.39999389648</ele>
        <time>2011-08-01T12:32:16.000Z</time>
      </trkpt>
      <trkpt lat="48.69422" lon="1.7608">
        <ele>177</ele>
        <time>2011-08-01T12:32:21.000Z</time>
      </trkpt>
      <trkpt lat="48.69424" lon="1.76076">
        <ele>176.80000305176</ele>
        <time>2011-08-01T12:32:23.000Z</time>
      </trkpt>
      <trkpt lat="48.69427" lon="1.76068">
        <ele>176.80000305176</ele>
        <time>2011-08-01T12:32:27.000Z</time>
      </trkpt>
      <trkpt lat="48.69426" lon="1.76058">
        <ele>176.19999694824</ele>
        <time>2011-08-01T12:32:32.000Z</time>
      </trkpt>
      <trkpt lat="48.69421" lon="1.76051">
        <ele>175.80000305176</ele>
        <time>2011-08-01T12:32:38.000Z</time>
      </trkpt>
      <trkpt lat="48.69417" lon="1.76045">
        <ele>175.60000610352</ele>
        <time>2011-08-01T12:32:43.000Z</time>
      </trkpt>
      <trkpt lat="48.69409" lon="1.76035">
        <ele>175.19999694824</ele>
        <time>2011-08-01T12:32:50.000Z</time>
      </trkpt>
      <trkpt lat="48.69409" lon="1.76033">
        <ele>175.19999694824</ele>
        <time>2011-08-01T12:32:51.000Z</time>
      </trkpt>
      <trkpt lat="48.69401" lon="1.76022">
        <ele>174.80000305176</ele>
        <time>2011-08-01T12:32:58.000Z</time>
      </trkpt>
      <trkpt lat="48.69398" lon="1.76016">
        <ele>174.60000610352</ele>
        <time>2011-08-01T12:33:01.000Z</time>
      </trkpt>
      <trkpt lat="48.69389" lon="1.76001">
        <ele>174</ele>
        <time>2011-08-01T12:33:10.000Z</time>
      </trkpt>
      <trkpt lat="48.69388" lon="1.75999">
        <ele>173.80000305176</ele>
        <time>2011-08-01T12:33:12.000Z</time>
      </trkpt>
      <trkpt lat="48.69382" lon="1.75989">
        <ele>173.19999694824</ele>
        <time>2011-08-01T12:33:18.000Z</time>
      </trkpt>
      <trkpt lat="48.69375" lon="1.75977">
        <ele>172.39999389648</ele>
        <time>2011-08-01T12:33:23.000Z</time>
      </trkpt>
      <trkpt lat="48.69374" lon="1.75975">
        <ele>172.19999694824</ele>
        <time>2011-08-01T12:33:24.000Z</time>
      </trkpt>
      <trkpt lat="48.69371" lon="1.75967">
        <ele>171.80000305176</ele>
        <time>2011-08-01T12:33:28.000Z</time>
      </trkpt>
      <trkpt lat="48.69366" lon="1.75955">
        <ele>170.80000305176</ele>
        <time>2011-08-01T12:33:35.000Z</time>
      </trkpt>
      <trkpt lat="48.69361" lon="1.75947">
        <ele>170.39999389648</ele>
        <time>2011-08-01T12:33:39.000Z</time>
      </trkpt>
      <trkpt lat="48.69358" lon="1.75944">
        <ele>170</ele>
        <time>2011-08-01T12:33:42.000Z</time>
      </trkpt>
      <trkpt lat="48.69349" lon="1.75939">
        <ele>169.60000610352</ele>
        <time>2011-08-01T12:33:48.000Z</time>
      </trkpt>
      <trkpt lat="48.69342" lon="1.75928">
        <ele>168.80000305176</ele>
        <time>2011-08-01T12:33:53.000Z</time>
      </trkpt>
      <trkpt lat="48.69336" lon="1.75914">
        <ele>167.80000305176</ele>
        <time>2011-08-01T12:34:01.000Z</time>
      </trkpt>
      <trkpt lat="48.6933" lon="1.75902">
        <ele>167.39999389648</ele>
        <time>2011-08-01T12:34:08.000Z</time>
      </trkpt>
      <trkpt lat="48.69324" lon="1.7589">
        <ele>167</ele>
        <time>2011-08-01T12:34:16.000Z</time>
      </trkpt>
      <trkpt lat="48.69315" lon="1.75877">
        <ele>166.39999389648</ele>
        <time>2011-08-01T12:34:25.000Z</time>
      </trkpt>
      <trkpt lat="48.69309" lon="1.75866">
        <ele>166</ele>
        <time>2011-08-01T12:34:32.000Z</time>
      </trkpt>
      <trkpt lat="48.69306" lon="1.75864">
        <ele>166</ele>
        <time>2011-08-01T12:34:33.000Z</time>
      </trkpt>
      <trkpt lat="48.69301" lon="1.75855">
        <ele>165.39999389648</ele>
        <time>2011-08-01T12:34:39.000Z</time>
      </trkpt>
      <trkpt lat="48.69294" lon="1.75846">
        <ele>165</ele>
        <time>2011-08-01T12:34:45.000Z</time>
      </trkpt>
      <trkpt lat="48.69288" lon="1.75836">
        <ele>164.39999389648</ele>
        <time>2011-08-01T12:34:50.000Z</time>
      </trkpt>
      <trkpt lat="48.69286" lon="1.75828">
        <ele>164.19999694824</ele>
        <time>2011-08-01T12:34:54.000Z</time>
      </trkpt>
      <trkpt lat="48.6928" lon="1.75817">
        <ele>163.80000305176</ele>
        <time>2011-08-01T12:35:01.000Z</time>
      </trkpt>
      <trkpt lat="48.69275" lon="1.75806">
        <ele>163.39999389648</ele>
        <time>2011-08-01T12:35:08.000Z</time>
      </trkpt>
      <trkpt lat="48.6927" lon="1.75795">
        <ele>163</ele>
        <time>2011-08-01T12:35:15.000Z</time>
      </trkpt>
      <trkpt lat="48.69269" lon="1.75792">
        <ele>162.80000305176</ele>
        <time>2011-08-01T12:35:17.000Z</time>
      </trkpt>
      <trkpt lat="48.69263" lon="1.75786">
        <ele>162.60000610352</ele>
        <time>2011-08-01T12:35:21.000Z</time>
      </trkpt>
      <trkpt lat="48.69259" lon="1.75781">
        <ele>162.19999694824</ele>
        <time>2011-08-01T12:35:24.000Z</time>
      </trkpt>
      <trkpt lat="48.69251" lon="1.75769">
        <ele>161.60000610352</ele>
        <time>2011-08-01T12:35:31.000Z</time>
      </trkpt>
      <trkpt lat="48.69244" lon="1.75758">
        <ele>161.39999389648</ele>
        <time>2011-08-01T12:35:37.000Z</time>
      </trkpt>
      <trkpt lat="48.69234" lon="1.7574">
        <ele>161.39999389648</ele>
        <time>2011-08-01T12:35:47.000Z</time>
      </trkpt>
      <trkpt lat="48.69224" lon="1.75726">
        <ele>161.39999389648</ele>
        <time>2011-08-01T12:35:55.000Z</time>
      </trkpt>
      <trkpt lat="48.69218" lon="1.75715">
        <ele>161.39999389648</ele>
        <time>2011-08-01T12:36:02.000Z</time>
      </trkpt>
      <trkpt lat="48.69211" lon="1.75702">
        <ele>161.39999389648</ele>
        <time>2011-08-01T12:36:10.000Z</time>
      </trkpt>
      <trkpt lat="48.69203" lon="1.75693">
        <ele>161.39999389648</ele>
        <time>2011-08-01T12:36:16.000Z</time>
      </trkpt>
      <trkpt lat="48.69198" lon="1.75684">
        <ele>161.39999389648</ele>
        <time>2011-08-01T12:36:22.000Z</time>
      </trkpt>
      <trkpt lat="48.69194" lon="1.75675">
        <ele>161.19999694824</ele>
        <time>2011-08-01T12:36:29.000Z</time>
      </trkpt>
      <trkpt lat="48.69189" lon="1.75665">
        <ele>161</ele>
        <time>2011-08-01T12:36:36.000Z</time>
      </trkpt>
      <trkpt lat="48.69186" lon="1.75655">
        <ele>160.60000610352</ele>
        <time>2011-08-01T12:36:43.000Z</time>
      </trkpt>
      <trkpt lat="48.6918" lon="1.75645">
        <ele>160</ele>
        <time>2011-08-01T12:36:48.000Z</time>
      </trkpt>
      <trkpt lat="48.69174" lon="1.75634">
        <ele>159.39999389648</ele>
        <time>2011-08-01T12:36:55.000Z</time>
      </trkpt>
      <trkpt lat="48.69172" lon="1.75632">
        <ele>159.39999389648</ele>
        <time>2011-08-01T12:36:57.000Z</time>
      </trkpt>
      <trkpt lat="48.6916" lon="1.75615">
        <ele>158.39999389648</ele>
        <time>2011-08-01T12:37:07.000Z</time>
      </trkpt>
      <trkpt lat="48.69153" lon="1.75604">
        <ele>158</ele>
        <time>2011-08-01T12:37:14.000Z</time>
      </trkpt>
      <trkpt lat="48.69148" lon="1.75596">
        <ele>157.80000305176</ele>
        <time>2011-08-01T12:37:21.000Z</time>
      </trkpt>
      <trkpt lat="48.69141" lon="1.75582">
        <ele>157.39999389648</ele>
        <time>2011-08-01T12:37:30.000Z</time>
      </trkpt>
      <trkpt lat="48.69136" lon="1.75575">
        <ele>157.60000610352</ele>
        <time>2011-08-01T12:37:35.000Z</time>
      </trkpt>
      <trkpt lat="48.6913" lon="1.75565">
        <ele>157.80000305176</ele>
        <time>2011-08-01T12:37:41.000Z</time>
      </trkpt>
      <trkpt lat="48.69122" lon="1.75553">
        <ele>158</ele>
        <time>2011-08-01T12:37:48.000Z</time>
      </trkpt>
      <trkpt lat="48.69115" lon="1.75543">
        <ele>158</ele>
        <time>2011-08-01T12:37:54.000Z</time>
      </trkpt>
      <trkpt lat="48.69105" lon="1.75529">
        <ele>157.80000305176</ele>
        <time>2011-08-01T12:38:04.000Z</time>
      </trkpt>
      <trkpt lat="48.69093" lon="1.7551">
        <ele>157.39999389648</ele>
        <time>2011-08-01T12:38:15.000Z</time>
      </trkpt>
      <trkpt lat="48.69082" lon="1.75493">
        <ele>156.80000305176</ele>
        <time>2011-08-01T12:38:26.000Z</time>
      </trkpt>
      <trkpt lat="48.69071" lon="1.75476">
        <ele>157.19999694824</ele>
        <time>2011-08-01T12:38:37.000Z</time>
      </trkpt>
      <trkpt lat="48.69061" lon="1.7546">
        <ele>157.19999694824</ele>
        <time>2011-08-01T12:38:48.000Z</time>
      </trkpt>
      <trkpt lat="48.69051" lon="1.75444">
        <ele>157.19999694824</ele>
        <time>2011-08-01T12:38:59.000Z</time>
      </trkpt>
      <trkpt lat="48.69044" lon="1.75435">
        <ele>157.19999694824</ele>
        <time>2011-08-01T12:39:05.000Z</time>
      </trkpt>
      <trkpt lat="48.69041" lon="1.7543">
        <ele>157.19999694824</ele>
        <time>2011-08-01T12:39:09.000Z</time>
      </trkpt>
      <trkpt lat="48.69036" lon="1.75419">
        <ele>157</ele>
        <time>2011-08-01T12:39:16.000Z</time>
      </trkpt>
      <trkpt lat="48.69031" lon="1.75408">
        <ele>157.19999694824</ele>
        <time>2011-08-01T12:39:23.000Z</time>
      </trkpt>
      <trkpt lat="48.69021" lon="1.75391">
        <ele>157.39999389648</ele>
        <time>2011-08-01T12:39:33.000Z</time>
      </trkpt>
      <trkpt lat="48.69018" lon="1.75384">
        <ele>157.39999389648</ele>
        <time>2011-08-01T12:39:38.000Z</time>
      </trkpt>
      <trkpt lat="48.69009" lon="1.75371">
        <ele>157.39999389648</ele>
        <time>2011-08-01T12:39:46.000Z</time>
      </trkpt>
      <trkpt lat="48.69003" lon="1.75358">
        <ele>157.19999694824</ele>
        <time>2011-08-01T12:39:55.000Z</time>
      </trkpt>
      <trkpt lat="48.68998" lon="1.75346">
        <ele>157</ele>
        <time>2011-08-01T12:40:03.000Z</time>
      </trkpt>
      <trkpt lat="48.6899" lon="1.75335">
        <ele>156.60000610352</ele>
        <time>2011-08-01T12:40:11.000Z</time>
      </trkpt>
      <trkpt lat="48.68989" lon="1.75335">
        <ele>156.60000610352</ele>
        <time>2011-08-01T12:40:14.000Z</time>
      </trkpt>
      <trkpt lat="48.68987" lon="1.75328">
        <ele>156.39999389648</ele>
        <time>2011-08-01T12:40:21.000Z</time>
      </trkpt>
      <trkpt lat="48.68983" lon="1.7532">
        <ele>156</ele>
        <time>2011-08-01T12:40:26.000Z</time>
      </trkpt>
      <trkpt lat="48.68979" lon="1.75309">
        <ele>155.60000610352</ele>
        <time>2011-08-01T12:40:32.000Z</time>
      </trkpt>
      <trkpt lat="48.68976" lon="1.75303">
        <ele>155.39999389648</ele>
        <time>2011-08-01T12:40:35.000Z</time>
      </trkpt>
      <trkpt lat="48.68973" lon="1.75293">
        <ele>155.19999694824</ele>
        <time>2011-08-01T12:40:40.000Z</time>
      </trkpt>
      <trkpt lat="48.6897" lon="1.75288">
        <ele>155</ele>
        <time>2011-08-01T12:40:43.000Z</time>
      </trkpt>
      <trkpt lat="48.68966" lon="1.75281">
        <ele>154.60000610352</ele>
        <time>2011-08-01T12:40:48.000Z</time>
      </trkpt>
      <trkpt lat="48.68954" lon="1.75266">
        <ele>154</ele>
        <time>2011-08-01T12:40:58.000Z</time>
      </trkpt>
      <trkpt lat="48.68947" lon="1.75255">
        <ele>153.80000305176</ele>
        <time>2011-08-01T12:41:05.000Z</time>
      </trkpt>
      <trkpt lat="48.68943" lon="1.75245">
        <ele>153.60000610352</ele>
        <time>2011-08-01T12:41:11.000Z</time>
      </trkpt>
      <trkpt lat="48.68933" lon="1.75232">
        <ele>153.19999694824</ele>
        <time>2011-08-01T12:41:19.000Z</time>
      </trkpt>
      <trkpt lat="48.68927" lon="1.7522">
        <ele>153.19999694824</ele>
        <time>2011-08-01T12:41:27.000Z</time>
      </trkpt>
      <trkpt lat="48.6892" lon="1.75205">
        <ele>153</ele>
        <time>2011-08-01T12:41:36.000Z</time>
      </trkpt>
      <trkpt lat="48.68914" lon="1.75193">
        <ele>153</ele>
        <time>2011-08-01T12:41:43.000Z</time>
      </trkpt>
      <trkpt lat="48.68906" lon="1.75184">
        <ele>153.19999694824</ele>
        <time>2011-08-01T12:41:50.000Z</time>
      </trkpt>
      <trkpt lat="48.68901" lon="1.75175">
        <ele>153.19999694824</ele>
        <time>2011-08-01T12:41:56.000Z</time>
      </trkpt>
      <trkpt lat="48.68899" lon="1.75161">
        <ele>153.39999389648</ele>
        <time>2011-08-01T12:42:03.000Z</time>
      </trkpt>
      <trkpt lat="48.68895" lon="1.75147">
        <ele>153.60000610352</ele>
        <time>2011-08-01T12:42:11.000Z</time>
      </trkpt>
      <trkpt lat="48.68889" lon="1.75137">
        <ele>153.80000305176</ele>
        <time>2011-08-01T12:42:16.000Z</time>
      </trkpt>
      <trkpt lat="48.68885" lon="1.75128">
        <ele>154</ele>
        <time>2011-08-01T12:42:22.000Z</time>
      </trkpt>
      <trkpt lat="48.68878" lon="1.75117">
        <ele>154.19999694824</ele>
        <time>2011-08-01T12:42:29.000Z</time>
      </trkpt>
      <trkpt lat="48.68872" lon="1.75105">
        <ele>154.39999389648</ele>
        <time>2011-08-01T12:42:36.000Z</time>
      </trkpt>
      <trkpt lat="48.68868" lon="1.75096">
        <ele>154.39999389648</ele>
        <time>2011-08-01T12:42:41.000Z</time>
      </trkpt>
      <trkpt lat="48.68866" lon="1.75088">
        <ele>154.39999389648</ele>
        <time>2011-08-01T12:42:46.000Z</time>
      </trkpt>
      <trkpt lat="48.68859" lon="1.75076">
        <ele>154.60000610352</ele>
        <time>2011-08-01T12:42:53.000Z</time>
      </trkpt>
      <trkpt lat="48.68852" lon="1.75063">
        <ele>154.60000610352</ele>
        <time>2011-08-01T12:43:01.000Z</time>
      </trkpt>
      <trkpt lat="48.68843" lon="1.75046">
        <ele>154.80000305176</ele>
        <time>2011-08-01T12:43:11.000Z</time>
      </trkpt>
      <trkpt lat="48.68836" lon="1.75033">
        <ele>154.80000305176</ele>
        <time>2011-08-01T12:43:19.000Z</time>
      </trkpt>
      <trkpt lat="48.6883" lon="1.75021">
        <ele>155</ele>
        <time>2011-08-01T12:43:26.000Z</time>
      </trkpt>
      <trkpt lat="48.68824" lon="1.75009">
        <ele>155</ele>
        <time>2011-08-01T12:43:33.000Z</time>
      </trkpt>
      <trkpt lat="48.68823" lon="1.75007">
        <ele>155</ele>
        <time>2011-08-01T12:43:34.000Z</time>
      </trkpt>
      <trkpt lat="48.68819" lon="1.75">
        <ele>155</ele>
        <time>2011-08-01T12:43:39.000Z</time>
      </trkpt>
      <trkpt lat="48.68814" lon="1.74992">
        <ele>155.19999694824</ele>
        <time>2011-08-01T12:43:44.000Z</time>
      </trkpt>
      <trkpt lat="48.68808" lon="1.74975">
        <ele>155.39999389648</ele>
        <time>2011-08-01T12:43:53.000Z</time>
      </trkpt>
      <trkpt lat="48.68802" lon="1.7496">
        <ele>155.80000305176</ele>
        <time>2011-08-01T12:44:01.000Z</time>
      </trkpt>
      <trkpt lat="48.68796" lon="1.74948">
        <ele>156</ele>
        <time>2011-08-01T12:44:08.000Z</time>
      </trkpt>
      <trkpt lat="48.68795" lon="1.74944">
        <ele>156</ele>
        <time>2011-08-01T12:44:11.000Z</time>
      </trkpt>
      <trkpt lat="48.68792" lon="1.74937">
        <ele>156.19999694824</ele>
        <time>2011-08-01T12:44:16.000Z</time>
      </trkpt>
      <trkpt lat="48.68788" lon="1.74923">
        <ele>156.39999389648</ele>
        <time>2011-08-01T12:44:25.000Z</time>
      </trkpt>
      <trkpt lat="48.68783" lon="1.74912">
        <ele>156.60000610352</ele>
        <time>2011-08-01T12:44:31.000Z</time>
      </trkpt>
      <trkpt lat="48.68774" lon="1.74899">
        <ele>157</ele>
        <time>2011-08-01T12:44:38.000Z</time>
      </trkpt>
      <trkpt lat="48.68774" lon="1.74897">
        <ele>157</ele>
        <time>2011-08-01T12:44:40.000Z</time>
      </trkpt>
      <trkpt lat="48.68768" lon="1.7489">
        <ele>157.19999694824</ele>
        <time>2011-08-01T12:44:47.000Z</time>
      </trkpt>
      <trkpt lat="48.68764" lon="1.74883">
        <ele>157.39999389648</ele>
        <time>2011-08-01T12:44:53.000Z</time>
      </trkpt>
      <trkpt lat="48.6876" lon="1.74875">
        <ele>157.60000610352</ele>
        <time>2011-08-01T12:44:58.000Z</time>
      </trkpt>
      <trkpt lat="48.68757" lon="1.74871">
        <ele>157.80000305176</ele>
        <time>2011-08-01T12:45:01.000Z</time>
      </trkpt>
      <trkpt lat="48.68749" lon="1.74861">
        <ele>158.19999694824</ele>
        <time>2011-08-01T12:45:08.000Z</time>
      </trkpt>
      <trkpt lat="48.68748" lon="1.74857">
        <ele>158.39999389648</ele>
        <time>2011-08-01T12:45:10.000Z</time>
      </trkpt>
      <trkpt lat="48.68745" lon="1.74851">
        <ele>159</ele>
        <time>2011-08-01T12:45:15.000Z</time>
      </trkpt>
      <trkpt lat="48.68744" lon="1.74851">
        <ele>159</ele>
        <time>2011-08-01T12:45:16.000Z</time>
      </trkpt>
      <trkpt lat="48.6874" lon="1.74843">
        <ele>159.60000610352</ele>
        <time>2011-08-01T12:45:21.000Z</time>
      </trkpt>
      <trkpt lat="48.68733" lon="1.74833">
        <ele>160.39999389648</ele>
        <time>2011-08-01T12:45:28.000Z</time>
      </trkpt>
      <trkpt lat="48.68727" lon="1.74824">
        <ele>161.19999694824</ele>
        <time>2011-08-01T12:45:34.000Z</time>
      </trkpt>
      <trkpt lat="48.68718" lon="1.74809">
        <ele>162.60000610352</ele>
        <time>2011-08-01T12:45:43.000Z</time>
      </trkpt>
      <trkpt lat="48.68715" lon="1.74804">
        <ele>163</ele>
        <time>2011-08-01T12:45:46.000Z</time>
      </trkpt>
      <trkpt lat="48.68714" lon="1.74798">
        <ele>163.39999389648</ele>
        <time>2011-08-01T12:45:48.000Z</time>
      </trkpt>
      <trkpt lat="48.68712" lon="1.74785">
        <ele>164</ele>
        <time>2011-08-01T12:45:54.000Z</time>
      </trkpt>
      <trkpt lat="48.68712" lon="1.74777">
        <ele>164.39999389648</ele>
        <time>2011-08-01T12:45:58.000Z</time>
      </trkpt>
      <trkpt lat="48.68708" lon="1.74768">
        <ele>165.19999694824</ele>
        <time>2011-08-01T12:46:04.000Z</time>
      </trkpt>
      <trkpt lat="48.68701" lon="1.74757">
        <ele>166.19999694824</ele>
        <time>2011-08-01T12:46:10.000Z</time>
      </trkpt>
      <trkpt lat="48.68697" lon="1.74748">
        <ele>167</ele>
        <time>2011-08-01T12:46:16.000Z</time>
      </trkpt>
      <trkpt lat="48.68691" lon="1.74739">
        <ele>167.80000305176</ele>
        <time>2011-08-01T12:46:22.000Z</time>
      </trkpt>
      <trkpt lat="48.68688" lon="1.74732">
        <ele>168.19999694824</ele>
        <time>2011-08-01T12:46:26.000Z</time>
      </trkpt>
      <trkpt lat="48.68687" lon="1.74726">
        <ele>168.19999694824</ele>
        <time>2011-08-01T12:46:29.000Z</time>
      </trkpt>
      <trkpt lat="48.68681" lon="1.74721">
        <ele>168.80000305176</ele>
        <time>2011-08-01T12:46:35.000Z</time>
      </trkpt>
      <trkpt lat="48.68677" lon="1.74716">
        <ele>169.19999694824</ele>
        <time>2011-08-01T12:46:40.000Z</time>
      </trkpt>
      <trkpt lat="48.68675" lon="1.74708">
        <ele>169.39999389648</ele>
        <time>2011-08-01T12:46:45.000Z</time>
      </trkpt>
      <trkpt lat="48.6867" lon="1.74703">
        <ele>169.60000610352</ele>
        <time>2011-08-01T12:46:49.000Z</time>
      </trkpt>
      <trkpt lat="48.68667" lon="1.74699">
        <ele>169.80000305176</ele>
        <time>2011-08-01T12:46:52.000Z</time>
      </trkpt>
      <trkpt lat="48.68661" lon="1.74681">
        <ele>169.80000305176</ele>
        <time>2011-08-01T12:47:01.000Z</time>
      </trkpt>
      <trkpt lat="48.6866" lon="1.74671">
        <ele>169.80000305176</ele>
        <time>2011-08-01T12:47:07.000Z</time>
      </trkpt>
      <trkpt lat="48.68657" lon="1.74668">
        <ele>169.80000305176</ele>
        <time>2011-08-01T12:47:09.000Z</time>
      </trkpt>
      <trkpt lat="48.68653" lon="1.74655">
        <ele>169.60000610352</ele>
        <time>2011-08-01T12:47:16.000Z</time>
      </trkpt>
      <trkpt lat="48.6865" lon="1.74647">
        <ele>169.60000610352</ele>
        <time>2011-08-01T12:47:22.000Z</time>
      </trkpt>
      <trkpt lat="48.68648" lon="1.74643">
        <ele>169.60000610352</ele>
        <time>2011-08-01T12:47:24.000Z</time>
      </trkpt>
      <trkpt lat="48.68641" lon="1.74633">
        <ele>169.39999389648</ele>
        <time>2011-08-01T12:47:30.000Z</time>
      </trkpt>
      <trkpt lat="48.68638" lon="1.74626">
        <ele>169.19999694824</ele>
        <time>2011-08-01T12:47:35.000Z</time>
      </trkpt>
      <trkpt lat="48.68632" lon="1.74615">
        <ele>169</ele>
        <time>2011-08-01T12:47:42.000Z</time>
      </trkpt>
      <trkpt lat="48.68625" lon="1.74602">
        <ele>168.60000610352</ele>
        <time>2011-08-01T12:47:49.000Z</time>
      </trkpt>
      <trkpt lat="48.6862" lon="1.74597">
        <ele>168.39999389648</ele>
        <time>2011-08-01T12:47:55.000Z</time>
      </trkpt>
      <trkpt lat="48.68618" lon="1.74593">
        <ele>168.19999694824</ele>
        <time>2011-08-01T12:48:00.000Z</time>
      </trkpt>
      <trkpt lat="48.68608" lon="1.74578">
        <ele>167.60000610352</ele>
        <time>2011-08-01T12:48:09.000Z</time>
      </trkpt>
      <trkpt lat="48.68605" lon="1.74573">
        <ele>167.19999694824</ele>
        <time>2011-08-01T12:48:14.000Z</time>
      </trkpt>
      <trkpt lat="48.68602" lon="1.74563">
        <ele>166.60000610352</ele>
        <time>2011-08-01T12:48:20.000Z</time>
      </trkpt>
      <trkpt lat="48.68595" lon="1.74549">
        <ele>165.39999389648</ele>
        <time>2011-08-01T12:48:28.000Z</time>
      </trkpt>
      <trkpt lat="48.68595" lon="1.74546">
        <ele>165.19999694824</ele>
        <time>2011-08-01T12:48:30.000Z</time>
      </trkpt>
      <trkpt lat="48.68591" lon="1.7454">
        <ele>164.60000610352</ele>
        <time>2011-08-01T12:48:34.000Z</time>
      </trkpt>
      <trkpt lat="48.68589" lon="1.74534">
        <ele>164.19999694824</ele>
        <time>2011-08-01T12:48:39.000Z</time>
      </trkpt>
      <trkpt lat="48.68585" lon="1.7452">
        <ele>163.19999694824</ele>
        <time>2011-08-01T12:48:47.000Z</time>
      </trkpt>
      <trkpt lat="48.68581" lon="1.74511">
        <ele>162.39999389648</ele>
        <time>2011-08-01T12:48:53.000Z</time>
      </trkpt>
      <trkpt lat="48.68581" lon="1.74509">
        <ele>162.19999694824</ele>
        <time>2011-08-01T12:48:55.000Z</time>
      </trkpt>
      <trkpt lat="48.68579" lon="1.74503">
        <ele>161.80000305176</ele>
        <time>2011-08-01T12:48:59.000Z</time>
      </trkpt>
      <trkpt lat="48.68575" lon="1.74496">
        <ele>160.80000305176</ele>
        <time>2011-08-01T12:49:04.000Z</time>
      </trkpt>
      <trkpt lat="48.68571" lon="1.74483">
        <ele>159.60000610352</ele>
        <time>2011-08-01T12:49:10.000Z</time>
      </trkpt>
      <trkpt lat="48.68568" lon="1.74476">
        <ele>158.80000305176</ele>
        <time>2011-08-01T12:49:14.000Z</time>
      </trkpt>
      <trkpt lat="48.68567" lon="1.74474">
        <ele>158.80000305176</ele>
        <time>2011-08-01T12:49:15.000Z</time>
      </trkpt>
      <trkpt lat="48.68567" lon="1.74468">
        <ele>158.19999694824</ele>
        <time>2011-08-01T12:49:18.000Z</time>
      </trkpt>
      <trkpt lat="48.68571" lon="1.74458">
        <ele>157.80000305176</ele>
        <time>2011-08-01T12:49:23.000Z</time>
      </trkpt>
      <trkpt lat="48.68575" lon="1.74452">
        <ele>157.80000305176</ele>
        <time>2011-08-01T12:49:27.000Z</time>
      </trkpt>
      <trkpt lat="48.68576" lon="1.74449">
        <ele>157.60000610352</ele>
        <time>2011-08-01T12:49:29.000Z</time>
      </trkpt>
      <trkpt lat="48.68577" lon="1.74439">
        <ele>157</ele>
        <time>2011-08-01T12:49:35.000Z</time>
      </trkpt>
      <trkpt lat="48.68581" lon="1.74427">
        <ele>156.39999389648</ele>
        <time>2011-08-01T12:49:41.000Z</time>
      </trkpt>
      <trkpt lat="48.68586" lon="1.74416">
        <ele>156.19999694824</ele>
        <time>2011-08-01T12:49:47.000Z</time>
      </trkpt>
      <trkpt lat="48.68592" lon="1.74406">
        <ele>156.60000610352</ele>
        <time>2011-08-01T12:49:53.000Z</time>
      </trkpt>
      <trkpt lat="48.68601" lon="1.74392">
        <ele>157.19999694824</ele>
        <time>2011-08-01T12:50:02.000Z</time>
      </trkpt>
      <trkpt lat="48.68605" lon="1.74385">
        <ele>157.39999389648</ele>
        <time>2011-08-01T12:50:08.000Z</time>
      </trkpt>
      <trkpt lat="48.68609" lon="1.74379">
        <ele>157.80000305176</ele>
        <time>2011-08-01T12:50:15.000Z</time>
      </trkpt>
      <trkpt lat="48.68614" lon="1.74373">
        <ele>158</ele>
        <time>2011-08-01T12:50:20.000Z</time>
      </trkpt>
      <trkpt lat="48.68617" lon="1.74367">
        <ele>158</ele>
        <time>2011-08-01T12:50:23.000Z</time>
      </trkpt>
      <trkpt lat="48.68622" lon="1.74359">
        <ele>158.19999694824</ele>
        <time>2011-08-01T12:50:29.000Z</time>
      </trkpt>
      <trkpt lat="48.68628" lon="1.7435">
        <ele>158.19999694824</ele>
        <time>2011-08-01T12:50:36.000Z</time>
      </trkpt>
      <trkpt lat="48.68633" lon="1.74343">
        <ele>158.19999694824</ele>
        <time>2011-08-01T12:50:41.000Z</time>
      </trkpt>
      <trkpt lat="48.68637" lon="1.74337">
        <ele>158.19999694824</ele>
        <time>2011-08-01T12:50:45.000Z</time>
      </trkpt>
      <trkpt lat="48.68641" lon="1.74332">
        <ele>158.39999389648</ele>
        <time>2011-08-01T12:50:51.000Z</time>
      </trkpt>
      <trkpt lat="48.68641" lon="1.74332">
        <ele>158.39999389648</ele>
        <time>2011-08-01T12:50:52.000Z</time>
      </trkpt>
      <trkpt lat="48.68646" lon="1.74328">
        <ele>158.60000610352</ele>
        <time>2011-08-01T12:50:58.000Z</time>
      </trkpt>
      <trkpt lat="48.68653" lon="1.74317">
        <ele>158.80000305176</ele>
        <time>2011-08-01T12:51:04.000Z</time>
      </trkpt>
      <trkpt lat="48.68657" lon="1.74313">
        <ele>158.80000305176</ele>
        <time>2011-08-01T12:51:07.000Z</time>
      </trkpt>
      <trkpt lat="48.68662" lon="1.74303">
        <ele>158.60000610352</ele>
        <time>2011-08-01T12:51:15.000Z</time>
      </trkpt>
      <trkpt lat="48.68667" lon="1.74297">
        <ele>158.60000610352</ele>
        <time>2011-08-01T12:51:20.000Z</time>
      </trkpt>
      <trkpt lat="48.68666" lon="1.74295">
        <ele>158.60000610352</ele>
        <time>2011-08-01T12:51:23.000Z</time>
      </trkpt>
      <trkpt lat="48.68672" lon="1.74287">
        <ele>158.39999389648</ele>
        <time>2011-08-01T12:51:31.000Z</time>
      </trkpt>
      <trkpt lat="48.68674" lon="1.74278">
        <ele>158.19999694824</ele>
        <time>2011-08-01T12:51:36.000Z</time>
      </trkpt>
      <trkpt lat="48.68674" lon="1.74274">
        <ele>158</ele>
        <time>2011-08-01T12:51:42.000Z</time>
      </trkpt>
      <trkpt lat="48.68672" lon="1.74267">
        <ele>157.60000610352</ele>
        <time>2011-08-01T12:51:47.000Z</time>
      </trkpt>
      <trkpt lat="48.68672" lon="1.74265">
        <ele>157.39999389648</ele>
        <time>2011-08-01T12:51:53.000Z</time>
      </trkpt>
      <trkpt lat="48.68673" lon="1.74259">
        <ele>157.19999694824</ele>
        <time>2011-08-01T12:51:58.000Z</time>
      </trkpt>
      <trkpt lat="48.68675" lon="1.74255">
        <ele>157.19999694824</ele>
        <time>2011-08-01T12:52:00.000Z</time>
      </trkpt>
      <trkpt lat="48.68682" lon="1.74249">
        <ele>157</ele>
        <time>2011-08-01T12:52:06.000Z</time>
      </trkpt>
      <trkpt lat="48.68684" lon="1.74247">
        <ele>157</ele>
        <time>2011-08-01T12:52:09.000Z</time>
      </trkpt>
      <trkpt lat="48.68689" lon="1.74238">
        <ele>157</ele>
        <time>2011-08-01T12:52:15.000Z</time>
      </trkpt>
      <trkpt lat="48.68697" lon="1.74224">
        <ele>156.80000305176</ele>
        <time>2011-08-01T12:52:22.000Z</time>
      </trkpt>
      <trkpt lat="48.68701" lon="1.74213">
        <ele>156.80000305176</ele>
        <time>2011-08-01T12:52:27.000Z</time>
      </trkpt>
      <trkpt lat="48.68702" lon="1.742">
        <ele>156.80000305176</ele>
        <time>2011-08-01T12:52:32.000Z</time>
      </trkpt>
      <trkpt lat="48.68702" lon="1.74189">
        <ele>156.60000610352</ele>
        <time>2011-08-01T12:52:37.000Z</time>
      </trkpt>
      <trkpt lat="48.687" lon="1.74179">
        <ele>156.80000305176</ele>
        <time>2011-08-01T12:52:43.000Z</time>
      </trkpt>
      <trkpt lat="48.68698" lon="1.74165">
        <ele>156.80000305176</ele>
        <time>2011-08-01T12:52:48.000Z</time>
      </trkpt>
      <trkpt lat="48.68697" lon="1.7415">
        <ele>157.60000610352</ele>
        <time>2011-08-01T12:52:54.000Z</time>
      </trkpt>
      <trkpt lat="48.68696" lon="1.74133">
        <ele>158.60000610352</ele>
        <time>2011-08-01T12:52:59.000Z</time>
      </trkpt>
      <trkpt lat="48.68693" lon="1.74114">
        <ele>159.80000305176</ele>
        <time>2011-08-01T12:53:03.000Z</time>
      </trkpt>
      <trkpt lat="48.68685" lon="1.74086">
        <ele>161.60000610352</ele>
        <time>2011-08-01T12:53:08.000Z</time>
      </trkpt>
      <trkpt lat="48.68677" lon="1.74055">
        <ele>163.39999389648</ele>
        <time>2011-08-01T12:53:14.000Z</time>
      </trkpt>
      <trkpt lat="48.68673" lon="1.7403">
        <ele>164.60000610352</ele>
        <time>2011-08-01T12:53:19.000Z</time>
      </trkpt>
      <trkpt lat="48.68667" lon="1.74005">
        <ele>165.80000305176</ele>
        <time>2011-08-01T12:53:24.000Z</time>
      </trkpt>
      <trkpt lat="48.68661" lon="1.73985">
        <ele>166.39999389648</ele>
        <time>2011-08-01T12:53:28.000Z</time>
      </trkpt>
      <trkpt lat="48.68654" lon="1.73969">
        <ele>166.80000305176</ele>
        <time>2011-08-01T12:53:32.000Z</time>
      </trkpt>
      <trkpt lat="48.68651" lon="1.73939">
        <ele>167.60000610352</ele>
        <time>2011-08-01T12:53:39.000Z</time>
      </trkpt>
      <trkpt lat="48.68645" lon="1.73912">
        <ele>168.19999694824</ele>
        <time>2011-08-01T12:53:44.000Z</time>
      </trkpt>
      <trkpt lat="48.68639" lon="1.7388">
        <ele>168.80000305176</ele>
        <time>2011-08-01T12:53:50.000Z</time>
      </trkpt>
      <trkpt lat="48.68633" lon="1.73849">
        <ele>169.39999389648</ele>
        <time>2011-08-01T12:53:56.000Z</time>
      </trkpt>
      <trkpt lat="48.68633" lon="1.73824">
        <ele>169.80000305176</ele>
        <time>2011-08-01T12:54:01.000Z</time>
      </trkpt>
      <trkpt lat="48.68626" lon="1.73799">
        <ele>169.39999389648</ele>
        <time>2011-08-01T12:54:06.000Z</time>
      </trkpt>
      <trkpt lat="48.68626" lon="1.73764">
        <ele>169.39999389648</ele>
        <time>2011-08-01T12:54:13.000Z</time>
      </trkpt>
      <trkpt lat="48.68625" lon="1.73722">
        <ele>168.19999694824</ele>
        <time>2011-08-01T12:54:22.000Z</time>
      </trkpt>
      <trkpt lat="48.6862" lon="1.73672">
        <ele>165.60000610352</ele>
        <time>2011-08-01T12:54:32.000Z</time>
      </trkpt>
      <trkpt lat="48.68617" lon="1.73641">
        <ele>164.60000610352</ele>
        <time>2011-08-01T12:54:38.000Z</time>
      </trkpt>
      <trkpt lat="48.68616" lon="1.7362">
        <ele>164.19999694824</ele>
        <time>2011-08-01T12:54:44.000Z</time>
      </trkpt>
      <trkpt lat="48.68614" lon="1.73603">
        <ele>163.80000305176</ele>
        <time>2011-08-01T12:54:52.000Z</time>
      </trkpt>
      <trkpt lat="48.68614" lon="1.73588">
        <ele>163.39999389648</ele>
        <time>2011-08-01T12:55:00.000Z</time>
      </trkpt>
      <trkpt lat="48.68613" lon="1.7357">
        <ele>163.39999389648</ele>
        <time>2011-08-01T12:55:08.000Z</time>
      </trkpt>
      <trkpt lat="48.68614" lon="1.73561">
        <ele>163.39999389648</ele>
        <time>2011-08-01T12:55:12.000Z</time>
      </trkpt>
      <trkpt lat="48.68614" lon="1.7356">
        <ele>163.60000610352</ele>
        <time>2011-08-01T12:55:13.000Z</time>
      </trkpt>
      <trkpt lat="48.68613" lon="1.73559">
        <ele>163.60000610352</ele>
        <time>2011-08-01T12:55:16.000Z</time>
      </trkpt>
      <trkpt lat="48.68612" lon="1.73559">
        <ele>163.39999389648</ele>
        <time>2011-08-01T12:55:19.000Z</time>
      </trkpt>
      <trkpt lat="48.6861" lon="1.73558">
        <ele>163.39999389648</ele>
        <time>2011-08-01T12:55:21.000Z</time>
      </trkpt>
      <trkpt lat="48.68607" lon="1.73553">
        <ele>163.39999389648</ele>
        <time>2011-08-01T12:55:24.000Z</time>
      </trkpt>
      <trkpt lat="48.68606" lon="1.73546">
        <ele>163.39999389648</ele>
        <time>2011-08-01T12:55:29.000Z</time>
      </trkpt>
      <trkpt lat="48.68605" lon="1.73538">
        <ele>163.39999389648</ele>
        <time>2011-08-01T12:55:32.000Z</time>
      </trkpt>
      <trkpt lat="48.68605" lon="1.73526">
        <ele>163.60000610352</ele>
        <time>2011-08-01T12:55:37.000Z</time>
      </trkpt>
      <trkpt lat="48.68602" lon="1.73518">
        <ele>163.60000610352</ele>
        <time>2011-08-01T12:55:41.000Z</time>
      </trkpt>
      <trkpt lat="48.68597" lon="1.73502">
        <ele>163.80000305176</ele>
        <time>2011-08-01T12:55:47.000Z</time>
      </trkpt>
      <trkpt lat="48.68595" lon="1.7349">
        <ele>164.19999694824</ele>
        <time>2011-08-01T12:55:52.000Z</time>
      </trkpt>
      <trkpt lat="48.68594" lon="1.73479">
        <ele>164.39999389648</ele>
        <time>2011-08-01T12:55:58.000Z</time>
      </trkpt>
      <trkpt lat="48.6859" lon="1.73466">
        <ele>165</ele>
        <time>2011-08-01T12:56:05.000Z</time>
      </trkpt>
      <trkpt lat="48.68588" lon="1.73456">
        <ele>165.39999389648</ele>
        <time>2011-08-01T12:56:12.000Z</time>
      </trkpt>
      <trkpt lat="48.68584" lon="1.73448">
        <ele>165.80000305176</ele>
        <time>2011-08-01T12:56:16.000Z</time>
      </trkpt>
      <trkpt lat="48.68578" lon="1.73422">
        <ele>167</ele>
        <time>2011-08-01T12:56:22.000Z</time>
      </trkpt>
      <trkpt lat="48.68575" lon="1.73403">
        <ele>167.19999694824</ele>
        <time>2011-08-01T12:56:26.000Z</time>
      </trkpt>
      <trkpt lat="48.68569" lon="1.73377">
        <ele>167.39999389648</ele>
        <time>2011-08-01T12:56:31.000Z</time>
      </trkpt>
      <trkpt lat="48.68563" lon="1.73349">
        <ele>167.39999389648</ele>
        <time>2011-08-01T12:56:36.000Z</time>
      </trkpt>
      <trkpt lat="48.68561" lon="1.73319">
        <ele>167.19999694824</ele>
        <time>2011-08-01T12:56:41.000Z</time>
      </trkpt>
      <trkpt lat="48.68559" lon="1.73307">
        <ele>167</ele>
        <time>2011-08-01T12:56:43.000Z</time>
      </trkpt>
      <trkpt lat="48.68553" lon="1.73268">
        <ele>166.60000610352</ele>
        <time>2011-08-01T12:56:50.000Z</time>
      </trkpt>
      <trkpt lat="48.6855" lon="1.73242">
        <ele>166.60000610352</ele>
        <time>2011-08-01T12:56:55.000Z</time>
      </trkpt>
      <trkpt lat="48.68545" lon="1.73215">
        <ele>167</ele>
        <time>2011-08-01T12:57:00.000Z</time>
      </trkpt>
      <trkpt lat="48.68542" lon="1.73175">
        <ele>167.80000305176</ele>
        <time>2011-08-01T12:57:08.000Z</time>
      </trkpt>
      <trkpt lat="48.68543" lon="1.73155">
        <ele>168</ele>
        <time>2011-08-01T12:57:13.000Z</time>
      </trkpt>
      <trkpt lat="48.6854" lon="1.73133">
        <ele>167.80000305176</ele>
        <time>2011-08-01T12:57:18.000Z</time>
      </trkpt>
      <trkpt lat="48.68535" lon="1.73089">
        <ele>167.80000305176</ele>
        <time>2011-08-01T12:57:27.000Z</time>
      </trkpt>
      <trkpt lat="48.68531" lon="1.73055">
        <ele>168.39999389648</ele>
        <time>2011-08-01T12:57:34.000Z</time>
      </trkpt>
      <trkpt lat="48.68529" lon="1.73027">
        <ele>169</ele>
        <time>2011-08-01T12:57:40.000Z</time>
      </trkpt>
      <trkpt lat="48.68524" lon="1.72994">
        <ele>169.60000610352</ele>
        <time>2011-08-01T12:57:47.000Z</time>
      </trkpt>
      <trkpt lat="48.68521" lon="1.72965">
        <ele>170.19999694824</ele>
        <time>2011-08-01T12:57:53.000Z</time>
      </trkpt>
      <trkpt lat="48.6852" lon="1.7293">
        <ele>170.80000305176</ele>
        <time>2011-08-01T12:58:00.000Z</time>
      </trkpt>
      <trkpt lat="48.68518" lon="1.72884">
        <ele>172</ele>
        <time>2011-08-01T12:58:09.000Z</time>
      </trkpt>
      <trkpt lat="48.68516" lon="1.72848">
        <ele>173</ele>
        <time>2011-08-01T12:58:16.000Z</time>
      </trkpt>
      <trkpt lat="48.68513" lon="1.7282">
        <ele>173.60000610352</ele>
        <time>2011-08-01T12:58:22.000Z</time>
      </trkpt>
      <trkpt lat="48.6851" lon="1.7279">
        <ele>173.80000305176</ele>
        <time>2011-08-01T12:58:29.000Z</time>
      </trkpt>
      <trkpt lat="48.68516" lon="1.7278">
        <ele>173.60000610352</ele>
        <time>2011-08-01T12:58:33.000Z</time>
      </trkpt>
      <trkpt lat="48.68527" lon="1.7277">
        <ele>173.39999389648</ele>
        <time>2011-08-01T12:58:38.000Z</time>
      </trkpt>
      <trkpt lat="48.68538" lon="1.72758">
        <ele>173.39999389648</ele>
        <time>2011-08-01T12:58:42.000Z</time>
      </trkpt>
      <trkpt lat="48.68549" lon="1.72749">
        <ele>173.39999389648</ele>
        <time>2011-08-01T12:58:46.000Z</time>
      </trkpt>
      <trkpt lat="48.68569" lon="1.72732">
        <ele>173.19999694824</ele>
        <time>2011-08-01T12:58:53.000Z</time>
      </trkpt>
      <trkpt lat="48.68579" lon="1.72724">
        <ele>173</ele>
        <time>2011-08-01T12:58:57.000Z</time>
      </trkpt>
      <trkpt lat="48.68591" lon="1.72712">
        <ele>172.80000305176</ele>
        <time>2011-08-01T12:59:01.000Z</time>
      </trkpt>
      <trkpt lat="48.68606" lon="1.72699">
        <ele>172.60000610352</ele>
        <time>2011-08-01T12:59:06.000Z</time>
      </trkpt>
      <trkpt lat="48.68616" lon="1.7269">
        <ele>172.60000610352</ele>
        <time>2011-08-01T12:59:10.000Z</time>
      </trkpt>
      <trkpt lat="48.6863" lon="1.72678">
        <ele>172.39999389648</ele>
        <time>2011-08-01T12:59:15.000Z</time>
      </trkpt>
      <trkpt lat="48.68649" lon="1.72663">
        <ele>172.19999694824</ele>
        <time>2011-08-01T12:59:20.000Z</time>
      </trkpt>
      <trkpt lat="48.6866" lon="1.72656">
        <ele>172.19999694824</ele>
        <time>2011-08-01T12:59:23.000Z</time>
      </trkpt>
      <trkpt lat="48.68677" lon="1.72643">
        <ele>172.39999389648</ele>
        <time>2011-08-01T12:59:27.000Z</time>
      </trkpt>
      <trkpt lat="48.68686" lon="1.72635">
        <ele>172.39999389648</ele>
        <time>2011-08-01T12:59:30.000Z</time>
      </trkpt>
      <trkpt lat="48.68701" lon="1.72624">
        <ele>172.60000610352</ele>
        <time>2011-08-01T12:59:35.000Z</time>
      </trkpt>
      <trkpt lat="48.68718" lon="1.72608">
        <ele>172.60000610352</ele>
        <time>2011-08-01T12:59:41.000Z</time>
      </trkpt>
      <trkpt lat="48.68725" lon="1.72601">
        <ele>172.80000305176</ele>
        <time>2011-08-01T12:59:46.000Z</time>
      </trkpt>
      <trkpt lat="48.68729" lon="1.72598">
        <ele>172.80000305176</ele>
        <time>2011-08-01T12:59:48.000Z</time>
      </trkpt>
      <trkpt lat="48.68736" lon="1.72592">
        <ele>172.80000305176</ele>
        <time>2011-08-01T12:59:54.000Z</time>
      </trkpt>
      <trkpt lat="48.68737" lon="1.72591">
        <ele>172.80000305176</ele>
        <time>2011-08-01T12:59:55.000Z</time>
      </trkpt>
      <trkpt lat="48.68746" lon="1.72583">
        <ele>173</ele>
        <time>2011-08-01T13:00:01.000Z</time>
      </trkpt>
      <trkpt lat="48.68753" lon="1.72575">
        <ele>172.80000305176</ele>
        <time>2011-08-01T13:00:07.000Z</time>
      </trkpt>
      <trkpt lat="48.68761" lon="1.7257">
        <ele>172.39999389648</ele>
        <time>2011-08-01T13:00:12.000Z</time>
      </trkpt>
      <trkpt lat="48.68768" lon="1.72566">
        <ele>172</ele>
        <time>2011-08-01T13:00:17.000Z</time>
      </trkpt>
      <trkpt lat="48.6877" lon="1.72564">
        <ele>172</ele>
        <time>2011-08-01T13:00:19.000Z</time>
      </trkpt>
      <trkpt lat="48.68779" lon="1.72559">
        <ele>171.39999389648</ele>
        <time>2011-08-01T13:00:26.000Z</time>
      </trkpt>
      <trkpt lat="48.68786" lon="1.7255">
        <ele>171.19999694824</ele>
        <time>2011-08-01T13:00:31.000Z</time>
      </trkpt>
      <trkpt lat="48.68789" lon="1.72547">
        <ele>171</ele>
        <time>2011-08-01T13:00:33.000Z</time>
      </trkpt>
      <trkpt lat="48.68796" lon="1.7254">
        <ele>170.60000610352</ele>
        <time>2011-08-01T13:00:38.000Z</time>
      </trkpt>
      <trkpt lat="48.68801" lon="1.72532">
        <ele>170.39999389648</ele>
        <time>2011-08-01T13:00:43.000Z</time>
      </trkpt>
      <trkpt lat="48.68802" lon="1.72531">
        <ele>170.39999389648</ele>
        <time>2011-08-01T13:00:44.000Z</time>
      </trkpt>
      <trkpt lat="48.68808" lon="1.72529">
        <ele>170</ele>
        <time>2011-08-01T13:00:48.000Z</time>
      </trkpt>
      <trkpt lat="48.68819" lon="1.72523">
        <ele>169.39999389648</ele>
        <time>2011-08-01T13:00:55.000Z</time>
      </trkpt>
      <trkpt lat="48.68829" lon="1.72514">
        <ele>169</ele>
        <time>2011-08-01T13:01:03.000Z</time>
      </trkpt>
      <trkpt lat="48.68839" lon="1.72505">
        <ele>168.80000305176</ele>
        <time>2011-08-01T13:01:10.000Z</time>
      </trkpt>
      <trkpt lat="48.68847" lon="1.72499">
        <ele>169</ele>
        <time>2011-08-01T13:01:16.000Z</time>
      </trkpt>
      <trkpt lat="48.68854" lon="1.72494">
        <ele>169</ele>
        <time>2011-08-01T13:01:21.000Z</time>
      </trkpt>
      <trkpt lat="48.68862" lon="1.72487">
        <ele>169.19999694824</ele>
        <time>2011-08-01T13:01:27.000Z</time>
      </trkpt>
      <trkpt lat="48.68867" lon="1.72482">
        <ele>169.19999694824</ele>
        <time>2011-08-01T13:01:32.000Z</time>
      </trkpt>
      <trkpt lat="48.6887" lon="1.72481">
        <ele>169.19999694824</ele>
        <time>2011-08-01T13:01:34.000Z</time>
      </trkpt>
      <trkpt lat="48.68878" lon="1.72472">
        <ele>169.19999694824</ele>
        <time>2011-08-01T13:01:42.000Z</time>
      </trkpt>
      <trkpt lat="48.68885" lon="1.72466">
        <ele>169.19999694824</ele>
        <time>2011-08-01T13:01:47.000Z</time>
      </trkpt>
      <trkpt lat="48.6889" lon="1.72462">
        <ele>169.19999694824</ele>
        <time>2011-08-01T13:01:51.000Z</time>
      </trkpt>
      <trkpt lat="48.68891" lon="1.72461">
        <ele>169.19999694824</ele>
        <time>2011-08-01T13:01:52.000Z</time>
      </trkpt>
      <trkpt lat="48.68901" lon="1.72451">
        <ele>169.19999694824</ele>
        <time>2011-08-01T13:02:00.000Z</time>
      </trkpt>
      <trkpt lat="48.68911" lon="1.72445">
        <ele>169</ele>
        <time>2011-08-01T13:02:06.000Z</time>
      </trkpt>
      <trkpt lat="48.68919" lon="1.72437">
        <ele>168.80000305176</ele>
        <time>2011-08-01T13:02:13.000Z</time>
      </trkpt>
      <trkpt lat="48.68924" lon="1.72431">
        <ele>168.80000305176</ele>
        <time>2011-08-01T13:02:18.000Z</time>
      </trkpt>
      <trkpt lat="48.68932" lon="1.72424">
        <ele>168.80000305176</ele>
        <time>2011-08-01T13:02:24.000Z</time>
      </trkpt>
      <trkpt lat="48.68939" lon="1.7242">
        <ele>168.80000305176</ele>
        <time>2011-08-01T13:02:28.000Z</time>
      </trkpt>
      <trkpt lat="48.68944" lon="1.72418">
        <ele>168.80000305176</ele>
        <time>2011-08-01T13:02:32.000Z</time>
      </trkpt>
      <trkpt lat="48.68954" lon="1.72412">
        <ele>169</ele>
        <time>2011-08-01T13:02:40.000Z</time>
      </trkpt>
      <trkpt lat="48.68961" lon="1.72403">
        <ele>169</ele>
        <time>2011-08-01T13:02:47.000Z</time>
      </trkpt>
      <trkpt lat="48.68964" lon="1.72401">
        <ele>169</ele>
        <time>2011-08-01T13:02:51.000Z</time>
      </trkpt>
      <trkpt lat="48.68965" lon="1.72394">
        <ele>169.19999694824</ele>
        <time>2011-08-01T13:03:00.000Z</time>
      </trkpt>
      <trkpt lat="48.68973" lon="1.72391">
        <ele>169.19999694824</ele>
        <time>2011-08-01T13:03:08.000Z</time>
      </trkpt>
      <trkpt lat="48.68979" lon="1.72387">
        <ele>169.19999694824</ele>
        <time>2011-08-01T13:03:12.000Z</time>
      </trkpt>
      <trkpt lat="48.68986" lon="1.72381">
        <ele>169.39999389648</ele>
        <time>2011-08-01T13:03:17.000Z</time>
      </trkpt>
      <trkpt lat="48.68995" lon="1.72372">
        <ele>169.39999389648</ele>
        <time>2011-08-01T13:03:23.000Z</time>
      </trkpt>
      <trkpt lat="48.69002" lon="1.72367">
        <ele>169.60000610352</ele>
        <time>2011-08-01T13:03:28.000Z</time>
      </trkpt>
      <trkpt lat="48.6901" lon="1.7236">
        <ele>169.60000610352</ele>
        <time>2011-08-01T13:03:34.000Z</time>
      </trkpt>
      <trkpt lat="48.69019" lon="1.72351">
        <ele>169.80000305176</ele>
        <time>2011-08-01T13:03:42.000Z</time>
      </trkpt>
      <trkpt lat="48.69024" lon="1.72348">
        <ele>170</ele>
        <time>2011-08-01T13:03:46.000Z</time>
      </trkpt>
      <trkpt lat="48.69033" lon="1.72342">
        <ele>170.19999694824</ele>
        <time>2011-08-01T13:03:54.000Z</time>
      </trkpt>
      <trkpt lat="48.69042" lon="1.72333">
        <ele>170.39999389648</ele>
        <time>2011-08-01T13:04:01.000Z</time>
      </trkpt>
      <trkpt lat="48.69052" lon="1.72325">
        <ele>170.39999389648</ele>
        <time>2011-08-01T13:04:08.000Z</time>
      </trkpt>
      <trkpt lat="48.6906" lon="1.72321">
        <ele>170.39999389648</ele>
        <time>2011-08-01T13:04:14.000Z</time>
      </trkpt>
      <trkpt lat="48.69063" lon="1.7232">
        <ele>170.39999389648</ele>
        <time>2011-08-01T13:04:17.000Z</time>
      </trkpt>
      <trkpt lat="48.69069" lon="1.72318">
        <ele>170.60000610352</ele>
        <time>2011-08-01T13:04:22.000Z</time>
      </trkpt>
      <trkpt lat="48.69074" lon="1.72311">
        <ele>170.39999389648</ele>
        <time>2011-08-01T13:04:27.000Z</time>
      </trkpt>
      <trkpt lat="48.6908" lon="1.72303">
        <ele>170.39999389648</ele>
        <time>2011-08-01T13:04:33.000Z</time>
      </trkpt>
      <trkpt lat="48.69082" lon="1.72301">
        <ele>170.39999389648</ele>
        <time>2011-08-01T13:04:35.000Z</time>
      </trkpt>
      <trkpt lat="48.69082" lon="1.723">
        <ele>170.39999389648</ele>
        <time>2011-08-01T13:04:37.000Z</time>
      </trkpt>
      <trkpt lat="48.69091" lon="1.72296">
        <ele>170.39999389648</ele>
        <time>2011-08-01T13:04:43.000Z</time>
      </trkpt>
      <trkpt lat="48.69099" lon="1.72291">
        <ele>170.39999389648</ele>
        <time>2011-08-01T13:04:50.000Z</time>
      </trkpt>
      <trkpt lat="48.69104" lon="1.72286">
        <ele>170.60000610352</ele>
        <time>2011-08-01T13:04:54.000Z</time>
      </trkpt>
      <trkpt lat="48.69112" lon="1.72279">
        <ele>170.60000610352</ele>
        <time>2011-08-01T13:05:01.000Z</time>
      </trkpt>
      <trkpt lat="48.69113" lon="1.72278">
        <ele>170.60000610352</ele>
        <time>2011-08-01T13:05:02.000Z</time>
      </trkpt>
      <trkpt lat="48.69123" lon="1.72272">
        <ele>170.80000305176</ele>
        <time>2011-08-01T13:05:09.000Z</time>
      </trkpt>
      <trkpt lat="48.6913" lon="1.72265">
        <ele>171</ele>
        <time>2011-08-01T13:05:14.000Z</time>
      </trkpt>
      <trkpt lat="48.69139" lon="1.72258">
        <ele>171.19999694824</ele>
        <time>2011-08-01T13:05:21.000Z</time>
      </trkpt>
      <trkpt lat="48.69143" lon="1.72256">
        <ele>171.19999694824</ele>
        <time>2011-08-01T13:05:26.000Z</time>
      </trkpt>
      <trkpt lat="48.6915" lon="1.72251">
        <ele>171.39999389648</ele>
        <time>2011-08-01T13:05:32.000Z</time>
      </trkpt>
      <trkpt lat="48.69155" lon="1.72245">
        <ele>171.60000610352</ele>
        <time>2011-08-01T13:05:37.000Z</time>
      </trkpt>
      <trkpt lat="48.69157" lon="1.72239">
        <ele>171.80000305176</ele>
        <time>2011-08-01T13:05:43.000Z</time>
      </trkpt>
      <trkpt lat="48.69162" lon="1.72235">
        <ele>172</ele>
        <time>2011-08-01T13:05:50.000Z</time>
      </trkpt>
      <trkpt lat="48.69162" lon="1.72233">
        <ele>172</ele>
        <time>2011-08-01T13:05:54.000Z</time>
      </trkpt>
      <trkpt lat="48.69171" lon="1.72227">
        <ele>172</ele>
        <time>2011-08-01T13:06:11.000Z</time>
      </trkpt>
      <trkpt lat="48.69174" lon="1.72226">
        <ele>171.80000305176</ele>
        <time>2011-08-01T13:06:12.000Z</time>
      </trkpt>
      <trkpt lat="48.69181" lon="1.72221">
        <ele>171.39999389648</ele>
        <time>2011-08-01T13:06:17.000Z</time>
      </trkpt>
      <trkpt lat="48.69183" lon="1.7222">
        <ele>171.39999389648</ele>
        <time>2011-08-01T13:06:19.000Z</time>
      </trkpt>
      <trkpt lat="48.69193" lon="1.72211">
        <ele>170.80000305176</ele>
        <time>2011-08-01T13:06:27.000Z</time>
      </trkpt>
      <trkpt lat="48.69203" lon="1.72203">
        <ele>170.19999694824</ele>
        <time>2011-08-01T13:06:34.000Z</time>
      </trkpt>
      <trkpt lat="48.69204" lon="1.72202">
        <ele>170.19999694824</ele>
        <time>2011-08-01T13:06:35.000Z</time>
      </trkpt>
      <trkpt lat="48.69211" lon="1.72197">
        <ele>169.80000305176</ele>
        <time>2011-08-01T13:06:40.000Z</time>
      </trkpt>
      <trkpt lat="48.69219" lon="1.72191">
        <ele>169.19999694824</ele>
        <time>2011-08-01T13:06:46.000Z</time>
      </trkpt>
      <trkpt lat="48.69227" lon="1.72184">
        <ele>168.60000610352</ele>
        <time>2011-08-01T13:06:52.000Z</time>
      </trkpt>
      <trkpt lat="48.69235" lon="1.72181">
        <ele>168</ele>
        <time>2011-08-01T13:06:58.000Z</time>
      </trkpt>
      <trkpt lat="48.69243" lon="1.72188">
        <ele>167.60000610352</ele>
        <time>2011-08-01T13:07:04.000Z</time>
      </trkpt>
      <trkpt lat="48.69254" lon="1.72195">
        <ele>167</ele>
        <time>2011-08-01T13:07:12.000Z</time>
      </trkpt>
      <trkpt lat="48.69261" lon="1.72204">
        <ele>166.60000610352</ele>
        <time>2011-08-01T13:07:19.000Z</time>
      </trkpt>
      <trkpt lat="48.69264" lon="1.72209">
        <ele>166.39999389648</ele>
        <time>2011-08-01T13:07:22.000Z</time>
      </trkpt>
      <trkpt lat="48.69269" lon="1.72218">
        <ele>166.19999694824</ele>
        <time>2011-08-01T13:07:28.000Z</time>
      </trkpt>
      <trkpt lat="48.69272" lon="1.72224">
        <ele>166</ele>
        <time>2011-08-01T13:07:31.000Z</time>
      </trkpt>
      <trkpt lat="48.69278" lon="1.7223">
        <ele>165.60000610352</ele>
        <time>2011-08-01T13:07:36.000Z</time>
      </trkpt>
      <trkpt lat="48.69287" lon="1.72242">
        <ele>164.80000305176</ele>
        <time>2011-08-01T13:07:45.000Z</time>
      </trkpt>
      <trkpt lat="48.69289" lon="1.72247">
        <ele>164.60000610352</ele>
        <time>2011-08-01T13:07:48.000Z</time>
      </trkpt>
      <trkpt lat="48.69297" lon="1.72265">
        <ele>164.19999694824</ele>
        <time>2011-08-01T13:07:58.000Z</time>
      </trkpt>
      <trkpt lat="48.69298" lon="1.7227">
        <ele>164.19999694824</ele>
        <time>2011-08-01T13:08:01.000Z</time>
      </trkpt>
      <trkpt lat="48.69306" lon="1.72288">
        <ele>163.80000305176</ele>
        <time>2011-08-01T13:08:09.000Z</time>
      </trkpt>
      <trkpt lat="48.69309" lon="1.72295">
        <ele>163.80000305176</ele>
        <time>2011-08-01T13:08:12.000Z</time>
      </trkpt>
      <trkpt lat="48.69317" lon="1.72307">
        <ele>163.39999389648</ele>
        <time>2011-08-01T13:08:20.000Z</time>
      </trkpt>
      <trkpt lat="48.69323" lon="1.72319">
        <ele>163.19999694824</ele>
        <time>2011-08-01T13:08:27.000Z</time>
      </trkpt>
      <trkpt lat="48.6933" lon="1.72334">
        <ele>163.19999694824</ele>
        <time>2011-08-01T13:08:36.000Z</time>
      </trkpt>
      <trkpt lat="48.69335" lon="1.72344">
        <ele>162.80000305176</ele>
        <time>2011-08-01T13:08:42.000Z</time>
      </trkpt>
      <trkpt lat="48.69338" lon="1.72351">
        <ele>162.80000305176</ele>
        <time>2011-08-01T13:08:46.000Z</time>
      </trkpt>
      <trkpt lat="48.69343" lon="1.72359">
        <ele>162.60000610352</ele>
        <time>2011-08-01T13:08:52.000Z</time>
      </trkpt>
      <trkpt lat="48.69349" lon="1.72371">
        <ele>162.39999389648</ele>
        <time>2011-08-01T13:09:00.000Z</time>
      </trkpt>
      <trkpt lat="48.69355" lon="1.72383">
        <ele>162.19999694824</ele>
        <time>2011-08-01T13:09:07.000Z</time>
      </trkpt>
      <trkpt lat="48.69356" lon="1.72387">
        <ele>162.19999694824</ele>
        <time>2011-08-01T13:09:09.000Z</time>
      </trkpt>
      <trkpt lat="48.69361" lon="1.72396">
        <ele>162.19999694824</ele>
        <time>2011-08-01T13:09:15.000Z</time>
      </trkpt>
      <trkpt lat="48.69366" lon="1.72406">
        <ele>162</ele>
        <time>2011-08-01T13:09:20.000Z</time>
      </trkpt>
      <trkpt lat="48.69372" lon="1.72415">
        <ele>162</ele>
        <time>2011-08-01T13:09:27.000Z</time>
      </trkpt>
      <trkpt lat="48.69375" lon="1.72425">
        <ele>162</ele>
        <time>2011-08-01T13:09:32.000Z</time>
      </trkpt>
      <trkpt lat="48.69379" lon="1.72436">
        <ele>162.19999694824</ele>
        <time>2011-08-01T13:09:39.000Z</time>
      </trkpt>
      <trkpt lat="48.69379" lon="1.72437">
        <ele>162.19999694824</ele>
        <time>2011-08-01T13:09:40.000Z</time>
      </trkpt>
      <trkpt lat="48.69383" lon="1.72441">
        <ele>162.19999694824</ele>
        <time>2011-08-01T13:09:45.000Z</time>
      </trkpt>
      <trkpt lat="48.69384" lon="1.72446">
        <ele>162.39999389648</ele>
        <time>2011-08-01T13:09:50.000Z</time>
      </trkpt>
      <trkpt lat="48.69389" lon="1.72454">
        <ele>162.39999389648</ele>
        <time>2011-08-01T13:09:56.000Z</time>
      </trkpt>
      <trkpt lat="48.69392" lon="1.72457">
        <ele>162.39999389648</ele>
        <time>2011-08-01T13:10:00.000Z</time>
      </trkpt>
      <trkpt lat="48.69396" lon="1.72465">
        <ele>162.60000610352</ele>
        <time>2011-08-01T13:10:06.000Z</time>
      </trkpt>
      <trkpt lat="48.69401" lon="1.7247">
        <ele>162.60000610352</ele>
        <time>2011-08-01T13:10:10.000Z</time>
      </trkpt>
      <trkpt lat="48.69409" lon="1.72485">
        <ele>162.80000305176</ele>
        <time>2011-08-01T13:10:19.000Z</time>
      </trkpt>
      <trkpt lat="48.69415" lon="1.72497">
        <ele>162.80000305176</ele>
        <time>2011-08-01T13:10:27.000Z</time>
      </trkpt>
      <trkpt lat="48.6942" lon="1.72508">
        <ele>162.80000305176</ele>
        <time>2011-08-01T13:10:34.000Z</time>
      </trkpt>
      <trkpt lat="48.69426" lon="1.72516">
        <ele>162.80000305176</ele>
        <time>2011-08-01T13:10:40.000Z</time>
      </trkpt>
      <trkpt lat="48.6943" lon="1.72525">
        <ele>162.60000610352</ele>
        <time>2011-08-01T13:10:46.000Z</time>
      </trkpt>
      <trkpt lat="48.69435" lon="1.72536">
        <ele>162.60000610352</ele>
        <time>2011-08-01T13:10:52.000Z</time>
      </trkpt>
      <trkpt lat="48.69439" lon="1.72547">
        <ele>162.39999389648</ele>
        <time>2011-08-01T13:10:59.000Z</time>
      </trkpt>
      <trkpt lat="48.69442" lon="1.72559">
        <ele>162.39999389648</ele>
        <time>2011-08-01T13:11:05.000Z</time>
      </trkpt>
      <trkpt lat="48.69449" lon="1.72573">
        <ele>162.39999389648</ele>
        <time>2011-08-01T13:11:14.000Z</time>
      </trkpt>
      <trkpt lat="48.69455" lon="1.72588">
        <ele>162.60000610352</ele>
        <time>2011-08-01T13:11:22.000Z</time>
      </trkpt>
      <trkpt lat="48.69464" lon="1.72607">
        <ele>163</ele>
        <time>2011-08-01T13:11:33.000Z</time>
      </trkpt>
      <trkpt lat="48.69471" lon="1.72618">
        <ele>163.19999694824</ele>
        <time>2011-08-01T13:11:40.000Z</time>
      </trkpt>
      <trkpt lat="48.69475" lon="1.72623">
        <ele>163.39999389648</ele>
        <time>2011-08-01T13:11:43.000Z</time>
      </trkpt>
      <trkpt lat="48.69479" lon="1.72633">
        <ele>163.60000610352</ele>
        <time>2011-08-01T13:11:49.000Z</time>
      </trkpt>
      <trkpt lat="48.6948" lon="1.72634">
        <ele>163.60000610352</ele>
        <time>2011-08-01T13:11:50.000Z</time>
      </trkpt>
      <trkpt lat="48.69486" lon="1.72642">
        <ele>163.80000305176</ele>
        <time>2011-08-01T13:11:56.000Z</time>
      </trkpt>
      <trkpt lat="48.69494" lon="1.72652">
        <ele>164</ele>
        <time>2011-08-01T13:12:05.000Z</time>
      </trkpt>
      <trkpt lat="48.69501" lon="1.72663">
        <ele>164</ele>
        <time>2011-08-01T13:12:12.000Z</time>
      </trkpt>
      <trkpt lat="48.69505" lon="1.72666">
        <ele>164.19999694824</ele>
        <time>2011-08-01T13:12:16.000Z</time>
      </trkpt>
      <trkpt lat="48.69512" lon="1.72676">
        <ele>164.60000610352</ele>
        <time>2011-08-01T13:12:23.000Z</time>
      </trkpt>
      <trkpt lat="48.69514" lon="1.7268">
        <ele>164.80000305176</ele>
        <time>2011-08-01T13:12:25.000Z</time>
      </trkpt>
      <trkpt lat="48.69516" lon="1.72694">
        <ele>164.60000610352</ele>
        <time>2011-08-01T13:12:33.000Z</time>
      </trkpt>
      <trkpt lat="48.69515" lon="1.72704">
        <ele>164.39999389648</ele>
        <time>2011-08-01T13:12:40.000Z</time>
      </trkpt>
      <trkpt lat="48.69518" lon="1.72707">
        <ele>164.60000610352</ele>
        <time>2011-08-01T13:12:44.000Z</time>
      </trkpt>
      <trkpt lat="48.69523" lon="1.72713">
        <ele>164.80000305176</ele>
        <time>2011-08-01T13:12:47.000Z</time>
      </trkpt>
      <trkpt lat="48.69532" lon="1.72724">
        <ele>165.19999694824</ele>
        <time>2011-08-01T13:12:56.000Z</time>
      </trkpt>
      <trkpt lat="48.69538" lon="1.72723">
        <ele>165.60000610352</ele>
        <time>2011-08-01T13:13:03.000Z</time>
      </trkpt>
      <trkpt lat="48.69545" lon="1.72713">
        <ele>166.19999694824</ele>
        <time>2011-08-01T13:13:10.000Z</time>
      </trkpt>
      <trkpt lat="48.6955" lon="1.72706">
        <ele>166.80000305176</ele>
        <time>2011-08-01T13:13:15.000Z</time>
      </trkpt>
      <trkpt lat="48.69552" lon="1.72703">
        <ele>167</ele>
        <time>2011-08-01T13:13:17.000Z</time>
      </trkpt>
      <trkpt lat="48.69564" lon="1.727">
        <ele>167.80000305176</ele>
        <time>2011-08-01T13:13:25.000Z</time>
      </trkpt>
      <trkpt lat="48.69572" lon="1.72701">
        <ele>168.39999389648</ele>
        <time>2011-08-01T13:13:31.000Z</time>
      </trkpt>
      <trkpt lat="48.69573" lon="1.72701">
        <ele>168.39999389648</ele>
        <time>2011-08-01T13:13:32.000Z</time>
      </trkpt>
      <trkpt lat="48.69582" lon="1.72701">
        <ele>169</ele>
        <time>2011-08-01T13:13:38.000Z</time>
      </trkpt>
      <trkpt lat="48.69591" lon="1.72702">
        <ele>169</ele>
        <time>2011-08-01T13:13:45.000Z</time>
      </trkpt>
      <trkpt lat="48.696" lon="1.72704">
        <ele>169</ele>
        <time>2011-08-01T13:13:51.000Z</time>
      </trkpt>
      <trkpt lat="48.69608" lon="1.72701">
        <ele>169.19999694824</ele>
        <time>2011-08-01T13:13:57.000Z</time>
      </trkpt>
      <trkpt lat="48.69617" lon="1.72701">
        <ele>169.19999694824</ele>
        <time>2011-08-01T13:14:03.000Z</time>
      </trkpt>
      <trkpt lat="48.6962" lon="1.72701">
        <ele>169.19999694824</ele>
        <time>2011-08-01T13:14:06.000Z</time>
      </trkpt>
      <trkpt lat="48.69624" lon="1.72702">
        <ele>169.19999694824</ele>
        <time>2011-08-01T13:14:10.000Z</time>
      </trkpt>
      <trkpt lat="48.69631" lon="1.72701">
        <ele>169.19999694824</ele>
        <time>2011-08-01T13:14:14.000Z</time>
      </trkpt>
      <trkpt lat="48.69636" lon="1.72701">
        <ele>169.19999694824</ele>
        <time>2011-08-01T13:14:18.000Z</time>
      </trkpt>
      <trkpt lat="48.6964" lon="1.72701">
        <ele>169.19999694824</ele>
        <time>2011-08-01T13:14:21.000Z</time>
      </trkpt>
      <trkpt lat="48.69645" lon="1.72699">
        <ele>169.19999694824</ele>
        <time>2011-08-01T13:14:25.000Z</time>
      </trkpt>
      <trkpt lat="48.69656" lon="1.72697">
        <ele>169.39999389648</ele>
        <time>2011-08-01T13:14:33.000Z</time>
      </trkpt>
      <trkpt lat="48.69666" lon="1.72697">
        <ele>169.39999389648</ele>
        <time>2011-08-01T13:14:41.000Z</time>
      </trkpt>
      <trkpt lat="48.69675" lon="1.72698">
        <ele>169.19999694824</ele>
        <time>2011-08-01T13:14:49.000Z</time>
      </trkpt>
      <trkpt lat="48.69687" lon="1.727">
        <ele>169</ele>
        <time>2011-08-01T13:14:57.000Z</time>
      </trkpt>
      <trkpt lat="48.697" lon="1.72698">
        <ele>168.80000305176</ele>
        <time>2011-08-01T13:15:05.000Z</time>
      </trkpt>
      <trkpt lat="48.69707" lon="1.72698">
        <ele>168.60000610352</ele>
        <time>2011-08-01T13:15:09.000Z</time>
      </trkpt>
      <trkpt lat="48.69717" lon="1.72697">
        <ele>168.60000610352</ele>
        <time>2011-08-01T13:15:16.000Z</time>
      </trkpt>
      <trkpt lat="48.69726" lon="1.72698">
        <ele>168.39999389648</ele>
        <time>2011-08-01T13:15:23.000Z</time>
      </trkpt>
      <trkpt lat="48.69737" lon="1.72696">
        <ele>168.19999694824</ele>
        <time>2011-08-01T13:15:31.000Z</time>
      </trkpt>
      <trkpt lat="48.69742" lon="1.72694">
        <ele>168</ele>
        <time>2011-08-01T13:15:35.000Z</time>
      </trkpt>
      <trkpt lat="48.69752" lon="1.72694">
        <ele>168</ele>
        <time>2011-08-01T13:15:43.000Z</time>
      </trkpt>
      <trkpt lat="48.69759" lon="1.72693">
        <ele>168</ele>
        <time>2011-08-01T13:15:49.000Z</time>
      </trkpt>
      <trkpt lat="48.69761" lon="1.72692">
        <ele>168.19999694824</ele>
        <time>2011-08-01T13:15:51.000Z</time>
      </trkpt>
      <trkpt lat="48.69766" lon="1.72691">
        <ele>168.19999694824</ele>
        <time>2011-08-01T13:15:55.000Z</time>
      </trkpt>
      <trkpt lat="48.69776" lon="1.72693">
        <ele>168.39999389648</ele>
        <time>2011-08-01T13:16:02.000Z</time>
      </trkpt>
      <trkpt lat="48.69788" lon="1.72694">
        <ele>168.60000610352</ele>
        <time>2011-08-01T13:16:10.000Z</time>
      </trkpt>
      <trkpt lat="48.698" lon="1.72693">
        <ele>168.80000305176</ele>
        <time>2011-08-01T13:16:18.000Z</time>
      </trkpt>
      <trkpt lat="48.69809" lon="1.72695">
        <ele>169</ele>
        <time>2011-08-01T13:16:25.000Z</time>
      </trkpt>
      <trkpt lat="48.6982" lon="1.72695">
        <ele>169.39999389648</ele>
        <time>2011-08-01T13:16:33.000Z</time>
      </trkpt>
      <trkpt lat="48.69828" lon="1.72693">
        <ele>169.39999389648</ele>
        <time>2011-08-01T13:16:39.000Z</time>
      </trkpt>
      <trkpt lat="48.69839" lon="1.72692">
        <ele>169.60000610352</ele>
        <time>2011-08-01T13:16:47.000Z</time>
      </trkpt>
      <trkpt lat="48.69849" lon="1.72691">
        <ele>169.80000305176</ele>
        <time>2011-08-01T13:16:55.000Z</time>
      </trkpt>
      <trkpt lat="48.69862" lon="1.7269">
        <ele>169.80000305176</ele>
        <time>2011-08-01T13:17:04.000Z</time>
      </trkpt>
      <trkpt lat="48.69874" lon="1.7269">
        <ele>170</ele>
        <time>2011-08-01T13:17:12.000Z</time>
      </trkpt>
      <trkpt lat="48.6989" lon="1.72689">
        <ele>170.19999694824</ele>
        <time>2011-08-01T13:17:23.000Z</time>
      </trkpt>
      <trkpt lat="48.69904" lon="1.72689">
        <ele>170.39999389648</ele>
        <time>2011-08-01T13:17:33.000Z</time>
      </trkpt>
      <trkpt lat="48.69915" lon="1.72689">
        <ele>170.60000610352</ele>
        <time>2011-08-01T13:17:41.000Z</time>
      </trkpt>
      <trkpt lat="48.69929" lon="1.7269">
        <ele>170.80000305176</ele>
        <time>2011-08-01T13:17:51.000Z</time>
      </trkpt>
      <trkpt lat="48.69941" lon="1.7269">
        <ele>171.19999694824</ele>
        <time>2011-08-01T13:18:00.000Z</time>
      </trkpt>
      <trkpt lat="48.69952" lon="1.7269">
        <ele>171.39999389648</ele>
        <time>2011-08-01T13:18:08.000Z</time>
      </trkpt>
      <trkpt lat="48.69964" lon="1.7269">
        <ele>171.60000610352</ele>
        <time>2011-08-01T13:18:17.000Z</time>
      </trkpt>
      <trkpt lat="48.69971" lon="1.72691">
        <ele>171.80000305176</ele>
        <time>2011-08-01T13:18:22.000Z</time>
      </trkpt>
      <trkpt lat="48.69978" lon="1.72689">
        <ele>171.80000305176</ele>
        <time>2011-08-01T13:18:29.000Z</time>
      </trkpt>
      <trkpt lat="48.69982" lon="1.72689">
        <ele>172</ele>
        <time>2011-08-01T13:18:32.000Z</time>
      </trkpt>
      <trkpt lat="48.69993" lon="1.7269">
        <ele>172.19999694824</ele>
        <time>2011-08-01T13:18:42.000Z</time>
      </trkpt>
      <trkpt lat="48.69994" lon="1.7269">
        <ele>172.19999694824</ele>
        <time>2011-08-01T13:18:44.000Z</time>
      </trkpt>
      <trkpt lat="48.7" lon="1.72692">
        <ele>172.39999389648</ele>
        <time>2011-08-01T13:18:51.000Z</time>
      </trkpt>
      <trkpt lat="48.70013" lon="1.72692">
        <ele>173.60000610352</ele>
        <time>2011-08-01T13:18:59.000Z</time>
      </trkpt>
      <trkpt lat="48.70022" lon="1.72691">
        <ele>174.19999694824</ele>
        <time>2011-08-01T13:19:06.000Z</time>
      </trkpt>
      <trkpt lat="48.70032" lon="1.72692">
        <ele>175.19999694824</ele>
        <time>2011-08-01T13:19:14.000Z</time>
      </trkpt>
      <trkpt lat="48.70042" lon="1.72691">
        <ele>176</ele>
        <time>2011-08-01T13:19:21.000Z</time>
      </trkpt>
      <trkpt lat="48.70051" lon="1.7269">
        <ele>176.60000610352</ele>
        <time>2011-08-01T13:19:28.000Z</time>
      </trkpt>
      <trkpt lat="48.7006" lon="1.72691">
        <ele>177.39999389648</ele>
        <time>2011-08-01T13:19:35.000Z</time>
      </trkpt>
      <trkpt lat="48.7007" lon="1.72691">
        <ele>178.39999389648</ele>
        <time>2011-08-01T13:19:43.000Z</time>
      </trkpt>
      <trkpt lat="48.70073" lon="1.72691">
        <ele>178.60000610352</ele>
        <time>2011-08-01T13:19:45.000Z</time>
      </trkpt>
      <trkpt lat="48.70082" lon="1.72691">
        <ele>179.39999389648</ele>
        <time>2011-08-01T13:19:52.000Z</time>
      </trkpt>
      <trkpt lat="48.70084" lon="1.72691">
        <ele>179.39999389648</ele>
        <time>2011-08-01T13:19:54.000Z</time>
      </trkpt>
      <trkpt lat="48.70088" lon="1.7269">
        <ele>179.39999389648</ele>
        <time>2011-08-01T13:19:57.000Z</time>
      </trkpt>
      <trkpt lat="48.701" lon="1.7269">
        <ele>179.39999389648</ele>
        <time>2011-08-01T13:20:06.000Z</time>
      </trkpt>
      <trkpt lat="48.70108" lon="1.72688">
        <ele>179.19999694824</ele>
        <time>2011-08-01T13:20:12.000Z</time>
      </trkpt>
      <trkpt lat="48.70109" lon="1.72688">
        <ele>179.19999694824</ele>
        <time>2011-08-01T13:20:13.000Z</time>
      </trkpt>
      <trkpt lat="48.70118" lon="1.72689">
        <ele>179.19999694824</ele>
        <time>2011-08-01T13:20:19.000Z</time>
      </trkpt>
      <trkpt lat="48.70119" lon="1.72689">
        <ele>179.19999694824</ele>
        <time>2011-08-01T13:20:20.000Z</time>
      </trkpt>
      <trkpt lat="48.70128" lon="1.72688">
        <ele>179.19999694824</ele>
        <time>2011-08-01T13:20:26.000Z</time>
      </trkpt>
      <trkpt lat="48.70138" lon="1.72688">
        <ele>179</ele>
        <time>2011-08-01T13:20:33.000Z</time>
      </trkpt>
      <trkpt lat="48.70141" lon="1.72688">
        <ele>179</ele>
        <time>2011-08-01T13:20:35.000Z</time>
      </trkpt>
      <trkpt lat="48.7015" lon="1.72691">
        <ele>178.80000305176</ele>
        <time>2011-08-01T13:20:41.000Z</time>
      </trkpt>
      <trkpt lat="48.70159" lon="1.72692">
        <ele>178.80000305176</ele>
        <time>2011-08-01T13:20:47.000Z</time>
      </trkpt>
      <trkpt lat="48.70163" lon="1.72693">
        <ele>178.60000610352</ele>
        <time>2011-08-01T13:20:51.000Z</time>
      </trkpt>
      <trkpt lat="48.70166" lon="1.72704">
        <ele>178.19999694824</ele>
        <time>2011-08-01T13:20:56.000Z</time>
      </trkpt>
      <trkpt lat="48.70165" lon="1.72715">
        <ele>177.60000610352</ele>
        <time>2011-08-01T13:21:01.000Z</time>
      </trkpt>
      <trkpt lat="48.70162" lon="1.72729">
        <ele>177.19999694824</ele>
        <time>2011-08-01T13:21:07.000Z</time>
      </trkpt>
      <trkpt lat="48.70158" lon="1.72743">
        <ele>176.60000610352</ele>
        <time>2011-08-01T13:21:13.000Z</time>
      </trkpt>
      <trkpt lat="48.70156" lon="1.72754">
        <ele>176.39999389648</ele>
        <time>2011-08-01T13:21:18.000Z</time>
      </trkpt>
      <trkpt lat="48.70154" lon="1.72761">
        <ele>176.39999389648</ele>
        <time>2011-08-01T13:21:21.000Z</time>
      </trkpt>
      <trkpt lat="48.70151" lon="1.72772">
        <ele>176.39999389648</ele>
        <time>2011-08-01T13:21:26.000Z</time>
      </trkpt>
      <trkpt lat="48.70147" lon="1.72783">
        <ele>176.39999389648</ele>
        <time>2011-08-01T13:21:32.000Z</time>
      </trkpt>
      <trkpt lat="48.70141" lon="1.72802">
        <ele>176.60000610352</ele>
        <time>2011-08-01T13:21:41.000Z</time>
      </trkpt>
      <trkpt lat="48.70136" lon="1.7282">
        <ele>176.60000610352</ele>
        <time>2011-08-01T13:21:49.000Z</time>
      </trkpt>
      <trkpt lat="48.70131" lon="1.72837">
        <ele>176.80000305176</ele>
        <time>2011-08-01T13:21:58.000Z</time>
      </trkpt>
      <trkpt lat="48.7013" lon="1.72838">
        <ele>177</ele>
        <time>2011-08-01T13:21:59.000Z</time>
      </trkpt>
      <trkpt lat="48.70126" lon="1.7285">
        <ele>177</ele>
        <time>2011-08-01T13:22:05.000Z</time>
      </trkpt>
      <trkpt lat="48.7012" lon="1.72868">
        <ele>177.19999694824</ele>
        <time>2011-08-01T13:22:14.000Z</time>
      </trkpt>
      <trkpt lat="48.70114" lon="1.72888">
        <ele>177.19999694824</ele>
        <time>2011-08-01T13:22:24.000Z</time>
      </trkpt>
      <trkpt lat="48.70109" lon="1.72904">
        <ele>177.39999389648</ele>
        <time>2011-08-01T13:22:32.000Z</time>
      </trkpt>
      <trkpt lat="48.70107" lon="1.7291">
        <ele>177.39999389648</ele>
        <time>2011-08-01T13:22:35.000Z</time>
      </trkpt>
      <trkpt lat="48.70105" lon="1.72922">
        <ele>177.39999389648</ele>
        <time>2011-08-01T13:22:42.000Z</time>
      </trkpt>
      <trkpt lat="48.70103" lon="1.72929">
        <ele>177.60000610352</ele>
        <time>2011-08-01T13:22:48.000Z</time>
      </trkpt>
      <trkpt lat="48.70099" lon="1.7294">
        <ele>178</ele>
        <time>2011-08-01T13:22:55.000Z</time>
      </trkpt>
      <trkpt lat="48.70094" lon="1.72951">
        <ele>178.60000610352</ele>
        <time>2011-08-01T13:23:01.000Z</time>
      </trkpt>
      <trkpt lat="48.70089" lon="1.72966">
        <ele>179.19999694824</ele>
        <time>2011-08-01T13:23:09.000Z</time>
      </trkpt>
      <trkpt lat="48.70085" lon="1.72977">
        <ele>179.60000610352</ele>
        <time>2011-08-01T13:23:16.000Z</time>
      </trkpt>
      <trkpt lat="48.70081" lon="1.72991">
        <ele>180</ele>
        <time>2011-08-01T13:23:24.000Z</time>
      </trkpt>
      <trkpt lat="48.70076" lon="1.73003">
        <ele>180.60000610352</ele>
        <time>2011-08-01T13:23:31.000Z</time>
      </trkpt>
      <trkpt lat="48.70073" lon="1.73013">
        <ele>181.19999694824</ele>
        <time>2011-08-01T13:23:36.000Z</time>
      </trkpt>
      <trkpt lat="48.70068" lon="1.73027">
        <ele>181.80000305176</ele>
        <time>2011-08-01T13:23:43.000Z</time>
      </trkpt>
      <trkpt lat="48.70064" lon="1.73042">
        <ele>182.39999389648</ele>
        <time>2011-08-01T13:23:51.000Z</time>
      </trkpt>
      <trkpt lat="48.70059" lon="1.73057">
        <ele>182.80000305176</ele>
        <time>2011-08-01T13:23:59.000Z</time>
      </trkpt>
      <trkpt lat="48.70055" lon="1.7307">
        <ele>183.19999694824</ele>
        <time>2011-08-01T13:24:06.000Z</time>
      </trkpt>
      <trkpt lat="48.70048" lon="1.73084">
        <ele>183.60000610352</ele>
        <time>2011-08-01T13:24:13.000Z</time>
      </trkpt>
      <trkpt lat="48.70044" lon="1.73098">
        <ele>183.39999389648</ele>
        <time>2011-08-01T13:24:19.000Z</time>
      </trkpt>
      <trkpt lat="48.70041" lon="1.73107">
        <ele>183.19999694824</ele>
        <time>2011-08-01T13:24:24.000Z</time>
      </trkpt>
      <trkpt lat="48.70039" lon="1.73113">
        <ele>183</ele>
        <time>2011-08-01T13:24:26.000Z</time>
      </trkpt>
      <trkpt lat="48.7004" lon="1.7312">
        <ele>182.80000305176</ele>
        <time>2011-08-01T13:24:31.000Z</time>
      </trkpt>
      <trkpt lat="48.70031" lon="1.73132">
        <ele>182.80000305176</ele>
        <time>2011-08-01T13:24:38.000Z</time>
      </trkpt>
      <trkpt lat="48.70027" lon="1.73147">
        <ele>182.19999694824</ele>
        <time>2011-08-01T13:24:47.000Z</time>
      </trkpt>
      <trkpt lat="48.70021" lon="1.73163">
        <ele>181.80000305176</ele>
        <time>2011-08-01T13:24:56.000Z</time>
      </trkpt>
      <trkpt lat="48.70017" lon="1.73172">
        <ele>181.39999389648</ele>
        <time>2011-08-01T13:25:02.000Z</time>
      </trkpt>
      <trkpt lat="48.70013" lon="1.73182">
        <ele>181.19999694824</ele>
        <time>2011-08-01T13:25:07.000Z</time>
      </trkpt>
      <trkpt lat="48.70008" lon="1.73194">
        <ele>180.60000610352</ele>
        <time>2011-08-01T13:25:15.000Z</time>
      </trkpt>
      <trkpt lat="48.70002" lon="1.73205">
        <ele>180</ele>
        <time>2011-08-01T13:25:22.000Z</time>
      </trkpt>
      <trkpt lat="48.69996" lon="1.73219">
        <ele>179.19999694824</ele>
        <time>2011-08-01T13:25:30.000Z</time>
      </trkpt>
      <trkpt lat="48.69989" lon="1.73231">
        <ele>178.39999389648</ele>
        <time>2011-08-01T13:25:38.000Z</time>
      </trkpt>
      <trkpt lat="48.69982" lon="1.73243">
        <ele>177.60000610352</ele>
        <time>2011-08-01T13:25:45.000Z</time>
      </trkpt>
      <trkpt lat="48.69978" lon="1.73251">
        <ele>177.19999694824</ele>
        <time>2011-08-01T13:25:50.000Z</time>
      </trkpt>
      <trkpt lat="48.69973" lon="1.73261">
        <ele>177.19999694824</ele>
        <time>2011-08-01T13:25:55.000Z</time>
      </trkpt>
      <trkpt lat="48.69967" lon="1.73274">
        <ele>177.19999694824</ele>
        <time>2011-08-01T13:26:02.000Z</time>
      </trkpt>
      <trkpt lat="48.6996" lon="1.73287">
        <ele>177.19999694824</ele>
        <time>2011-08-01T13:26:10.000Z</time>
      </trkpt>
      <trkpt lat="48.69954" lon="1.73301">
        <ele>177.19999694824</ele>
        <time>2011-08-01T13:26:18.000Z</time>
      </trkpt>
      <trkpt lat="48.69949" lon="1.7331">
        <ele>177.19999694824</ele>
        <time>2011-08-01T13:26:24.000Z</time>
      </trkpt>
      <trkpt lat="48.69944" lon="1.73321">
        <ele>177.39999389648</ele>
        <time>2011-08-01T13:26:30.000Z</time>
      </trkpt>
      <trkpt lat="48.69938" lon="1.73334">
        <ele>177.39999389648</ele>
        <time>2011-08-01T13:26:37.000Z</time>
      </trkpt>
      <trkpt lat="48.69931" lon="1.73347">
        <ele>177.39999389648</ele>
        <time>2011-08-01T13:26:45.000Z</time>
      </trkpt>
      <trkpt lat="48.69924" lon="1.73362">
        <ele>177.60000610352</ele>
        <time>2011-08-01T13:26:53.000Z</time>
      </trkpt>
      <trkpt lat="48.69918" lon="1.73373">
        <ele>177.80000305176</ele>
        <time>2011-08-01T13:27:01.000Z</time>
      </trkpt>
      <trkpt lat="48.69917" lon="1.73377">
        <ele>178</ele>
        <time>2011-08-01T13:27:04.000Z</time>
      </trkpt>
      <trkpt lat="48.6991" lon="1.73385">
        <ele>178.19999694824</ele>
        <time>2011-08-01T13:27:10.000Z</time>
      </trkpt>
      <trkpt lat="48.69909" lon="1.73386">
        <ele>178.19999694824</ele>
        <time>2011-08-01T13:27:11.000Z</time>
      </trkpt>
      <trkpt lat="48.69907" lon="1.73391">
        <ele>178.39999389648</ele>
        <time>2011-08-01T13:27:14.000Z</time>
      </trkpt>
      <trkpt lat="48.69903" lon="1.734">
        <ele>178.60000610352</ele>
        <time>2011-08-01T13:27:19.000Z</time>
      </trkpt>
      <trkpt lat="48.69898" lon="1.7341">
        <ele>178.80000305176</ele>
        <time>2011-08-01T13:27:26.000Z</time>
      </trkpt>
      <trkpt lat="48.69898" lon="1.73411">
        <ele>178.80000305176</ele>
        <time>2011-08-01T13:27:27.000Z</time>
      </trkpt>
      <trkpt lat="48.69898" lon="1.73413">
        <ele>178.80000305176</ele>
        <time>2011-08-01T13:27:31.000Z</time>
      </trkpt>
      <trkpt lat="48.69889" lon="1.73431">
        <ele>178.60000610352</ele>
        <time>2011-08-01T13:29:14.000Z</time>
      </trkpt>
      <trkpt lat="48.69885" lon="1.73439">
        <ele>178.39999389648</ele>
        <time>2011-08-01T13:29:19.000Z</time>
      </trkpt>
      <trkpt lat="48.69885" lon="1.73441">
        <ele>178.39999389648</ele>
        <time>2011-08-01T13:29:20.000Z</time>
      </trkpt>
      <trkpt lat="48.6988" lon="1.73453">
        <ele>178.19999694824</ele>
        <time>2011-08-01T13:29:26.000Z</time>
      </trkpt>
      <trkpt lat="48.69875" lon="1.73463">
        <ele>178</ele>
        <time>2011-08-01T13:29:32.000Z</time>
      </trkpt>
      <trkpt lat="48.69873" lon="1.73471">
        <ele>178</ele>
        <time>2011-08-01T13:29:37.000Z</time>
      </trkpt>
      <trkpt lat="48.69871" lon="1.73478">
        <ele>178</ele>
        <time>2011-08-01T13:29:41.000Z</time>
      </trkpt>
      <trkpt lat="48.69866" lon="1.73487">
        <ele>178</ele>
        <time>2011-08-01T13:29:47.000Z</time>
      </trkpt>
      <trkpt lat="48.69863" lon="1.73492">
        <ele>178</ele>
        <time>2011-08-01T13:29:51.000Z</time>
      </trkpt>
      <trkpt lat="48.69859" lon="1.735">
        <ele>178</ele>
        <time>2011-08-01T13:29:56.000Z</time>
      </trkpt>
      <trkpt lat="48.69853" lon="1.73511">
        <ele>178.19999694824</ele>
        <time>2011-08-01T13:30:01.000Z</time>
      </trkpt>
      <trkpt lat="48.69848" lon="1.73524">
        <ele>178.39999389648</ele>
        <time>2011-08-01T13:30:08.000Z</time>
      </trkpt>
      <trkpt lat="48.69842" lon="1.73535">
        <ele>178.60000610352</ele>
        <time>2011-08-01T13:30:16.000Z</time>
      </trkpt>
      <trkpt lat="48.69834" lon="1.73549">
        <ele>178.80000305176</ele>
        <time>2011-08-01T13:30:23.000Z</time>
      </trkpt>
      <trkpt lat="48.69828" lon="1.7356">
        <ele>179</ele>
        <time>2011-08-01T13:30:29.000Z</time>
      </trkpt>
      <trkpt lat="48.69821" lon="1.73572">
        <ele>179</ele>
        <time>2011-08-01T13:30:36.000Z</time>
      </trkpt>
      <trkpt lat="48.69819" lon="1.73574">
        <ele>179</ele>
        <time>2011-08-01T13:30:38.000Z</time>
      </trkpt>
      <trkpt lat="48.69814" lon="1.73587">
        <ele>179</ele>
        <time>2011-08-01T13:30:44.000Z</time>
      </trkpt>
      <trkpt lat="48.69809" lon="1.73597">
        <ele>179</ele>
        <time>2011-08-01T13:30:49.000Z</time>
      </trkpt>
      <trkpt lat="48.69805" lon="1.73606">
        <ele>179</ele>
        <time>2011-08-01T13:30:55.000Z</time>
      </trkpt>
      <trkpt lat="48.69801" lon="1.73616">
        <ele>179</ele>
        <time>2011-08-01T13:31:01.000Z</time>
      </trkpt>
      <trkpt lat="48.69793" lon="1.73628">
        <ele>179.19999694824</ele>
        <time>2011-08-01T13:31:08.000Z</time>
      </trkpt>
      <trkpt lat="48.69791" lon="1.73633">
        <ele>179.19999694824</ele>
        <time>2011-08-01T13:31:11.000Z</time>
      </trkpt>
      <trkpt lat="48.69786" lon="1.73643">
        <ele>179.39999389648</ele>
        <time>2011-08-01T13:31:17.000Z</time>
      </trkpt>
      <trkpt lat="48.69783" lon="1.73654">
        <ele>179.39999389648</ele>
        <time>2011-08-01T13:31:22.000Z</time>
      </trkpt>
      <trkpt lat="48.69778" lon="1.73661">
        <ele>179.60000610352</ele>
        <time>2011-08-01T13:31:27.000Z</time>
      </trkpt>
      <trkpt lat="48.69778" lon="1.73668">
        <ele>179.60000610352</ele>
        <time>2011-08-01T13:31:31.000Z</time>
      </trkpt>
      <trkpt lat="48.69782" lon="1.73677">
        <ele>179.19999694824</ele>
        <time>2011-08-01T13:31:37.000Z</time>
      </trkpt>
      <trkpt lat="48.69788" lon="1.73677">
        <ele>179.19999694824</ele>
        <time>2011-08-01T13:31:43.000Z</time>
      </trkpt>
      <trkpt lat="48.69797" lon="1.73676">
        <ele>179.19999694824</ele>
        <time>2011-08-01T13:31:48.000Z</time>
      </trkpt>
      <trkpt lat="48.69805" lon="1.73677">
        <ele>179</ele>
        <time>2011-08-01T13:31:54.000Z</time>
      </trkpt>
      <trkpt lat="48.6981" lon="1.73677">
        <ele>179</ele>
        <time>2011-08-01T13:31:57.000Z</time>
      </trkpt>
      <trkpt lat="48.69814" lon="1.73676">
        <ele>179</ele>
        <time>2011-08-01T13:32:01.000Z</time>
      </trkpt>
      <trkpt lat="48.69829" lon="1.73678">
        <ele>178.80000305176</ele>
        <time>2011-08-01T13:32:11.000Z</time>
      </trkpt>
      <trkpt lat="48.69839" lon="1.73679">
        <ele>178.60000610352</ele>
        <time>2011-08-01T13:32:18.000Z</time>
      </trkpt>
      <trkpt lat="48.69848" lon="1.73681">
        <ele>178.39999389648</ele>
        <time>2011-08-01T13:32:25.000Z</time>
      </trkpt>
      <trkpt lat="48.69853" lon="1.73684">
        <ele>178.19999694824</ele>
        <time>2011-08-01T13:32:29.000Z</time>
      </trkpt>
      <trkpt lat="48.69863" lon="1.73687">
        <ele>178</ele>
        <time>2011-08-01T13:32:36.000Z</time>
      </trkpt>
      <trkpt lat="48.69871" lon="1.7369">
        <ele>177.80000305176</ele>
        <time>2011-08-01T13:32:42.000Z</time>
      </trkpt>
      <trkpt lat="48.6988" lon="1.73689">
        <ele>177.60000610352</ele>
        <time>2011-08-01T13:32:49.000Z</time>
      </trkpt>
      <trkpt lat="48.69891" lon="1.7369">
        <ele>177.39999389648</ele>
        <time>2011-08-01T13:32:56.000Z</time>
      </trkpt>
      <trkpt lat="48.699" lon="1.73689">
        <ele>177.19999694824</ele>
        <time>2011-08-01T13:33:02.000Z</time>
      </trkpt>
      <trkpt lat="48.69911" lon="1.7369">
        <ele>177</ele>
        <time>2011-08-01T13:33:09.000Z</time>
      </trkpt>
      <trkpt lat="48.69921" lon="1.73691">
        <ele>177</ele>
        <time>2011-08-01T13:33:16.000Z</time>
      </trkpt>
      <trkpt lat="48.69931" lon="1.73692">
        <ele>177.19999694824</ele>
        <time>2011-08-01T13:33:22.000Z</time>
      </trkpt>
      <trkpt lat="48.6994" lon="1.73693">
        <ele>177.39999389648</ele>
        <time>2011-08-01T13:33:27.000Z</time>
      </trkpt>
      <trkpt lat="48.69951" lon="1.73694">
        <ele>177.60000610352</ele>
        <time>2011-08-01T13:33:36.000Z</time>
      </trkpt>
      <trkpt lat="48.69957" lon="1.73692">
        <ele>177.80000305176</ele>
        <time>2011-08-01T13:33:40.000Z</time>
      </trkpt>
      <trkpt lat="48.69962" lon="1.73694">
        <ele>177.80000305176</ele>
        <time>2011-08-01T13:33:44.000Z</time>
      </trkpt>
      <trkpt lat="48.69974" lon="1.73697">
        <ele>178</ele>
        <time>2011-08-01T13:33:52.000Z</time>
      </trkpt>
      <trkpt lat="48.69985" lon="1.73697">
        <ele>178.19999694824</ele>
        <time>2011-08-01T13:34:00.000Z</time>
      </trkpt>
      <trkpt lat="48.69998" lon="1.73697">
        <ele>178.39999389648</ele>
        <time>2011-08-01T13:34:08.000Z</time>
      </trkpt>
      <trkpt lat="48.7001" lon="1.73699">
        <ele>178.39999389648</ele>
        <time>2011-08-01T13:34:16.000Z</time>
      </trkpt>
      <trkpt lat="48.7002" lon="1.73701">
        <ele>178.19999694824</ele>
        <time>2011-08-01T13:34:22.000Z</time>
      </trkpt>
      <trkpt lat="48.70027" lon="1.73703">
        <ele>178</ele>
        <time>2011-08-01T13:34:28.000Z</time>
      </trkpt>
      <trkpt lat="48.70029" lon="1.73704">
        <ele>178</ele>
        <time>2011-08-01T13:34:30.000Z</time>
      </trkpt>
      <trkpt lat="48.70041" lon="1.73704">
        <ele>177.60000610352</ele>
        <time>2011-08-01T13:34:37.000Z</time>
      </trkpt>
      <trkpt lat="48.70047" lon="1.73704">
        <ele>177.60000610352</ele>
        <time>2011-08-01T13:34:41.000Z</time>
      </trkpt>
      <trkpt lat="48.70052" lon="1.73703">
        <ele>177.39999389648</ele>
        <time>2011-08-01T13:34:45.000Z</time>
      </trkpt>
      <trkpt lat="48.70064" lon="1.73702">
        <ele>177.19999694824</ele>
        <time>2011-08-01T13:34:53.000Z</time>
      </trkpt>
      <trkpt lat="48.70067" lon="1.73702">
        <ele>177.19999694824</ele>
        <time>2011-08-01T13:34:55.000Z</time>
      </trkpt>
      <trkpt lat="48.7008" lon="1.73704">
        <ele>177</ele>
        <time>2011-08-01T13:35:04.000Z</time>
      </trkpt>
      <trkpt lat="48.70086" lon="1.73705">
        <ele>177</ele>
        <time>2011-08-01T13:35:08.000Z</time>
      </trkpt>
      <trkpt lat="48.70095" lon="1.73704">
        <ele>177.19999694824</ele>
        <time>2011-08-01T13:35:14.000Z</time>
      </trkpt>
      <trkpt lat="48.70098" lon="1.73705">
        <ele>177.19999694824</ele>
        <time>2011-08-01T13:35:17.000Z</time>
      </trkpt>
      <trkpt lat="48.70106" lon="1.73706">
        <ele>177.39999389648</ele>
        <time>2011-08-01T13:35:23.000Z</time>
      </trkpt>
      <trkpt lat="48.70115" lon="1.73704">
        <ele>177.39999389648</ele>
        <time>2011-08-01T13:35:29.000Z</time>
      </trkpt>
      <trkpt lat="48.70125" lon="1.73702">
        <ele>177.60000610352</ele>
        <time>2011-08-01T13:35:36.000Z</time>
      </trkpt>
      <trkpt lat="48.70134" lon="1.73705">
        <ele>177.80000305176</ele>
        <time>2011-08-01T13:35:43.000Z</time>
      </trkpt>
      <trkpt lat="48.70147" lon="1.73708">
        <ele>178</ele>
        <time>2011-08-01T13:35:51.000Z</time>
      </trkpt>
      <trkpt lat="48.7016" lon="1.7371">
        <ele>178.19999694824</ele>
        <time>2011-08-01T13:36:00.000Z</time>
      </trkpt>
      <trkpt lat="48.70167" lon="1.73712">
        <ele>178.39999389648</ele>
        <time>2011-08-01T13:36:06.000Z</time>
      </trkpt>
      <trkpt lat="48.70174" lon="1.73713">
        <ele>178.39999389648</ele>
        <time>2011-08-01T13:36:12.000Z</time>
      </trkpt>
      <trkpt lat="48.70184" lon="1.73714">
        <ele>178.39999389648</ele>
        <time>2011-08-01T13:36:19.000Z</time>
      </trkpt>
      <trkpt lat="48.70185" lon="1.73714">
        <ele>178.39999389648</ele>
        <time>2011-08-01T13:36:20.000Z</time>
      </trkpt>
      <trkpt lat="48.70195" lon="1.73717">
        <ele>178.39999389648</ele>
        <time>2011-08-01T13:36:28.000Z</time>
      </trkpt>
      <trkpt lat="48.70205" lon="1.73717">
        <ele>178.39999389648</ele>
        <time>2011-08-01T13:36:36.000Z</time>
      </trkpt>
      <trkpt lat="48.70214" lon="1.73718">
        <ele>178.60000610352</ele>
        <time>2011-08-01T13:36:43.000Z</time>
      </trkpt>
      <trkpt lat="48.70222" lon="1.7372">
        <ele>178.39999389648</ele>
        <time>2011-08-01T13:36:49.000Z</time>
      </trkpt>
      <trkpt lat="48.70225" lon="1.73721">
        <ele>178.39999389648</ele>
        <time>2011-08-01T13:36:52.000Z</time>
      </trkpt>
      <trkpt lat="48.70228" lon="1.73721">
        <ele>178.60000610352</ele>
        <time>2011-08-01T13:36:54.000Z</time>
      </trkpt>
      <trkpt lat="48.70234" lon="1.73719">
        <ele>178.60000610352</ele>
        <time>2011-08-01T13:36:58.000Z</time>
      </trkpt>
      <trkpt lat="48.70236" lon="1.73717">
        <ele>178.60000610352</ele>
        <time>2011-08-01T13:37:00.000Z</time>
      </trkpt>
      <trkpt lat="48.70242" lon="1.73717">
        <ele>178.60000610352</ele>
        <time>2011-08-01T13:37:05.000Z</time>
      </trkpt>
      <trkpt lat="48.70252" lon="1.73718">
        <ele>178.60000610352</ele>
        <time>2011-08-01T13:37:12.000Z</time>
      </trkpt>
      <trkpt lat="48.70261" lon="1.73718">
        <ele>178.60000610352</ele>
        <time>2011-08-01T13:37:18.000Z</time>
      </trkpt>
      <trkpt lat="48.70269" lon="1.73722">
        <ele>178.60000610352</ele>
        <time>2011-08-01T13:37:24.000Z</time>
      </trkpt>
      <trkpt lat="48.70275" lon="1.73733">
        <ele>178.39999389648</ele>
        <time>2011-08-01T13:37:31.000Z</time>
      </trkpt>
      <trkpt lat="48.70274" lon="1.73737">
        <ele>178.39999389648</ele>
        <time>2011-08-01T13:37:33.000Z</time>
      </trkpt>
      <trkpt lat="48.70273" lon="1.73746">
        <ele>178.19999694824</ele>
        <time>2011-08-01T13:37:38.000Z</time>
      </trkpt>
      <trkpt lat="48.70272" lon="1.73757">
        <ele>178.19999694824</ele>
        <time>2011-08-01T13:37:44.000Z</time>
      </trkpt>
      <trkpt lat="48.7027" lon="1.73765">
        <ele>178</ele>
        <time>2011-08-01T13:37:50.000Z</time>
      </trkpt>
      <trkpt lat="48.70272" lon="1.73774">
        <ele>178</ele>
        <time>2011-08-01T13:37:56.000Z</time>
      </trkpt>
      <trkpt lat="48.70272" lon="1.73784">
        <ele>178</ele>
        <time>2011-08-01T13:38:02.000Z</time>
      </trkpt>
      <trkpt lat="48.70271" lon="1.73796">
        <ele>177.80000305176</ele>
        <time>2011-08-01T13:38:08.000Z</time>
      </trkpt>
      <trkpt lat="48.70269" lon="1.73808">
        <ele>177.80000305176</ele>
        <time>2011-08-01T13:38:15.000Z</time>
      </trkpt>
      <trkpt lat="48.70271" lon="1.73814">
        <ele>177.80000305176</ele>
        <time>2011-08-01T13:38:19.000Z</time>
      </trkpt>
      <trkpt lat="48.70271" lon="1.73822">
        <ele>177.80000305176</ele>
        <time>2011-08-01T13:38:23.000Z</time>
      </trkpt>
      <trkpt lat="48.70271" lon="1.73836">
        <ele>177.60000610352</ele>
        <time>2011-08-01T13:38:30.000Z</time>
      </trkpt>
      <trkpt lat="48.70265" lon="1.73847">
        <ele>177.80000305176</ele>
        <time>2011-08-01T13:38:38.000Z</time>
      </trkpt>
      <trkpt lat="48.70259" lon="1.73856">
        <ele>177.80000305176</ele>
        <time>2011-08-01T13:38:45.000Z</time>
      </trkpt>
      <trkpt lat="48.70259" lon="1.73864">
        <ele>177.80000305176</ele>
        <time>2011-08-01T13:38:49.000Z</time>
      </trkpt>
      <trkpt lat="48.70258" lon="1.73869">
        <ele>177.80000305176</ele>
        <time>2011-08-01T13:38:52.000Z</time>
      </trkpt>
      <trkpt lat="48.70255" lon="1.73879">
        <ele>178</ele>
        <time>2011-08-01T13:38:57.000Z</time>
      </trkpt>
      <trkpt lat="48.70255" lon="1.73881">
        <ele>178</ele>
        <time>2011-08-01T13:38:58.000Z</time>
      </trkpt>
      <trkpt lat="48.70253" lon="1.73892">
        <ele>178</ele>
        <time>2011-08-01T13:39:03.000Z</time>
      </trkpt>
      <trkpt lat="48.70252" lon="1.73904">
        <ele>178</ele>
        <time>2011-08-01T13:39:08.000Z</time>
      </trkpt>
      <trkpt lat="48.70246" lon="1.73915">
        <ele>178</ele>
        <time>2011-08-01T13:39:14.000Z</time>
      </trkpt>
      <trkpt lat="48.70245" lon="1.73916">
        <ele>178</ele>
        <time>2011-08-01T13:39:15.000Z</time>
      </trkpt>
      <trkpt lat="48.70241" lon="1.73926">
        <ele>178.19999694824</ele>
        <time>2011-08-01T13:39:22.000Z</time>
      </trkpt>
      <trkpt lat="48.70235" lon="1.73934">
        <ele>178.39999389648</ele>
        <time>2011-08-01T13:39:28.000Z</time>
      </trkpt>
      <trkpt lat="48.70227" lon="1.73942">
        <ele>178.60000610352</ele>
        <time>2011-08-01T13:39:36.000Z</time>
      </trkpt>
      <trkpt lat="48.70222" lon="1.73947">
        <ele>178.80000305176</ele>
        <time>2011-08-01T13:39:40.000Z</time>
      </trkpt>
      <trkpt lat="48.70212" lon="1.73959">
        <ele>179</ele>
        <time>2011-08-01T13:39:48.000Z</time>
      </trkpt>
      <trkpt lat="48.70204" lon="1.73971">
        <ele>179.19999694824</ele>
        <time>2011-08-01T13:39:57.000Z</time>
      </trkpt>
      <trkpt lat="48.70196" lon="1.73976">
        <ele>179.19999694824</ele>
        <time>2011-08-01T13:40:03.000Z</time>
      </trkpt>
      <trkpt lat="48.70191" lon="1.73985">
        <ele>179.19999694824</ele>
        <time>2011-08-01T13:40:09.000Z</time>
      </trkpt>
      <trkpt lat="48.70187" lon="1.73992">
        <ele>179.19999694824</ele>
        <time>2011-08-01T13:40:12.000Z</time>
      </trkpt>
      <trkpt lat="48.70183" lon="1.74005">
        <ele>179.19999694824</ele>
        <time>2011-08-01T13:40:20.000Z</time>
      </trkpt>
      <trkpt lat="48.70181" lon="1.74015">
        <ele>179.19999694824</ele>
        <time>2011-08-01T13:40:26.000Z</time>
      </trkpt>
      <trkpt lat="48.70179" lon="1.74032">
        <ele>179.19999694824</ele>
        <time>2011-08-01T13:40:35.000Z</time>
      </trkpt>
      <trkpt lat="48.70174" lon="1.74044">
        <ele>179.19999694824</ele>
        <time>2011-08-01T13:40:41.000Z</time>
      </trkpt>
      <trkpt lat="48.70173" lon="1.74051">
        <ele>179.19999694824</ele>
        <time>2011-08-01T13:40:45.000Z</time>
      </trkpt>
      <trkpt lat="48.70173" lon="1.74058">
        <ele>179.19999694824</ele>
        <time>2011-08-01T13:40:50.000Z</time>
      </trkpt>
      <trkpt lat="48.70177" lon="1.74069">
        <ele>179.19999694824</ele>
        <time>2011-08-01T13:40:56.000Z</time>
      </trkpt>
      <trkpt lat="48.70177" lon="1.74071">
        <ele>179.19999694824</ele>
        <time>2011-08-01T13:40:57.000Z</time>
      </trkpt>
      <trkpt lat="48.70181" lon="1.74085">
        <ele>179.39999389648</ele>
        <time>2011-08-01T13:41:05.000Z</time>
      </trkpt>
      <trkpt lat="48.70185" lon="1.74099">
        <ele>179.60000610352</ele>
        <time>2011-08-01T13:41:13.000Z</time>
      </trkpt>
      <trkpt lat="48.70189" lon="1.74113">
        <ele>179.60000610352</ele>
        <time>2011-08-01T13:41:20.000Z</time>
      </trkpt>
      <trkpt lat="48.70191" lon="1.74128">
        <ele>179.60000610352</ele>
        <time>2011-08-01T13:41:28.000Z</time>
      </trkpt>
      <trkpt lat="48.70194" lon="1.74142">
        <ele>179.60000610352</ele>
        <time>2011-08-01T13:41:35.000Z</time>
      </trkpt>
      <trkpt lat="48.70197" lon="1.74155">
        <ele>179.60000610352</ele>
        <time>2011-08-01T13:41:41.000Z</time>
      </trkpt>
      <trkpt lat="48.70198" lon="1.74161">
        <ele>179.60000610352</ele>
        <time>2011-08-01T13:41:46.000Z</time>
      </trkpt>
      <trkpt lat="48.70201" lon="1.74174">
        <ele>179.60000610352</ele>
        <time>2011-08-01T13:41:53.000Z</time>
      </trkpt>
      <trkpt lat="48.70206" lon="1.74189">
        <ele>179.39999389648</ele>
        <time>2011-08-01T13:42:01.000Z</time>
      </trkpt>
      <trkpt lat="48.70211" lon="1.74205">
        <ele>179.19999694824</ele>
        <time>2011-08-01T13:42:09.000Z</time>
      </trkpt>
      <trkpt lat="48.70212" lon="1.74216">
        <ele>179.19999694824</ele>
        <time>2011-08-01T13:42:15.000Z</time>
      </trkpt>
      <trkpt lat="48.70215" lon="1.74228">
        <ele>179</ele>
        <time>2011-08-01T13:42:20.000Z</time>
      </trkpt>
      <trkpt lat="48.70218" lon="1.74243">
        <ele>178.80000305176</ele>
        <time>2011-08-01T13:42:27.000Z</time>
      </trkpt>
      <trkpt lat="48.70219" lon="1.74248">
        <ele>178.80000305176</ele>
        <time>2011-08-01T13:42:30.000Z</time>
      </trkpt>
      <trkpt lat="48.7022" lon="1.74254">
        <ele>178.80000305176</ele>
        <time>2011-08-01T13:42:33.000Z</time>
      </trkpt>
      <trkpt lat="48.70221" lon="1.74262">
        <ele>178.60000610352</ele>
        <time>2011-08-01T13:42:37.000Z</time>
      </trkpt>
      <trkpt lat="48.70225" lon="1.74277">
        <ele>178.60000610352</ele>
        <time>2011-08-01T13:42:45.000Z</time>
      </trkpt>
      <trkpt lat="48.70226" lon="1.7428">
        <ele>178.60000610352</ele>
        <time>2011-08-01T13:42:47.000Z</time>
      </trkpt>
      <trkpt lat="48.70228" lon="1.7429">
        <ele>178.60000610352</ele>
        <time>2011-08-01T13:42:52.000Z</time>
      </trkpt>
      <trkpt lat="48.70232" lon="1.74296">
        <ele>178.60000610352</ele>
        <time>2011-08-01T13:42:56.000Z</time>
      </trkpt>
      <trkpt lat="48.70234" lon="1.74311">
        <ele>178.39999389648</ele>
        <time>2011-08-01T13:43:03.000Z</time>
      </trkpt>
      <trkpt lat="48.70235" lon="1.74314">
        <ele>178.39999389648</ele>
        <time>2011-08-01T13:43:04.000Z</time>
      </trkpt>
      <trkpt lat="48.70236" lon="1.74323">
        <ele>178.39999389648</ele>
        <time>2011-08-01T13:43:08.000Z</time>
      </trkpt>
      <trkpt lat="48.70238" lon="1.74333">
        <ele>178.39999389648</ele>
        <time>2011-08-01T13:43:14.000Z</time>
      </trkpt>
      <trkpt lat="48.70241" lon="1.74347">
        <ele>177.80000305176</ele>
        <time>2011-08-01T13:43:20.000Z</time>
      </trkpt>
      <trkpt lat="48.70244" lon="1.74361">
        <ele>177.39999389648</ele>
        <time>2011-08-01T13:43:26.000Z</time>
      </trkpt>
      <trkpt lat="48.70248" lon="1.74377">
        <ele>176.80000305176</ele>
        <time>2011-08-01T13:43:33.000Z</time>
      </trkpt>
      <trkpt lat="48.7025" lon="1.74385">
        <ele>176.39999389648</ele>
        <time>2011-08-01T13:43:37.000Z</time>
      </trkpt>
      <trkpt lat="48.70254" lon="1.74402">
        <ele>175.60000610352</ele>
        <time>2011-08-01T13:43:44.000Z</time>
      </trkpt>
      <trkpt lat="48.70256" lon="1.7441">
        <ele>175.19999694824</ele>
        <time>2011-08-01T13:43:48.000Z</time>
      </trkpt>
      <trkpt lat="48.70259" lon="1.74417">
        <ele>174.80000305176</ele>
        <time>2011-08-01T13:43:52.000Z</time>
      </trkpt>
      <trkpt lat="48.70265" lon="1.74428">
        <ele>174.60000610352</ele>
        <time>2011-08-01T13:43:59.000Z</time>
      </trkpt>
      <trkpt lat="48.70272" lon="1.74438">
        <ele>174.39999389648</ele>
        <time>2011-08-01T13:44:06.000Z</time>
      </trkpt>
      <trkpt lat="48.70274" lon="1.74444">
        <ele>174.19999694824</ele>
        <time>2011-08-01T13:44:09.000Z</time>
      </trkpt>
      <trkpt lat="48.70275" lon="1.74455">
        <ele>174</ele>
        <time>2011-08-01T13:44:13.000Z</time>
      </trkpt>
      <trkpt lat="48.70273" lon="1.74469">
        <ele>173.60000610352</ele>
        <time>2011-08-01T13:44:18.000Z</time>
      </trkpt>
      <trkpt lat="48.70272" lon="1.7448">
        <ele>173.39999389648</ele>
        <time>2011-08-01T13:44:22.000Z</time>
      </trkpt>
      <trkpt lat="48.70276" lon="1.745">
        <ele>172.80000305176</ele>
        <time>2011-08-01T13:44:31.000Z</time>
      </trkpt>
      <trkpt lat="48.70279" lon="1.74519">
        <ele>172.39999389648</ele>
        <time>2011-08-01T13:44:39.000Z</time>
      </trkpt>
      <trkpt lat="48.70283" lon="1.74533">
        <ele>172</ele>
        <time>2011-08-01T13:44:46.000Z</time>
      </trkpt>
      <trkpt lat="48.70288" lon="1.74548">
        <ele>171.60000610352</ele>
        <time>2011-08-01T13:44:53.000Z</time>
      </trkpt>
      <trkpt lat="48.70292" lon="1.74562">
        <ele>171.39999389648</ele>
        <time>2011-08-01T13:45:00.000Z</time>
      </trkpt>
      <trkpt lat="48.70294" lon="1.74568">
        <ele>171.39999389648</ele>
        <time>2011-08-01T13:45:03.000Z</time>
      </trkpt>
      <trkpt lat="48.70298" lon="1.74583">
        <ele>171.19999694824</ele>
        <time>2011-08-01T13:45:11.000Z</time>
      </trkpt>
      <trkpt lat="48.70301" lon="1.74602">
        <ele>170.80000305176</ele>
        <time>2011-08-01T13:45:19.000Z</time>
      </trkpt>
      <trkpt lat="48.70305" lon="1.74619">
        <ele>170.19999694824</ele>
        <time>2011-08-01T13:45:27.000Z</time>
      </trkpt>
      <trkpt lat="48.70306" lon="1.74626">
        <ele>170</ele>
        <time>2011-08-01T13:45:30.000Z</time>
      </trkpt>
      <trkpt lat="48.7031" lon="1.74643">
        <ele>169.60000610352</ele>
        <time>2011-08-01T13:45:39.000Z</time>
      </trkpt>
      <trkpt lat="48.7031" lon="1.74647">
        <ele>169.39999389648</ele>
        <time>2011-08-01T13:45:41.000Z</time>
      </trkpt>
      <trkpt lat="48.70304" lon="1.74652">
        <ele>169</ele>
        <time>2011-08-01T13:45:46.000Z</time>
      </trkpt>
      <trkpt lat="48.70292" lon="1.74659">
        <ele>168.60000610352</ele>
        <time>2011-08-01T13:45:55.000Z</time>
      </trkpt>
      <trkpt lat="48.70291" lon="1.74661">
        <ele>168.60000610352</ele>
        <time>2011-08-01T13:45:56.000Z</time>
      </trkpt>
      <trkpt lat="48.70287" lon="1.74678">
        <ele>168.60000610352</ele>
        <time>2011-08-01T13:46:04.000Z</time>
      </trkpt>
      <trkpt lat="48.70283" lon="1.74696">
        <ele>168.80000305176</ele>
        <time>2011-08-01T13:46:11.000Z</time>
      </trkpt>
      <trkpt lat="48.70282" lon="1.74698">
        <ele>168.80000305176</ele>
        <time>2011-08-01T13:46:12.000Z</time>
      </trkpt>
      <trkpt lat="48.70279" lon="1.74715">
        <ele>169.19999694824</ele>
        <time>2011-08-01T13:46:19.000Z</time>
      </trkpt>
      <trkpt lat="48.70277" lon="1.74731">
        <ele>169.60000610352</ele>
        <time>2011-08-01T13:46:26.000Z</time>
      </trkpt>
      <trkpt lat="48.70274" lon="1.74747">
        <ele>170</ele>
        <time>2011-08-01T13:46:34.000Z</time>
      </trkpt>
      <trkpt lat="48.70273" lon="1.74764">
        <ele>170.39999389648</ele>
        <time>2011-08-01T13:46:42.000Z</time>
      </trkpt>
      <trkpt lat="48.7027" lon="1.7478">
        <ele>170.80000305176</ele>
        <time>2011-08-01T13:46:50.000Z</time>
      </trkpt>
      <trkpt lat="48.70268" lon="1.74793">
        <ele>171.19999694824</ele>
        <time>2011-08-01T13:46:57.000Z</time>
      </trkpt>
      <trkpt lat="48.70266" lon="1.74811">
        <ele>171.60000610352</ele>
        <time>2011-08-01T13:47:05.000Z</time>
      </trkpt>
      <trkpt lat="48.70263" lon="1.74831">
        <ele>172.19999694824</ele>
        <time>2011-08-01T13:47:14.000Z</time>
      </trkpt>
      <trkpt lat="48.7026" lon="1.74845">
        <ele>172.39999389648</ele>
        <time>2011-08-01T13:47:21.000Z</time>
      </trkpt>
      <trkpt lat="48.70258" lon="1.74858">
        <ele>172.60000610352</ele>
        <time>2011-08-01T13:47:27.000Z</time>
      </trkpt>
      <trkpt lat="48.70257" lon="1.74871">
        <ele>172.60000610352</ele>
        <time>2011-08-01T13:47:33.000Z</time>
      </trkpt>
      <trkpt lat="48.70254" lon="1.7489">
        <ele>172.80000305176</ele>
        <time>2011-08-01T13:47:43.000Z</time>
      </trkpt>
      <trkpt lat="48.70251" lon="1.7491">
        <ele>172.80000305176</ele>
        <time>2011-08-01T13:47:53.000Z</time>
      </trkpt>
      <trkpt lat="48.70248" lon="1.74929">
        <ele>173.60000610352</ele>
        <time>2011-08-01T13:48:03.000Z</time>
      </trkpt>
      <trkpt lat="48.70245" lon="1.74948">
        <ele>174.60000610352</ele>
        <time>2011-08-01T13:48:13.000Z</time>
      </trkpt>
      <trkpt lat="48.70244" lon="1.74958">
        <ele>175</ele>
        <time>2011-08-01T13:48:18.000Z</time>
      </trkpt>
      <trkpt lat="48.70243" lon="1.74973">
        <ele>175.80000305176</ele>
        <time>2011-08-01T13:48:25.000Z</time>
      </trkpt>
      <trkpt lat="48.70241" lon="1.74985">
        <ele>176.39999389648</ele>
        <time>2011-08-01T13:48:31.000Z</time>
      </trkpt>
      <trkpt lat="48.70238" lon="1.74998">
        <ele>177</ele>
        <time>2011-08-01T13:48:38.000Z</time>
      </trkpt>
      <trkpt lat="48.70236" lon="1.75014">
        <ele>177.39999389648</ele>
        <time>2011-08-01T13:48:46.000Z</time>
      </trkpt>
      <trkpt lat="48.70234" lon="1.75023">
        <ele>177.60000610352</ele>
        <time>2011-08-01T13:48:52.000Z</time>
      </trkpt>
      <trkpt lat="48.70232" lon="1.75029">
        <ele>177.60000610352</ele>
        <time>2011-08-01T13:48:56.000Z</time>
      </trkpt>
      <trkpt lat="48.7023" lon="1.75037">
        <ele>177.80000305176</ele>
        <time>2011-08-01T13:49:01.000Z</time>
      </trkpt>
      <trkpt lat="48.70229" lon="1.75048">
        <ele>178</ele>
        <time>2011-08-01T13:49:07.000Z</time>
      </trkpt>
      <trkpt lat="48.70228" lon="1.7505">
        <ele>178</ele>
        <time>2011-08-01T13:49:08.000Z</time>
      </trkpt>
      <trkpt lat="48.70226" lon="1.7507">
        <ele>178.39999389648</ele>
        <time>2011-08-01T13:49:16.000Z</time>
      </trkpt>
      <trkpt lat="48.70224" lon="1.75086">
        <ele>178.60000610352</ele>
        <time>2011-08-01T13:49:24.000Z</time>
      </trkpt>
      <trkpt lat="48.70222" lon="1.75098">
        <ele>178.39999389648</ele>
        <time>2011-08-01T13:49:30.000Z</time>
      </trkpt>
      <trkpt lat="48.70221" lon="1.75102">
        <ele>178.39999389648</ele>
        <time>2011-08-01T13:49:32.000Z</time>
      </trkpt>
      <trkpt lat="48.7022" lon="1.75112">
        <ele>178.19999694824</ele>
        <time>2011-08-01T13:49:37.000Z</time>
      </trkpt>
      <trkpt lat="48.70217" lon="1.75127">
        <ele>178</ele>
        <time>2011-08-01T13:49:44.000Z</time>
      </trkpt>
      <trkpt lat="48.70214" lon="1.75145">
        <ele>177.80000305176</ele>
        <time>2011-08-01T13:49:52.000Z</time>
      </trkpt>
      <trkpt lat="48.70211" lon="1.75155">
        <ele>177.60000610352</ele>
        <time>2011-08-01T13:49:57.000Z</time>
      </trkpt>
      <trkpt lat="48.7021" lon="1.75163">
        <ele>177.60000610352</ele>
        <time>2011-08-01T13:50:02.000Z</time>
      </trkpt>
      <trkpt lat="48.70205" lon="1.75177">
        <ele>177.39999389648</ele>
        <time>2011-08-01T13:50:11.000Z</time>
      </trkpt>
      <trkpt lat="48.70203" lon="1.75186">
        <ele>177.39999389648</ele>
        <time>2011-08-01T13:50:15.000Z</time>
      </trkpt>
      <trkpt lat="48.70201" lon="1.75203">
        <ele>177.39999389648</ele>
        <time>2011-08-01T13:50:22.000Z</time>
      </trkpt>
      <trkpt lat="48.70201" lon="1.75213">
        <ele>177.39999389648</ele>
        <time>2011-08-01T13:50:27.000Z</time>
      </trkpt>
      <trkpt lat="48.702" lon="1.75219">
        <ele>177.39999389648</ele>
        <time>2011-08-01T13:50:30.000Z</time>
      </trkpt>
      <trkpt lat="48.702" lon="1.75224">
        <ele>177.39999389648</ele>
        <time>2011-08-01T13:50:32.000Z</time>
      </trkpt>
      <trkpt lat="48.70201" lon="1.75236">
        <ele>177.39999389648</ele>
        <time>2011-08-01T13:50:39.000Z</time>
      </trkpt>
      <trkpt lat="48.70201" lon="1.75237">
        <ele>177.39999389648</ele>
        <time>2011-08-01T13:50:40.000Z</time>
      </trkpt>
      <trkpt lat="48.70209" lon="1.7524">
        <ele>177.80000305176</ele>
        <time>2011-08-01T13:50:47.000Z</time>
      </trkpt>
      <trkpt lat="48.70211" lon="1.7524">
        <ele>178</ele>
        <time>2011-08-01T13:50:48.000Z</time>
      </trkpt>
      <trkpt lat="48.7022" lon="1.75239">
        <ele>178.39999389648</ele>
        <time>2011-08-01T13:50:56.000Z</time>
      </trkpt>
      <trkpt lat="48.70228" lon="1.75244">
        <ele>178.80000305176</ele>
        <time>2011-08-01T13:51:04.000Z</time>
      </trkpt>
      <trkpt lat="48.70236" lon="1.7525">
        <ele>179.19999694824</ele>
        <time>2011-08-01T13:51:11.000Z</time>
      </trkpt>
      <trkpt lat="48.70241" lon="1.75253">
        <ele>179.39999389648</ele>
        <time>2011-08-01T13:51:15.000Z</time>
      </trkpt>
      <trkpt lat="48.70245" lon="1.75258">
        <ele>179.60000610352</ele>
        <time>2011-08-01T13:51:19.000Z</time>
      </trkpt>
      <trkpt lat="48.7025" lon="1.75263">
        <ele>179.80000305176</ele>
        <time>2011-08-01T13:51:24.000Z</time>
      </trkpt>
      <trkpt lat="48.70258" lon="1.75266">
        <ele>179.80000305176</ele>
        <time>2011-08-01T13:51:31.000Z</time>
      </trkpt>
      <trkpt lat="48.70266" lon="1.75276">
        <ele>180</ele>
        <time>2011-08-01T13:51:39.000Z</time>
      </trkpt>
      <trkpt lat="48.70274" lon="1.75283">
        <ele>180</ele>
        <time>2011-08-01T13:51:46.000Z</time>
      </trkpt>
      <trkpt lat="48.70283" lon="1.75288">
        <ele>180.19999694824</ele>
        <time>2011-08-01T13:51:53.000Z</time>
      </trkpt>
      <trkpt lat="48.70287" lon="1.75292">
        <ele>180.19999694824</ele>
        <time>2011-08-01T13:51:57.000Z</time>
      </trkpt>
      <trkpt lat="48.70289" lon="1.75296">
        <ele>180.19999694824</ele>
        <time>2011-08-01T13:52:00.000Z</time>
      </trkpt>
      <trkpt lat="48.70297" lon="1.75304">
        <ele>180.39999389648</ele>
        <time>2011-08-01T13:52:07.000Z</time>
      </trkpt>
      <trkpt lat="48.703" lon="1.7531">
        <ele>180.39999389648</ele>
        <time>2011-08-01T13:52:11.000Z</time>
      </trkpt>
      <trkpt lat="48.70304" lon="1.75319">
        <ele>180.39999389648</ele>
        <time>2011-08-01T13:52:16.000Z</time>
      </trkpt>
      <trkpt lat="48.70309" lon="1.75329">
        <ele>180.39999389648</ele>
        <time>2011-08-01T13:52:22.000Z</time>
      </trkpt>
      <trkpt lat="48.7031" lon="1.75332">
        <ele>180.39999389648</ele>
        <time>2011-08-01T13:52:24.000Z</time>
      </trkpt>
      <trkpt lat="48.70313" lon="1.75337">
        <ele>180.39999389648</ele>
        <time>2011-08-01T13:52:27.000Z</time>
      </trkpt>
      <trkpt lat="48.70323" lon="1.75343">
        <ele>180.60000610352</ele>
        <time>2011-08-01T13:52:34.000Z</time>
      </trkpt>
      <trkpt lat="48.70329" lon="1.75343">
        <ele>180.80000305176</ele>
        <time>2011-08-01T13:52:39.000Z</time>
      </trkpt>
      <trkpt lat="48.7033" lon="1.75345">
        <ele>180.80000305176</ele>
        <time>2011-08-01T13:52:40.000Z</time>
      </trkpt>
      <trkpt lat="48.70334" lon="1.75349">
        <ele>180.80000305176</ele>
        <time>2011-08-01T13:52:44.000Z</time>
      </trkpt>
      <trkpt lat="48.70341" lon="1.75356">
        <ele>180.80000305176</ele>
        <time>2011-08-01T13:52:51.000Z</time>
      </trkpt>
      <trkpt lat="48.70342" lon="1.75357">
        <ele>180.80000305176</ele>
        <time>2011-08-01T13:52:52.000Z</time>
      </trkpt>
      <trkpt lat="48.70349" lon="1.75365">
        <ele>180.60000610352</ele>
        <time>2011-08-01T13:52:59.000Z</time>
      </trkpt>
      <trkpt lat="48.70356" lon="1.75376">
        <ele>180.60000610352</ele>
        <time>2011-08-01T13:53:06.000Z</time>
      </trkpt>
      <trkpt lat="48.70359" lon="1.7538">
        <ele>180.60000610352</ele>
        <time>2011-08-01T13:53:10.000Z</time>
      </trkpt>
      <trkpt lat="48.70366" lon="1.75387">
        <ele>180.80000305176</ele>
        <time>2011-08-01T13:53:17.000Z</time>
      </trkpt>
      <trkpt lat="48.70374" lon="1.75395">
        <ele>180.80000305176</ele>
        <time>2011-08-01T13:53:25.000Z</time>
      </trkpt>
      <trkpt lat="48.70379" lon="1.754">
        <ele>181</ele>
        <time>2011-08-01T13:53:30.000Z</time>
      </trkpt>
      <trkpt lat="48.70382" lon="1.75403">
        <ele>181.19999694824</ele>
        <time>2011-08-01T13:53:33.000Z</time>
      </trkpt>
      <trkpt lat="48.70387" lon="1.75407">
        <ele>181.19999694824</ele>
        <time>2011-08-01T13:53:37.000Z</time>
      </trkpt>
      <trkpt lat="48.7039" lon="1.75407">
        <ele>181.19999694824</ele>
        <time>2011-08-01T13:53:39.000Z</time>
      </trkpt>
      <trkpt lat="48.70397" lon="1.75406">
        <ele>181.19999694824</ele>
        <time>2011-08-01T13:53:45.000Z</time>
      </trkpt>
      <trkpt lat="48.70402" lon="1.75409">
        <ele>181.39999389648</ele>
        <time>2011-08-01T13:53:48.000Z</time>
      </trkpt>
      <trkpt lat="48.70409" lon="1.75414">
        <ele>181.60000610352</ele>
        <time>2011-08-01T13:53:54.000Z</time>
      </trkpt>
      <trkpt lat="48.70418" lon="1.7542">
        <ele>182</ele>
        <time>2011-08-01T13:54:02.000Z</time>
      </trkpt>
      <trkpt lat="48.70424" lon="1.75425">
        <ele>181.60000610352</ele>
        <time>2011-08-01T13:54:08.000Z</time>
      </trkpt>
      <trkpt lat="48.70434" lon="1.75433">
        <ele>181.19999694824</ele>
        <time>2011-08-01T13:54:16.000Z</time>
      </trkpt>
      <trkpt lat="48.70443" lon="1.75439">
        <ele>180.80000305176</ele>
        <time>2011-08-01T13:54:23.000Z</time>
      </trkpt>
      <trkpt lat="48.70445" lon="1.75441">
        <ele>180.80000305176</ele>
        <time>2011-08-01T13:54:26.000Z</time>
      </trkpt>
      <trkpt lat="48.70449" lon="1.75445">
        <ele>180.60000610352</ele>
        <time>2011-08-01T13:54:30.000Z</time>
      </trkpt>
      <trkpt lat="48.7046" lon="1.75455">
        <ele>180.39999389648</ele>
        <time>2011-08-01T13:54:39.000Z</time>
      </trkpt>
      <trkpt lat="48.70463" lon="1.75458">
        <ele>180.39999389648</ele>
        <time>2011-08-01T13:54:41.000Z</time>
      </trkpt>
      <trkpt lat="48.7047" lon="1.75468">
        <ele>180.39999389648</ele>
        <time>2011-08-01T13:54:48.000Z</time>
      </trkpt>
      <trkpt lat="48.70477" lon="1.75474">
        <ele>180.39999389648</ele>
        <time>2011-08-01T13:54:54.000Z</time>
      </trkpt>
      <trkpt lat="48.70484" lon="1.75483">
        <ele>180.60000610352</ele>
        <time>2011-08-01T13:55:01.000Z</time>
      </trkpt>
      <trkpt lat="48.70491" lon="1.75489">
        <ele>180.60000610352</ele>
        <time>2011-08-01T13:55:07.000Z</time>
      </trkpt>
      <trkpt lat="48.70499" lon="1.75495">
        <ele>180.60000610352</ele>
        <time>2011-08-01T13:55:12.000Z</time>
      </trkpt>
      <trkpt lat="48.70507" lon="1.75504">
        <ele>180.39999389648</ele>
        <time>2011-08-01T13:55:19.000Z</time>
      </trkpt>
      <trkpt lat="48.70515" lon="1.75509">
        <ele>180.19999694824</ele>
        <time>2011-08-01T13:55:26.000Z</time>
      </trkpt>
      <trkpt lat="48.70526" lon="1.75521">
        <ele>180.19999694824</ele>
        <time>2011-08-01T13:55:36.000Z</time>
      </trkpt>
      <trkpt lat="48.70534" lon="1.7553">
        <ele>180.19999694824</ele>
        <time>2011-08-01T13:55:44.000Z</time>
      </trkpt>
      <trkpt lat="48.70539" lon="1.75534">
        <ele>180.19999694824</ele>
        <time>2011-08-01T13:55:48.000Z</time>
      </trkpt>
      <trkpt lat="48.70548" lon="1.75546">
        <ele>180.60000610352</ele>
        <time>2011-08-01T13:55:56.000Z</time>
      </trkpt>
      <trkpt lat="48.70549" lon="1.75549">
        <ele>180.80000305176</ele>
        <time>2011-08-01T13:55:58.000Z</time>
      </trkpt>
      <trkpt lat="48.70558" lon="1.75557">
        <ele>181.19999694824</ele>
        <time>2011-08-01T13:56:05.000Z</time>
      </trkpt>
      <trkpt lat="48.70564" lon="1.75564">
        <ele>181.60000610352</ele>
        <time>2011-08-01T13:56:12.000Z</time>
      </trkpt>
      <trkpt lat="48.70571" lon="1.75567">
        <ele>181.60000610352</ele>
        <time>2011-08-01T13:56:18.000Z</time>
      </trkpt>
      <trkpt lat="48.70577" lon="1.75575">
        <ele>182.19999694824</ele>
        <time>2011-08-01T13:56:23.000Z</time>
      </trkpt>
      <trkpt lat="48.70579" lon="1.75577">
        <ele>182.39999389648</ele>
        <time>2011-08-01T13:56:25.000Z</time>
      </trkpt>
      <trkpt lat="48.70587" lon="1.75586">
        <ele>182.60000610352</ele>
        <time>2011-08-01T13:56:32.000Z</time>
      </trkpt>
      <trkpt lat="48.70589" lon="1.7559">
        <ele>182.39999389648</ele>
        <time>2011-08-01T13:56:35.000Z</time>
      </trkpt>
      <trkpt lat="48.70591" lon="1.75595">
        <ele>182.39999389648</ele>
        <time>2011-08-01T13:56:39.000Z</time>
      </trkpt>
      <trkpt lat="48.70593" lon="1.75599">
        <ele>182.39999389648</ele>
        <time>2011-08-01T13:56:42.000Z</time>
      </trkpt>
      <trkpt lat="48.70598" lon="1.75606">
        <ele>181.80000305176</ele>
        <time>2011-08-01T13:56:48.000Z</time>
      </trkpt>
      <trkpt lat="48.70605" lon="1.75615">
        <ele>181.39999389648</ele>
        <time>2011-08-01T13:56:54.000Z</time>
      </trkpt>
      <trkpt lat="48.70613" lon="1.75627">
        <ele>180.60000610352</ele>
        <time>2011-08-01T13:57:02.000Z</time>
      </trkpt>
      <trkpt lat="48.7062" lon="1.75634">
        <ele>180</ele>
        <time>2011-08-01T13:57:07.000Z</time>
      </trkpt>
      <trkpt lat="48.70628" lon="1.75643">
        <ele>179.39999389648</ele>
        <time>2011-08-01T13:57:13.000Z</time>
      </trkpt>
      <trkpt lat="48.70629" lon="1.75645">
        <ele>179.19999694824</ele>
        <time>2011-08-01T13:57:15.000Z</time>
      </trkpt>
      <trkpt lat="48.70633" lon="1.75651">
        <ele>178.80000305176</ele>
        <time>2011-08-01T13:57:19.000Z</time>
      </trkpt>
      <trkpt lat="48.7064" lon="1.75658">
        <ele>178</ele>
        <time>2011-08-01T13:57:26.000Z</time>
      </trkpt>
      <trkpt lat="48.70645" lon="1.75667">
        <ele>177.39999389648</ele>
        <time>2011-08-01T13:57:32.000Z</time>
      </trkpt>
      <trkpt lat="48.70648" lon="1.75676">
        <ele>176.80000305176</ele>
        <time>2011-08-01T13:57:37.000Z</time>
      </trkpt>
      <trkpt lat="48.70654" lon="1.75681">
        <ele>176</ele>
        <time>2011-08-01T13:57:43.000Z</time>
      </trkpt>
      <trkpt lat="48.70661" lon="1.75685">
        <ele>175.19999694824</ele>
        <time>2011-08-01T13:57:48.000Z</time>
      </trkpt>
      <trkpt lat="48.70669" lon="1.75694">
        <ele>174.60000610352</ele>
        <time>2011-08-01T13:57:56.000Z</time>
      </trkpt>
      <trkpt lat="48.7067" lon="1.75695">
        <ele>174.39999389648</ele>
        <time>2011-08-01T13:57:57.000Z</time>
      </trkpt>
      <trkpt lat="48.70678" lon="1.75704">
        <ele>174.39999389648</ele>
        <time>2011-08-01T13:58:04.000Z</time>
      </trkpt>
      <trkpt lat="48.70681" lon="1.75707">
        <ele>174.19999694824</ele>
        <time>2011-08-01T13:58:07.000Z</time>
      </trkpt>
      <trkpt lat="48.70683" lon="1.7571">
        <ele>174.19999694824</ele>
        <time>2011-08-01T13:58:10.000Z</time>
      </trkpt>
      <trkpt lat="48.70688" lon="1.75719">
        <ele>174</ele>
        <time>2011-08-01T13:58:15.000Z</time>
      </trkpt>
      <trkpt lat="48.70696" lon="1.75727">
        <ele>174</ele>
        <time>2011-08-01T13:58:22.000Z</time>
      </trkpt>
      <trkpt lat="48.70698" lon="1.75729">
        <ele>174</ele>
        <time>2011-08-01T13:58:24.000Z</time>
      </trkpt>
      <trkpt lat="48.70705" lon="1.75735">
        <ele>174</ele>
        <time>2011-08-01T13:58:30.000Z</time>
      </trkpt>
      <trkpt lat="48.70709" lon="1.75739">
        <ele>173.80000305176</ele>
        <time>2011-08-01T13:58:33.000Z</time>
      </trkpt>
      <trkpt lat="48.7071" lon="1.75745">
        <ele>173.80000305176</ele>
        <time>2011-08-01T13:58:37.000Z</time>
      </trkpt>
      <trkpt lat="48.70711" lon="1.75747">
        <ele>173.80000305176</ele>
        <time>2011-08-01T13:58:40.000Z</time>
      </trkpt>
      <trkpt lat="48.7071" lon="1.75748">
        <ele>173.80000305176</ele>
        <time>2011-08-01T13:58:43.000Z</time>
      </trkpt>
      <trkpt lat="48.70709" lon="1.75749">
        <ele>173.80000305176</ele>
        <time>2011-08-01T13:58:44.000Z</time>
      </trkpt>
      <trkpt lat="48.70742" lon="1.75796">
        <ele>173.39999389648</ele>
        <time>2011-08-01T14:00:40.000Z</time>
      </trkpt>
      <trkpt lat="48.70747" lon="1.75802">
        <ele>173.19999694824</ele>
        <time>2011-08-01T14:00:44.000Z</time>
      </trkpt>
    </trkseg>
  </trk>
</gpx>